<?xml version="1.0" encoding="UTF-8" standalone="no" ?>
<gpx xmlns="http://www.topografix.com/GPX/1/1" xmlns:xsi="http://www.w3.org/2001/XMLSchema-instance" xsi:schemaLocation="http://www.topografix.com/GPX/1/1 http://www.topografix.com/GPX/1/1/gpx.xsd" version="1.1" creator="VisuGPX - https://www.visugpx.com">
  <metadata>
    <name>Grand Rocher</name>
    <desc><![CDATA[Grand Rocher par Parpoutel - Col du Merdaret  Cret du Poulet - Barioz - Pipay]]></desc>
  </metadata>
  <trk>
    <name><![CDATA[2013-07-21 grand rocher]]></name>
    <desc><![CDATA[<h1>OruxMaps</h1><br /><hr align="center" width="480" style="height: 2px; width: 517px"/><h2>Nom: 2013-07-21 grand rocher</h2><br /><p>Temps de départ: 07/21/2013 10:00</p><p>Temps d'arrivée: 07/21/2013 15:00</p><p>Distance: 30,7 km (05:00)</p><p>Temps déplacement: 03:36</p><p>Vitesse moyenne: 6,1 km/h</p><p>Vitesse moyenne: 8,5 km/h</p><p>Vitess Max.: 49,4 km/h</p><p>Altitude minimale: 1127 m</p><p>Altitude maximale: 1925 m</p><p>Vitesse d'élévation: 481 m/h</p><p>Vitesse de descente: -784 m/h</p><p>Gain Altitude: 1385 m</p><p>Perte Altitude: -1100 m</p><p>Temps d'élévation: 02:52</p><p>Temps de descente: 01:24</p><hr align="center" width="480" style="height: 2px; width: 517px"/>]]></desc>
    <trkseg>
      <trkpt lat="45.256" lon="5.9953">
        <ele>1327.29</ele>
        <time>2013-07-21T08:00:30Z</time>
      </trkpt>
      <trkpt lat="45.2561" lon="5.99509">
        <ele>1332.13</ele>
        <time>2013-07-21T08:03:05Z</time>
      </trkpt>
      <trkpt lat="45.25619" lon="5.99483">
        <ele>1335.11</ele>
        <time>2013-07-21T08:03:21Z</time>
      </trkpt>
      <trkpt lat="45.25621" lon="5.99456">
        <ele>1335.41</ele>
        <time>2013-07-21T08:03:27Z</time>
      </trkpt>
      <trkpt lat="45.25619" lon="5.99429">
        <ele>1335.55</ele>
        <time>2013-07-21T08:03:33Z</time>
      </trkpt>
      <trkpt lat="45.25616" lon="5.994">
        <ele>1335</ele>
        <time>2013-07-21T08:03:39Z</time>
      </trkpt>
      <trkpt lat="45.25616" lon="5.99372">
        <ele>1334.65</ele>
        <time>2013-07-21T08:03:45Z</time>
      </trkpt>
      <trkpt lat="45.25612" lon="5.99346">
        <ele>1335.45</ele>
        <time>2013-07-21T08:04:03Z</time>
      </trkpt>
      <trkpt lat="45.25595" lon="5.99331">
        <ele>1340.62</ele>
        <time>2013-07-21T08:04:12Z</time>
      </trkpt>
      <trkpt lat="45.25579" lon="5.99312">
        <ele>1343.16</ele>
        <time>2013-07-21T08:04:20Z</time>
      </trkpt>
      <trkpt lat="45.25561" lon="5.99302">
        <ele>1346.69</ele>
        <time>2013-07-21T08:04:28Z</time>
      </trkpt>
      <trkpt lat="45.25543" lon="5.99293">
        <ele>1351.21</ele>
        <time>2013-07-21T08:04:37Z</time>
      </trkpt>
      <trkpt lat="45.25523" lon="5.99287">
        <ele>1351.86</ele>
        <time>2013-07-21T08:04:44Z</time>
      </trkpt>
      <trkpt lat="45.25506" lon="5.99278">
        <ele>1353.36</ele>
        <time>2013-07-21T08:04:52Z</time>
      </trkpt>
      <trkpt lat="45.25494" lon="5.99299">
        <ele>1355.68</ele>
        <time>2013-07-21T08:05:01Z</time>
      </trkpt>
      <trkpt lat="45.2549" lon="5.99325">
        <ele>1354.01</ele>
        <time>2013-07-21T08:05:07Z</time>
      </trkpt>
      <trkpt lat="45.2548" lon="5.99348">
        <ele>1357.27</ele>
        <time>2013-07-21T08:05:15Z</time>
      </trkpt>
      <trkpt lat="45.25462" lon="5.99357">
        <ele>1357.04</ele>
        <time>2013-07-21T08:05:22Z</time>
      </trkpt>
      <trkpt lat="45.25444" lon="5.9936">
        <ele>1358.08</ele>
        <time>2013-07-21T08:05:30Z</time>
      </trkpt>
      <trkpt lat="45.25425" lon="5.9936">
        <ele>1358.72</ele>
        <time>2013-07-21T08:05:38Z</time>
      </trkpt>
      <trkpt lat="45.25407" lon="5.99355">
        <ele>1357.74</ele>
        <time>2013-07-21T08:05:45Z</time>
      </trkpt>
      <trkpt lat="45.25387" lon="5.99353">
        <ele>1359.26</ele>
        <time>2013-07-21T08:05:53Z</time>
      </trkpt>
      <trkpt lat="45.25368" lon="5.99353">
        <ele>1360.57</ele>
        <time>2013-07-21T08:06:02Z</time>
      </trkpt>
      <trkpt lat="45.25349" lon="5.99353">
        <ele>1362.95</ele>
        <time>2013-07-21T08:06:12Z</time>
      </trkpt>
      <trkpt lat="45.2533" lon="5.99348">
        <ele>1364.26</ele>
        <time>2013-07-21T08:06:23Z</time>
      </trkpt>
      <trkpt lat="45.25312" lon="5.99344">
        <ele>1368.22</ele>
        <time>2013-07-21T08:06:33Z</time>
      </trkpt>
      <trkpt lat="45.25294" lon="5.99345">
        <ele>1370.67</ele>
        <time>2013-07-21T08:06:43Z</time>
      </trkpt>
      <trkpt lat="45.25274" lon="5.99346">
        <ele>1377.06</ele>
        <time>2013-07-21T08:06:55Z</time>
      </trkpt>
      <trkpt lat="45.25255" lon="5.99345">
        <ele>1372.92</ele>
        <time>2013-07-21T08:07:04Z</time>
      </trkpt>
      <trkpt lat="45.25236" lon="5.9935">
        <ele>1374.65</ele>
        <time>2013-07-21T08:07:14Z</time>
      </trkpt>
      <trkpt lat="45.25217" lon="5.99354">
        <ele>1380.08</ele>
        <time>2013-07-21T08:07:26Z</time>
      </trkpt>
      <trkpt lat="45.25236" lon="5.99349">
        <ele>1378.57</ele>
        <time>2013-07-21T08:07:38Z</time>
      </trkpt>
      <trkpt lat="45.25256" lon="5.99347">
        <ele>1375.57</ele>
        <time>2013-07-21T08:07:42Z</time>
      </trkpt>
      <trkpt lat="45.25275" lon="5.99346">
        <ele>1374.01</ele>
        <time>2013-07-21T08:07:45Z</time>
      </trkpt>
      <trkpt lat="45.25297" lon="5.99346">
        <ele>1373.24</ele>
        <time>2013-07-21T08:07:49Z</time>
      </trkpt>
      <trkpt lat="45.25315" lon="5.99348">
        <ele>1374.01</ele>
        <time>2013-07-21T08:07:53Z</time>
      </trkpt>
      <trkpt lat="45.25297" lon="5.99351">
        <ele>1364.48</ele>
        <time>2013-07-21T08:08:13Z</time>
      </trkpt>
      <trkpt lat="45.25279" lon="5.99353">
        <ele>1370.11</ele>
        <time>2013-07-21T08:08:23Z</time>
      </trkpt>
      <trkpt lat="45.2526" lon="5.99355">
        <ele>1372.43</ele>
        <time>2013-07-21T08:08:32Z</time>
      </trkpt>
      <trkpt lat="45.25241" lon="5.99356">
        <ele>1373.97</ele>
        <time>2013-07-21T08:08:42Z</time>
      </trkpt>
      <trkpt lat="45.25222" lon="5.99362">
        <ele>1379.83</ele>
        <time>2013-07-21T08:08:52Z</time>
      </trkpt>
      <trkpt lat="45.25204" lon="5.99368">
        <ele>1380.38</ele>
        <time>2013-07-21T08:09:02Z</time>
      </trkpt>
      <trkpt lat="45.25185" lon="5.99375">
        <ele>1377.38</ele>
        <time>2013-07-21T08:09:12Z</time>
      </trkpt>
      <trkpt lat="45.25166" lon="5.99386">
        <ele>1382.11</ele>
        <time>2013-07-21T08:09:21Z</time>
      </trkpt>
      <trkpt lat="45.25149" lon="5.99395">
        <ele>1385.11</ele>
        <time>2013-07-21T08:09:30Z</time>
      </trkpt>
      <trkpt lat="45.25131" lon="5.99404">
        <ele>1387.85</ele>
        <time>2013-07-21T08:09:39Z</time>
      </trkpt>
      <trkpt lat="45.25114" lon="5.99414">
        <ele>1389.94</ele>
        <time>2013-07-21T08:09:48Z</time>
      </trkpt>
      <trkpt lat="45.25096" lon="5.99423">
        <ele>1392.08</ele>
        <time>2013-07-21T08:09:57Z</time>
      </trkpt>
      <trkpt lat="45.25079" lon="5.99433">
        <ele>1393.03</ele>
        <time>2013-07-21T08:10:07Z</time>
      </trkpt>
      <trkpt lat="45.25063" lon="5.99446">
        <ele>1397.12</ele>
        <time>2013-07-21T08:10:17Z</time>
      </trkpt>
      <trkpt lat="45.25046" lon="5.99458">
        <ele>1393.43</ele>
        <time>2013-07-21T08:10:33Z</time>
      </trkpt>
      <trkpt lat="45.25027" lon="5.99462">
        <ele>1399.04</ele>
        <time>2013-07-21T08:10:49Z</time>
      </trkpt>
      <trkpt lat="45.25009" lon="5.99467">
        <ele>1406.59</ele>
        <time>2013-07-21T08:10:59Z</time>
      </trkpt>
      <trkpt lat="45.24989" lon="5.99474">
        <ele>1403.02</ele>
        <time>2013-07-21T08:11:11Z</time>
      </trkpt>
      <trkpt lat="45.24971" lon="5.99482">
        <ele>1400.18</ele>
        <time>2013-07-21T08:11:22Z</time>
      </trkpt>
      <trkpt lat="45.24961" lon="5.99504">
        <ele>1407.7</ele>
        <time>2013-07-21T08:11:33Z</time>
      </trkpt>
      <trkpt lat="45.24951" lon="5.99528">
        <ele>1410.95</ele>
        <time>2013-07-21T08:11:45Z</time>
      </trkpt>
      <trkpt lat="45.24934" lon="5.99538">
        <ele>1419.18</ele>
        <time>2013-07-21T08:11:56Z</time>
      </trkpt>
      <trkpt lat="45.24916" lon="5.99548">
        <ele>1418.72</ele>
        <time>2013-07-21T08:12:08Z</time>
      </trkpt>
      <trkpt lat="45.24899" lon="5.99559">
        <ele>1421.99</ele>
        <time>2013-07-21T08:12:18Z</time>
      </trkpt>
      <trkpt lat="45.24882" lon="5.9957">
        <ele>1423.71</ele>
        <time>2013-07-21T08:12:29Z</time>
      </trkpt>
      <trkpt lat="45.24865" lon="5.99581">
        <ele>1425.36</ele>
        <time>2013-07-21T08:12:41Z</time>
      </trkpt>
      <trkpt lat="45.24854" lon="5.99601">
        <ele>1422.52</ele>
        <time>2013-07-21T08:12:54Z</time>
      </trkpt>
      <trkpt lat="45.24839" lon="5.99617">
        <ele>1423.05</ele>
        <time>2013-07-21T08:13:06Z</time>
      </trkpt>
      <trkpt lat="45.24823" lon="5.9963">
        <ele>1422.74</ele>
        <time>2013-07-21T08:13:15Z</time>
      </trkpt>
      <trkpt lat="45.24809" lon="5.99648">
        <ele>1422.73</ele>
        <time>2013-07-21T08:13:24Z</time>
      </trkpt>
      <trkpt lat="45.24794" lon="5.99663">
        <ele>1422.6</ele>
        <time>2013-07-21T08:13:33Z</time>
      </trkpt>
      <trkpt lat="45.24777" lon="5.99678">
        <ele>1423.32</ele>
        <time>2013-07-21T08:13:42Z</time>
      </trkpt>
      <trkpt lat="45.24763" lon="5.99698">
        <ele>1424.31</ele>
        <time>2013-07-21T08:13:51Z</time>
      </trkpt>
      <trkpt lat="45.2475" lon="5.99715">
        <ele>1425.63</ele>
        <time>2013-07-21T08:14:01Z</time>
      </trkpt>
      <trkpt lat="45.24735" lon="5.99731">
        <ele>1429.58</ele>
        <time>2013-07-21T08:14:14Z</time>
      </trkpt>
      <trkpt lat="45.24719" lon="5.99746">
        <ele>1434.7</ele>
        <time>2013-07-21T08:14:27Z</time>
      </trkpt>
      <trkpt lat="45.24715" lon="5.99771">
        <ele>1436.45</ele>
        <time>2013-07-21T08:14:43Z</time>
      </trkpt>
      <trkpt lat="45.24734" lon="5.99781">
        <ele>1453.08</ele>
        <time>2013-07-21T08:14:52Z</time>
      </trkpt>
      <trkpt lat="45.24751" lon="5.99788">
        <ele>1456.41</ele>
        <time>2013-07-21T08:15:03Z</time>
      </trkpt>
      <trkpt lat="45.24769" lon="5.99796">
        <ele>1459.19</ele>
        <time>2013-07-21T08:15:14Z</time>
      </trkpt>
      <trkpt lat="45.24788" lon="5.99804">
        <ele>1466.03</ele>
        <time>2013-07-21T08:15:25Z</time>
      </trkpt>
      <trkpt lat="45.24807" lon="5.99799">
        <ele>1468.77</ele>
        <time>2013-07-21T08:15:34Z</time>
      </trkpt>
      <trkpt lat="45.24826" lon="5.99791">
        <ele>1476.38</ele>
        <time>2013-07-21T08:15:43Z</time>
      </trkpt>
      <trkpt lat="45.24844" lon="5.9978">
        <ele>1473.17</ele>
        <time>2013-07-21T08:15:53Z</time>
      </trkpt>
      <trkpt lat="45.24861" lon="5.99771">
        <ele>1471.47</ele>
        <time>2013-07-21T08:16:04Z</time>
      </trkpt>
      <trkpt lat="45.2488" lon="5.99763">
        <ele>1470.07</ele>
        <time>2013-07-21T08:16:16Z</time>
      </trkpt>
      <trkpt lat="45.24898" lon="5.99757">
        <ele>1471.39</ele>
        <time>2013-07-21T08:16:25Z</time>
      </trkpt>
      <trkpt lat="45.24916" lon="5.99757">
        <ele>1474.19</ele>
        <time>2013-07-21T08:16:36Z</time>
      </trkpt>
      <trkpt lat="45.24935" lon="5.99749">
        <ele>1472.88</ele>
        <time>2013-07-21T08:16:46Z</time>
      </trkpt>
      <trkpt lat="45.24953" lon="5.99739">
        <ele>1479.87</ele>
        <time>2013-07-21T08:16:57Z</time>
      </trkpt>
      <trkpt lat="45.24972" lon="5.99737">
        <ele>1483.62</ele>
        <time>2013-07-21T08:17:08Z</time>
      </trkpt>
      <trkpt lat="45.24988" lon="5.99723">
        <ele>1475.05</ele>
        <time>2013-07-21T08:17:50Z</time>
      </trkpt>
      <trkpt lat="45.25006" lon="5.99713">
        <ele>1469.79</ele>
        <time>2013-07-21T08:21:13Z</time>
      </trkpt>
      <trkpt lat="45.25023" lon="5.99699">
        <ele>1467.18</ele>
        <time>2013-07-21T08:21:22Z</time>
      </trkpt>
      <trkpt lat="45.25042" lon="5.997">
        <ele>1464.12</ele>
        <time>2013-07-21T08:21:34Z</time>
      </trkpt>
      <trkpt lat="45.25058" lon="5.99717">
        <ele>1467.61</ele>
        <time>2013-07-21T08:21:48Z</time>
      </trkpt>
      <trkpt lat="45.25074" lon="5.9973">
        <ele>1466.74</ele>
        <time>2013-07-21T08:21:58Z</time>
      </trkpt>
      <trkpt lat="45.2509" lon="5.99741">
        <ele>1466.84</ele>
        <time>2013-07-21T08:22:10Z</time>
      </trkpt>
      <trkpt lat="45.25106" lon="5.99754">
        <ele>1469.88</ele>
        <time>2013-07-21T08:22:23Z</time>
      </trkpt>
      <trkpt lat="45.25122" lon="5.99768">
        <ele>1480.89</ele>
        <time>2013-07-21T08:22:38Z</time>
      </trkpt>
      <trkpt lat="45.25139" lon="5.99779">
        <ele>1483.14</ele>
        <time>2013-07-21T08:22:53Z</time>
      </trkpt>
      <trkpt lat="45.25155" lon="5.99791">
        <ele>1487.74</ele>
        <time>2013-07-21T08:23:10Z</time>
      </trkpt>
      <trkpt lat="45.25166" lon="5.99812">
        <ele>1492.67</ele>
        <time>2013-07-21T08:23:29Z</time>
      </trkpt>
      <trkpt lat="45.25175" lon="5.99835">
        <ele>1500.01</ele>
        <time>2013-07-21T08:23:53Z</time>
      </trkpt>
      <trkpt lat="45.25185" lon="5.99856">
        <ele>1510.11</ele>
        <time>2013-07-21T08:24:13Z</time>
      </trkpt>
      <trkpt lat="45.25173" lon="5.99875">
        <ele>1505.82</ele>
        <time>2013-07-21T08:24:45Z</time>
      </trkpt>
      <trkpt lat="45.25156" lon="5.99866">
        <ele>1513.91</ele>
        <time>2013-07-21T08:25:05Z</time>
      </trkpt>
      <trkpt lat="45.25138" lon="5.99869">
        <ele>1515.73</ele>
        <time>2013-07-21T08:25:19Z</time>
      </trkpt>
      <trkpt lat="45.25123" lon="5.99884">
        <ele>1522.26</ele>
        <time>2013-07-21T08:25:43Z</time>
      </trkpt>
      <trkpt lat="45.25138" lon="5.99899">
        <ele>1520.3</ele>
        <time>2013-07-21T08:26:08Z</time>
      </trkpt>
      <trkpt lat="45.25153" lon="5.99912">
        <ele>1523.11</ele>
        <time>2013-07-21T08:26:27Z</time>
      </trkpt>
      <trkpt lat="45.25171" lon="5.99918">
        <ele>1520.89</ele>
        <time>2013-07-21T08:26:44Z</time>
      </trkpt>
      <trkpt lat="45.25168" lon="5.99944">
        <ele>1520.06</ele>
        <time>2013-07-21T08:27:07Z</time>
      </trkpt>
      <trkpt lat="45.25152" lon="5.99957">
        <ele>1525.42</ele>
        <time>2013-07-21T08:27:35Z</time>
      </trkpt>
      <trkpt lat="45.25137" lon="5.99971">
        <ele>1535.85</ele>
        <time>2013-07-21T08:28:20Z</time>
      </trkpt>
      <trkpt lat="45.25119" lon="5.99978">
        <ele>1536.26</ele>
        <time>2013-07-21T08:28:45Z</time>
      </trkpt>
      <trkpt lat="45.25103" lon="5.99991">
        <ele>1536.54</ele>
        <time>2013-07-21T08:29:06Z</time>
      </trkpt>
      <trkpt lat="45.25092" lon="6.00011">
        <ele>1544.18</ele>
        <time>2013-07-21T08:29:31Z</time>
      </trkpt>
      <trkpt lat="45.25081" lon="6.00032">
        <ele>1545.04</ele>
        <time>2013-07-21T08:29:54Z</time>
      </trkpt>
      <trkpt lat="45.25074" lon="6.00056">
        <ele>1548.53</ele>
        <time>2013-07-21T08:30:19Z</time>
      </trkpt>
      <trkpt lat="45.25067" lon="6.0008">
        <ele>1553.94</ele>
        <time>2013-07-21T08:30:47Z</time>
      </trkpt>
      <trkpt lat="45.25063" lon="6.00106">
        <ele>1557.3</ele>
        <time>2013-07-21T08:31:12Z</time>
      </trkpt>
      <trkpt lat="45.25066" lon="6.00132">
        <ele>1562.09</ele>
        <time>2013-07-21T08:31:38Z</time>
      </trkpt>
      <trkpt lat="45.25074" lon="6.00156">
        <ele>1571.3</ele>
        <time>2013-07-21T08:31:58Z</time>
      </trkpt>
      <trkpt lat="45.2509" lon="6.00168">
        <ele>1573.88</ele>
        <time>2013-07-21T08:32:18Z</time>
      </trkpt>
      <trkpt lat="45.25102" lon="6.00188">
        <ele>1569.32</ele>
        <time>2013-07-21T08:32:35Z</time>
      </trkpt>
      <trkpt lat="45.25109" lon="6.00214">
        <ele>1567.65</ele>
        <time>2013-07-21T08:32:46Z</time>
      </trkpt>
      <trkpt lat="45.25118" lon="6.0024">
        <ele>1567.93</ele>
        <time>2013-07-21T08:32:55Z</time>
      </trkpt>
      <trkpt lat="45.25126" lon="6.00265">
        <ele>1568.43</ele>
        <time>2013-07-21T08:33:03Z</time>
      </trkpt>
      <trkpt lat="45.25131" lon="6.0029">
        <ele>1567.17</ele>
        <time>2013-07-21T08:33:11Z</time>
      </trkpt>
      <trkpt lat="45.25135" lon="6.00316">
        <ele>1567.81</ele>
        <time>2013-07-21T08:33:20Z</time>
      </trkpt>
      <trkpt lat="45.25135" lon="6.00343">
        <ele>1565.87</ele>
        <time>2013-07-21T08:33:35Z</time>
      </trkpt>
      <trkpt lat="45.25125" lon="6.00372">
        <ele>1566.04</ele>
        <time>2013-07-21T08:33:43Z</time>
      </trkpt>
      <trkpt lat="45.25111" lon="6.00391">
        <ele>1567.07</ele>
        <time>2013-07-21T08:33:51Z</time>
      </trkpt>
      <trkpt lat="45.25101" lon="6.00414">
        <ele>1567.85</ele>
        <time>2013-07-21T08:34:02Z</time>
      </trkpt>
      <trkpt lat="45.25094" lon="6.00439">
        <ele>1574.12</ele>
        <time>2013-07-21T08:34:10Z</time>
      </trkpt>
      <trkpt lat="45.25086" lon="6.00462">
        <ele>1574.02</ele>
        <time>2013-07-21T08:34:18Z</time>
      </trkpt>
      <trkpt lat="45.25075" lon="6.00484">
        <ele>1572.02</ele>
        <time>2013-07-21T08:34:26Z</time>
      </trkpt>
      <trkpt lat="45.25061" lon="6.00502">
        <ele>1573.09</ele>
        <time>2013-07-21T08:34:32Z</time>
      </trkpt>
      <trkpt lat="45.25046" lon="6.00522">
        <ele>1569.14</ele>
        <time>2013-07-21T08:34:38Z</time>
      </trkpt>
      <trkpt lat="45.25029" lon="6.0053">
        <ele>1568.6</ele>
        <time>2013-07-21T08:34:45Z</time>
      </trkpt>
      <trkpt lat="45.25013" lon="6.00547">
        <ele>1568.41</ele>
        <time>2013-07-21T08:34:53Z</time>
      </trkpt>
      <trkpt lat="45.25" lon="6.00565">
        <ele>1566.51</ele>
        <time>2013-07-21T08:34:58Z</time>
      </trkpt>
      <trkpt lat="45.24985" lon="6.00585">
        <ele>1569.38</ele>
        <time>2013-07-21T08:35:04Z</time>
      </trkpt>
      <trkpt lat="45.24968" lon="6.00599">
        <ele>1564.11</ele>
        <time>2013-07-21T08:35:13Z</time>
      </trkpt>
      <trkpt lat="45.2495" lon="6.00615">
        <ele>1558.13</ele>
        <time>2013-07-21T08:35:18Z</time>
      </trkpt>
      <trkpt lat="45.24936" lon="6.00634">
        <ele>1556.12</ele>
        <time>2013-07-21T08:35:25Z</time>
      </trkpt>
      <trkpt lat="45.24927" lon="6.00655">
        <ele>1562.48</ele>
        <time>2013-07-21T08:35:30Z</time>
      </trkpt>
      <trkpt lat="45.24916" lon="6.00676">
        <ele>1562.06</ele>
        <time>2013-07-21T08:35:41Z</time>
      </trkpt>
      <trkpt lat="45.24914" lon="6.00703">
        <ele>1584.76</ele>
        <time>2013-07-21T08:36:02Z</time>
      </trkpt>
      <trkpt lat="45.24903" lon="6.00724">
        <ele>1573.77</ele>
        <time>2013-07-21T08:36:21Z</time>
      </trkpt>
      <trkpt lat="45.24891" lon="6.00746">
        <ele>1567.54</ele>
        <time>2013-07-21T08:36:27Z</time>
      </trkpt>
      <trkpt lat="45.24892" lon="6.00772">
        <ele>1564.8</ele>
        <time>2013-07-21T08:36:30Z</time>
      </trkpt>
      <trkpt lat="45.24899" lon="6.00797">
        <ele>1562.04</ele>
        <time>2013-07-21T08:36:38Z</time>
      </trkpt>
      <trkpt lat="45.24905" lon="6.00823">
        <ele>1566.86</ele>
        <time>2013-07-21T08:36:49Z</time>
      </trkpt>
      <trkpt lat="45.24908" lon="6.00848">
        <ele>1569.31</ele>
        <time>2013-07-21T08:36:59Z</time>
      </trkpt>
      <trkpt lat="45.24912" lon="6.00875">
        <ele>1571.27</ele>
        <time>2013-07-21T08:37:10Z</time>
      </trkpt>
      <trkpt lat="45.24914" lon="6.00903">
        <ele>1570.9</ele>
        <time>2013-07-21T08:37:22Z</time>
      </trkpt>
      <trkpt lat="45.24915" lon="6.00929">
        <ele>1571.51</ele>
        <time>2013-07-21T08:37:31Z</time>
      </trkpt>
      <trkpt lat="45.24918" lon="6.00955">
        <ele>1568.79</ele>
        <time>2013-07-21T08:37:41Z</time>
      </trkpt>
      <trkpt lat="45.24933" lon="6.00972">
        <ele>1571.35</ele>
        <time>2013-07-21T08:37:48Z</time>
      </trkpt>
      <trkpt lat="45.24938" lon="6.00997">
        <ele>1572.94</ele>
        <time>2013-07-21T08:37:57Z</time>
      </trkpt>
      <trkpt lat="45.2494" lon="6.01022">
        <ele>1573.41</ele>
        <time>2013-07-21T08:38:20Z</time>
      </trkpt>
      <trkpt lat="45.24949" lon="6.01045">
        <ele>1581.06</ele>
        <time>2013-07-21T08:39:22Z</time>
      </trkpt>
      <trkpt lat="45.24964" lon="6.01061">
        <ele>1573.06</ele>
        <time>2013-07-21T08:39:33Z</time>
      </trkpt>
      <trkpt lat="45.2498" lon="6.01073">
        <ele>1569.9</ele>
        <time>2013-07-21T08:40:04Z</time>
      </trkpt>
      <trkpt lat="45.24993" lon="6.01093">
        <ele>1563.56</ele>
        <time>2013-07-21T08:40:54Z</time>
      </trkpt>
      <trkpt lat="45.25004" lon="6.01113">
        <ele>1567.57</ele>
        <time>2013-07-21T08:41:09Z</time>
      </trkpt>
      <trkpt lat="45.25014" lon="6.01137">
        <ele>1562.38</ele>
        <time>2013-07-21T08:41:19Z</time>
      </trkpt>
      <trkpt lat="45.25021" lon="6.01161">
        <ele>1560.55</ele>
        <time>2013-07-21T08:41:30Z</time>
      </trkpt>
      <trkpt lat="45.25035" lon="6.01181">
        <ele>1570.65</ele>
        <time>2013-07-21T08:44:01Z</time>
      </trkpt>
      <trkpt lat="45.25052" lon="6.01196">
        <ele>1571.36</ele>
        <time>2013-07-21T08:44:09Z</time>
      </trkpt>
      <trkpt lat="45.25065" lon="6.01215">
        <ele>1574.15</ele>
        <time>2013-07-21T08:44:18Z</time>
      </trkpt>
      <trkpt lat="45.25077" lon="6.01233">
        <ele>1572.39</ele>
        <time>2013-07-21T08:44:27Z</time>
      </trkpt>
      <trkpt lat="45.25088" lon="6.01255">
        <ele>1570.92</ele>
        <time>2013-07-21T08:44:34Z</time>
      </trkpt>
      <trkpt lat="45.25097" lon="6.01278">
        <ele>1571.2</ele>
        <time>2013-07-21T08:44:41Z</time>
      </trkpt>
      <trkpt lat="45.25113" lon="6.01291">
        <ele>1578.98</ele>
        <time>2013-07-21T08:44:56Z</time>
      </trkpt>
      <trkpt lat="45.2513" lon="6.01301">
        <ele>1573.51</ele>
        <time>2013-07-21T08:45:07Z</time>
      </trkpt>
      <trkpt lat="45.25147" lon="6.01314">
        <ele>1574.58</ele>
        <time>2013-07-21T08:45:13Z</time>
      </trkpt>
      <trkpt lat="45.25164" lon="6.01325">
        <ele>1577.4</ele>
        <time>2013-07-21T08:45:22Z</time>
      </trkpt>
      <trkpt lat="45.25182" lon="6.01328">
        <ele>1580.29</ele>
        <time>2013-07-21T08:45:32Z</time>
      </trkpt>
      <trkpt lat="45.252" lon="6.01335">
        <ele>1581.4</ele>
        <time>2013-07-21T08:45:40Z</time>
      </trkpt>
      <trkpt lat="45.25215" lon="6.01354">
        <ele>1582.94</ele>
        <time>2013-07-21T08:45:48Z</time>
      </trkpt>
      <trkpt lat="45.25234" lon="6.01359">
        <ele>1584.42</ele>
        <time>2013-07-21T08:45:55Z</time>
      </trkpt>
      <trkpt lat="45.2525" lon="6.0137">
        <ele>1581.97</ele>
        <time>2013-07-21T08:46:03Z</time>
      </trkpt>
      <trkpt lat="45.25262" lon="6.0139">
        <ele>1582.69</ele>
        <time>2013-07-21T08:46:14Z</time>
      </trkpt>
      <trkpt lat="45.25277" lon="6.01405">
        <ele>1583.44</ele>
        <time>2013-07-21T08:46:23Z</time>
      </trkpt>
      <trkpt lat="45.25291" lon="6.01423">
        <ele>1587.38</ele>
        <time>2013-07-21T08:46:33Z</time>
      </trkpt>
      <trkpt lat="45.25306" lon="6.01439">
        <ele>1580.5</ele>
        <time>2013-07-21T08:46:43Z</time>
      </trkpt>
      <trkpt lat="45.25322" lon="6.01454">
        <ele>1582.75</ele>
        <time>2013-07-21T08:46:52Z</time>
      </trkpt>
      <trkpt lat="45.25333" lon="6.01482">
        <ele>1584.13</ele>
        <time>2013-07-21T08:46:57Z</time>
      </trkpt>
      <trkpt lat="45.25341" lon="6.01504">
        <ele>1582.16</ele>
        <time>2013-07-21T08:47:01Z</time>
      </trkpt>
      <trkpt lat="45.25353" lon="6.01524">
        <ele>1580.33</ele>
        <time>2013-07-21T08:47:05Z</time>
      </trkpt>
      <trkpt lat="45.25364" lon="6.01547">
        <ele>1577.57</ele>
        <time>2013-07-21T08:47:10Z</time>
      </trkpt>
      <trkpt lat="45.25381" lon="6.0156">
        <ele>1573.01</ele>
        <time>2013-07-21T08:47:18Z</time>
      </trkpt>
      <trkpt lat="45.25363" lon="6.01567">
        <ele>1578.93</ele>
        <time>2013-07-21T08:47:52Z</time>
      </trkpt>
      <trkpt lat="45.25346" lon="6.01553">
        <ele>1582.01</ele>
        <time>2013-07-21T08:48:02Z</time>
      </trkpt>
      <trkpt lat="45.25334" lon="6.01533">
        <ele>1584.9</ele>
        <time>2013-07-21T08:48:13Z</time>
      </trkpt>
      <trkpt lat="45.2532" lon="6.01514">
        <ele>1589.74</ele>
        <time>2013-07-21T08:48:25Z</time>
      </trkpt>
      <trkpt lat="45.25303" lon="6.01502">
        <ele>1594.15</ele>
        <time>2013-07-21T08:48:40Z</time>
      </trkpt>
      <trkpt lat="45.25303" lon="6.01529">
        <ele>1591.85</ele>
        <time>2013-07-21T08:48:53Z</time>
      </trkpt>
      <trkpt lat="45.25317" lon="6.01549">
        <ele>1592.86</ele>
        <time>2013-07-21T08:49:04Z</time>
      </trkpt>
      <trkpt lat="45.25327" lon="6.01572">
        <ele>1596.17</ele>
        <time>2013-07-21T08:49:15Z</time>
      </trkpt>
      <trkpt lat="45.25326" lon="6.01599">
        <ele>1595.29</ele>
        <time>2013-07-21T08:49:26Z</time>
      </trkpt>
      <trkpt lat="45.2541" lon="6.01758">
        <ele>1599.88</ele>
        <time>2013-07-21T08:50:45Z</time>
      </trkpt>
      <trkpt lat="45.25424" lon="6.01773">
        <ele>1610.72</ele>
        <time>2013-07-21T08:51:01Z</time>
      </trkpt>
      <trkpt lat="45.25439" lon="6.0179">
        <ele>1617.21</ele>
        <time>2013-07-21T08:51:14Z</time>
      </trkpt>
      <trkpt lat="45.25456" lon="6.01803">
        <ele>1617.2</ele>
        <time>2013-07-21T08:51:28Z</time>
      </trkpt>
      <trkpt lat="45.25474" lon="6.01812">
        <ele>1617.91</ele>
        <time>2013-07-21T08:51:42Z</time>
      </trkpt>
      <trkpt lat="45.25493" lon="6.01812">
        <ele>1619.21</ele>
        <time>2013-07-21T08:51:53Z</time>
      </trkpt>
      <trkpt lat="45.25509" lon="6.01798">
        <ele>1623.01</ele>
        <time>2013-07-21T08:52:04Z</time>
      </trkpt>
      <trkpt lat="45.2552" lon="6.01775">
        <ele>1626.97</ele>
        <time>2013-07-21T08:52:16Z</time>
      </trkpt>
      <trkpt lat="45.25534" lon="6.01756">
        <ele>1628.04</ele>
        <time>2013-07-21T08:52:26Z</time>
      </trkpt>
      <trkpt lat="45.25548" lon="6.01737">
        <ele>1627.46</ele>
        <time>2013-07-21T08:52:34Z</time>
      </trkpt>
      <trkpt lat="45.25566" lon="6.01719">
        <ele>1627.02</ele>
        <time>2013-07-21T08:52:39Z</time>
      </trkpt>
      <trkpt lat="45.25581" lon="6.01703">
        <ele>1625.89</ele>
        <time>2013-07-21T08:52:46Z</time>
      </trkpt>
      <trkpt lat="45.25598" lon="6.01689">
        <ele>1628.84</ele>
        <time>2013-07-21T08:52:57Z</time>
      </trkpt>
      <trkpt lat="45.25615" lon="6.0168">
        <ele>1630.98</ele>
        <time>2013-07-21T08:53:07Z</time>
      </trkpt>
      <trkpt lat="45.25632" lon="6.01668">
        <ele>1631.81</ele>
        <time>2013-07-21T08:53:16Z</time>
      </trkpt>
      <trkpt lat="45.25648" lon="6.01657">
        <ele>1633.11</ele>
        <time>2013-07-21T08:53:26Z</time>
      </trkpt>
      <trkpt lat="45.25664" lon="6.01643">
        <ele>1636.44</ele>
        <time>2013-07-21T08:53:36Z</time>
      </trkpt>
      <trkpt lat="45.25679" lon="6.01629">
        <ele>1637.96</ele>
        <time>2013-07-21T08:53:46Z</time>
      </trkpt>
      <trkpt lat="45.25697" lon="6.0162">
        <ele>1638.06</ele>
        <time>2013-07-21T08:53:55Z</time>
      </trkpt>
      <trkpt lat="45.25716" lon="6.01618">
        <ele>1637.71</ele>
        <time>2013-07-21T08:54:03Z</time>
      </trkpt>
      <trkpt lat="45.25734" lon="6.01611">
        <ele>1638.56</ele>
        <time>2013-07-21T08:54:12Z</time>
      </trkpt>
      <trkpt lat="45.2575" lon="6.01598">
        <ele>1639.25</ele>
        <time>2013-07-21T08:54:21Z</time>
      </trkpt>
      <trkpt lat="45.25767" lon="6.01586">
        <ele>1641.56</ele>
        <time>2013-07-21T08:54:29Z</time>
      </trkpt>
      <trkpt lat="45.25786" lon="6.01584">
        <ele>1640.91</ele>
        <time>2013-07-21T08:54:37Z</time>
      </trkpt>
      <trkpt lat="45.25806" lon="6.01588">
        <ele>1641.09</ele>
        <time>2013-07-21T08:54:46Z</time>
      </trkpt>
      <trkpt lat="45.25824" lon="6.01598">
        <ele>1639.61</ele>
        <time>2013-07-21T08:54:54Z</time>
      </trkpt>
      <trkpt lat="45.25843" lon="6.01608">
        <ele>1643.07</ele>
        <time>2013-07-21T08:55:03Z</time>
      </trkpt>
      <trkpt lat="45.2586" lon="6.01617">
        <ele>1645.55</ele>
        <time>2013-07-21T08:55:12Z</time>
      </trkpt>
      <trkpt lat="45.25877" lon="6.01628">
        <ele>1645.49</ele>
        <time>2013-07-21T08:55:21Z</time>
      </trkpt>
      <trkpt lat="45.25893" lon="6.01638">
        <ele>1646.05</ele>
        <time>2013-07-21T08:55:30Z</time>
      </trkpt>
      <trkpt lat="45.25911" lon="6.01646">
        <ele>1650.18</ele>
        <time>2013-07-21T08:55:39Z</time>
      </trkpt>
      <trkpt lat="45.25928" lon="6.01653">
        <ele>1652.54</ele>
        <time>2013-07-21T08:55:48Z</time>
      </trkpt>
      <trkpt lat="45.25947" lon="6.0166">
        <ele>1656.2</ele>
        <time>2013-07-21T08:55:59Z</time>
      </trkpt>
      <trkpt lat="45.25965" lon="6.0167">
        <ele>1656.44</ele>
        <time>2013-07-21T08:56:09Z</time>
      </trkpt>
      <trkpt lat="45.25981" lon="6.01687">
        <ele>1659.18</ele>
        <time>2013-07-21T08:56:19Z</time>
      </trkpt>
      <trkpt lat="45.25996" lon="6.01707">
        <ele>1660.96</ele>
        <time>2013-07-21T08:56:29Z</time>
      </trkpt>
      <trkpt lat="45.26005" lon="6.0173">
        <ele>1664.05</ele>
        <time>2013-07-21T08:56:39Z</time>
      </trkpt>
      <trkpt lat="45.26006" lon="6.01757">
        <ele>1663.99</ele>
        <time>2013-07-21T08:56:49Z</time>
      </trkpt>
      <trkpt lat="45.26009" lon="6.01784">
        <ele>1663.86</ele>
        <time>2013-07-21T08:56:59Z</time>
      </trkpt>
      <trkpt lat="45.26013" lon="6.0181">
        <ele>1664.64</ele>
        <time>2013-07-21T08:57:08Z</time>
      </trkpt>
      <trkpt lat="45.2602" lon="6.01836">
        <ele>1666.13</ele>
        <time>2013-07-21T08:57:18Z</time>
      </trkpt>
      <trkpt lat="45.26031" lon="6.01858">
        <ele>1665.35</ele>
        <time>2013-07-21T08:57:30Z</time>
      </trkpt>
      <trkpt lat="45.26041" lon="6.0188">
        <ele>1667.01</ele>
        <time>2013-07-21T08:57:43Z</time>
      </trkpt>
      <trkpt lat="45.26049" lon="6.01904">
        <ele>1671.34</ele>
        <time>2013-07-21T08:57:55Z</time>
      </trkpt>
      <trkpt lat="45.26051" lon="6.01932">
        <ele>1672.64</ele>
        <time>2013-07-21T08:58:05Z</time>
      </trkpt>
      <trkpt lat="45.26056" lon="6.01958">
        <ele>1674.97</ele>
        <time>2013-07-21T08:59:33Z</time>
      </trkpt>
      <trkpt lat="45.26066" lon="6.0198">
        <ele>1678.65</ele>
        <time>2013-07-21T08:59:44Z</time>
      </trkpt>
      <trkpt lat="45.26082" lon="6.01993">
        <ele>1678.81</ele>
        <time>2013-07-21T08:59:56Z</time>
      </trkpt>
      <trkpt lat="45.26097" lon="6.02012">
        <ele>1680.31</ele>
        <time>2013-07-21T09:00:08Z</time>
      </trkpt>
      <trkpt lat="45.26108" lon="6.02034">
        <ele>1683.99</ele>
        <time>2013-07-21T09:00:19Z</time>
      </trkpt>
      <trkpt lat="45.26121" lon="6.02053">
        <ele>1684.81</ele>
        <time>2013-07-21T09:00:29Z</time>
      </trkpt>
      <trkpt lat="45.26134" lon="6.02071">
        <ele>1688.76</ele>
        <time>2013-07-21T09:00:38Z</time>
      </trkpt>
      <trkpt lat="45.26143" lon="6.02095">
        <ele>1691.44</ele>
        <time>2013-07-21T09:00:48Z</time>
      </trkpt>
      <trkpt lat="45.26147" lon="6.02122">
        <ele>1693.23</ele>
        <time>2013-07-21T09:00:58Z</time>
      </trkpt>
      <trkpt lat="45.26148" lon="6.0215">
        <ele>1695.19</ele>
        <time>2013-07-21T09:01:09Z</time>
      </trkpt>
      <trkpt lat="45.26151" lon="6.02176">
        <ele>1697.21</ele>
        <time>2013-07-21T09:01:20Z</time>
      </trkpt>
      <trkpt lat="45.26158" lon="6.022">
        <ele>1698.86</ele>
        <time>2013-07-21T09:01:30Z</time>
      </trkpt>
      <trkpt lat="45.26164" lon="6.02225">
        <ele>1700.4</ele>
        <time>2013-07-21T09:01:40Z</time>
      </trkpt>
      <trkpt lat="45.26171" lon="6.0225">
        <ele>1701.68</ele>
        <time>2013-07-21T09:01:51Z</time>
      </trkpt>
      <trkpt lat="45.2618" lon="6.02274">
        <ele>1704.18</ele>
        <time>2013-07-21T09:02:03Z</time>
      </trkpt>
      <trkpt lat="45.26188" lon="6.02298">
        <ele>1706.63</ele>
        <time>2013-07-21T09:02:14Z</time>
      </trkpt>
      <trkpt lat="45.26196" lon="6.0232">
        <ele>1708.78</ele>
        <time>2013-07-21T09:02:25Z</time>
      </trkpt>
      <trkpt lat="45.26201" lon="6.02346">
        <ele>1710.71</ele>
        <time>2013-07-21T09:02:37Z</time>
      </trkpt>
      <trkpt lat="45.26207" lon="6.02371">
        <ele>1713.47</ele>
        <time>2013-07-21T09:02:49Z</time>
      </trkpt>
      <trkpt lat="45.26212" lon="6.02397">
        <ele>1714.98</ele>
        <time>2013-07-21T09:03:01Z</time>
      </trkpt>
      <trkpt lat="45.2622" lon="6.02421">
        <ele>1716.43</ele>
        <time>2013-07-21T09:03:13Z</time>
      </trkpt>
      <trkpt lat="45.26229" lon="6.02444">
        <ele>1718.85</ele>
        <time>2013-07-21T09:03:26Z</time>
      </trkpt>
      <trkpt lat="45.26237" lon="6.0247">
        <ele>1720.99</ele>
        <time>2013-07-21T09:05:13Z</time>
      </trkpt>
      <trkpt lat="45.26247" lon="6.02493">
        <ele>1722.92</ele>
        <time>2013-07-21T09:05:23Z</time>
      </trkpt>
      <trkpt lat="45.2626" lon="6.02511">
        <ele>1724.91</ele>
        <time>2013-07-21T09:05:32Z</time>
      </trkpt>
      <trkpt lat="45.26273" lon="6.02531">
        <ele>1728.82</ele>
        <time>2013-07-21T09:05:42Z</time>
      </trkpt>
      <trkpt lat="45.26286" lon="6.02548">
        <ele>1729.62</ele>
        <time>2013-07-21T09:05:51Z</time>
      </trkpt>
      <trkpt lat="45.26303" lon="6.02565">
        <ele>1732.02</ele>
        <time>2013-07-21T09:06:01Z</time>
      </trkpt>
      <trkpt lat="45.26319" lon="6.0258">
        <ele>1736.23</ele>
        <time>2013-07-21T09:06:11Z</time>
      </trkpt>
      <trkpt lat="45.26335" lon="6.02594">
        <ele>1737.36</ele>
        <time>2013-07-21T09:06:20Z</time>
      </trkpt>
      <trkpt lat="45.26349" lon="6.02612">
        <ele>1737.78</ele>
        <time>2013-07-21T09:06:28Z</time>
      </trkpt>
      <trkpt lat="45.2636" lon="6.02632">
        <ele>1739.89</ele>
        <time>2013-07-21T09:06:37Z</time>
      </trkpt>
      <trkpt lat="45.26368" lon="6.02656">
        <ele>1741.28</ele>
        <time>2013-07-21T09:06:46Z</time>
      </trkpt>
      <trkpt lat="45.26375" lon="6.02681">
        <ele>1742.08</ele>
        <time>2013-07-21T09:06:55Z</time>
      </trkpt>
      <trkpt lat="45.26385" lon="6.02703">
        <ele>1742.57</ele>
        <time>2013-07-21T09:07:04Z</time>
      </trkpt>
      <trkpt lat="45.264" lon="6.02718">
        <ele>1743.9</ele>
        <time>2013-07-21T09:07:13Z</time>
      </trkpt>
      <trkpt lat="45.26417" lon="6.0273">
        <ele>1743.47</ele>
        <time>2013-07-21T09:07:23Z</time>
      </trkpt>
      <trkpt lat="45.26435" lon="6.02734">
        <ele>1748.32</ele>
        <time>2013-07-21T09:07:33Z</time>
      </trkpt>
      <trkpt lat="45.26454" lon="6.02733">
        <ele>1748.38</ele>
        <time>2013-07-21T09:07:43Z</time>
      </trkpt>
      <trkpt lat="45.26473" lon="6.0273">
        <ele>1750.09</ele>
        <time>2013-07-21T09:07:53Z</time>
      </trkpt>
      <trkpt lat="45.26491" lon="6.02727">
        <ele>1748.99</ele>
        <time>2013-07-21T09:08:02Z</time>
      </trkpt>
      <trkpt lat="45.26509" lon="6.02715">
        <ele>1753.69</ele>
        <time>2013-07-21T09:08:13Z</time>
      </trkpt>
      <trkpt lat="45.26525" lon="6.027">
        <ele>1756.49</ele>
        <time>2013-07-21T09:08:24Z</time>
      </trkpt>
      <trkpt lat="45.26542" lon="6.02686">
        <ele>1758.45</ele>
        <time>2013-07-21T09:08:35Z</time>
      </trkpt>
      <trkpt lat="45.26558" lon="6.02675">
        <ele>1760.95</ele>
        <time>2013-07-21T09:08:46Z</time>
      </trkpt>
      <trkpt lat="45.26574" lon="6.02661">
        <ele>1764.18</ele>
        <time>2013-07-21T09:08:57Z</time>
      </trkpt>
      <trkpt lat="45.2659" lon="6.02648">
        <ele>1765.12</ele>
        <time>2013-07-21T09:09:08Z</time>
      </trkpt>
      <trkpt lat="45.26606" lon="6.02637">
        <ele>1768.36</ele>
        <time>2013-07-21T09:09:20Z</time>
      </trkpt>
      <trkpt lat="45.26624" lon="6.02626">
        <ele>1769.1</ele>
        <time>2013-07-21T09:09:32Z</time>
      </trkpt>
      <trkpt lat="45.26642" lon="6.0263">
        <ele>1771.59</ele>
        <time>2013-07-21T09:09:43Z</time>
      </trkpt>
      <trkpt lat="45.26658" lon="6.02645">
        <ele>1773.32</ele>
        <time>2013-07-21T09:09:54Z</time>
      </trkpt>
      <trkpt lat="45.26665" lon="6.0267">
        <ele>1779.06</ele>
        <time>2013-07-21T09:10:07Z</time>
      </trkpt>
      <trkpt lat="45.26666" lon="6.02695">
        <ele>1780.46</ele>
        <time>2013-07-21T09:10:19Z</time>
      </trkpt>
      <trkpt lat="45.26672" lon="6.0272">
        <ele>1782.02</ele>
        <time>2013-07-21T09:10:32Z</time>
      </trkpt>
      <trkpt lat="45.26677" lon="6.02745">
        <ele>1783.66</ele>
        <time>2013-07-21T09:10:43Z</time>
      </trkpt>
      <trkpt lat="45.26682" lon="6.02771">
        <ele>1783.94</ele>
        <time>2013-07-21T09:10:54Z</time>
      </trkpt>
      <trkpt lat="45.26687" lon="6.02796">
        <ele>1784.84</ele>
        <time>2013-07-21T09:11:06Z</time>
      </trkpt>
      <trkpt lat="45.26692" lon="6.02821">
        <ele>1787.21</ele>
        <time>2013-07-21T09:11:18Z</time>
      </trkpt>
      <trkpt lat="45.26697" lon="6.02846">
        <ele>1790.18</ele>
        <time>2013-07-21T09:11:31Z</time>
      </trkpt>
      <trkpt lat="45.26705" lon="6.0287">
        <ele>1791.48</ele>
        <time>2013-07-21T09:11:44Z</time>
      </trkpt>
      <trkpt lat="45.26713" lon="6.02894">
        <ele>1794.69</ele>
        <time>2013-07-21T09:11:57Z</time>
      </trkpt>
      <trkpt lat="45.26725" lon="6.02914">
        <ele>1796.66</ele>
        <time>2013-07-21T09:12:11Z</time>
      </trkpt>
      <trkpt lat="45.26737" lon="6.02933">
        <ele>1797.47</ele>
        <time>2013-07-21T09:12:24Z</time>
      </trkpt>
      <trkpt lat="45.26748" lon="6.02954">
        <ele>1799.04</ele>
        <time>2013-07-21T09:12:37Z</time>
      </trkpt>
      <trkpt lat="45.26759" lon="6.02975">
        <ele>1800.06</ele>
        <time>2013-07-21T09:12:51Z</time>
      </trkpt>
      <trkpt lat="45.26772" lon="6.02995">
        <ele>1803.64</ele>
        <time>2013-07-21T09:13:05Z</time>
      </trkpt>
      <trkpt lat="45.26785" lon="6.03013">
        <ele>1805.38</ele>
        <time>2013-07-21T09:13:18Z</time>
      </trkpt>
      <trkpt lat="45.268" lon="6.03029">
        <ele>1806.62</ele>
        <time>2013-07-21T09:13:32Z</time>
      </trkpt>
      <trkpt lat="45.26818" lon="6.03038">
        <ele>1806.51</ele>
        <time>2013-07-21T09:13:44Z</time>
      </trkpt>
      <trkpt lat="45.26835" lon="6.03043">
        <ele>1809.44</ele>
        <time>2013-07-21T09:14:03Z</time>
      </trkpt>
      <trkpt lat="45.26853" lon="6.03053">
        <ele>1812.66</ele>
        <time>2013-07-21T09:14:31Z</time>
      </trkpt>
      <trkpt lat="45.26866" lon="6.03072">
        <ele>1814.41</ele>
        <time>2013-07-21T09:14:44Z</time>
      </trkpt>
      <trkpt lat="45.26873" lon="6.03096">
        <ele>1814.68</ele>
        <time>2013-07-21T09:14:58Z</time>
      </trkpt>
      <trkpt lat="45.26882" lon="6.0312">
        <ele>1817.42</ele>
        <time>2013-07-21T09:15:12Z</time>
      </trkpt>
      <trkpt lat="45.26896" lon="6.03138">
        <ele>1818.26</ele>
        <time>2013-07-21T09:15:26Z</time>
      </trkpt>
      <trkpt lat="45.26908" lon="6.03159">
        <ele>1822.07</ele>
        <time>2013-07-21T09:15:41Z</time>
      </trkpt>
      <trkpt lat="45.26922" lon="6.03178">
        <ele>1824.72</ele>
        <time>2013-07-21T09:15:55Z</time>
      </trkpt>
      <trkpt lat="45.26937" lon="6.03192">
        <ele>1828.26</ele>
        <time>2013-07-21T09:16:11Z</time>
      </trkpt>
      <trkpt lat="45.26952" lon="6.03209">
        <ele>1832.12</ele>
        <time>2013-07-21T09:16:29Z</time>
      </trkpt>
      <trkpt lat="45.26967" lon="6.03223">
        <ele>1833.98</ele>
        <time>2013-07-21T09:16:44Z</time>
      </trkpt>
      <trkpt lat="45.26984" lon="6.03233">
        <ele>1838.41</ele>
        <time>2013-07-21T09:17:01Z</time>
      </trkpt>
      <trkpt lat="45.26999" lon="6.03249">
        <ele>1842.73</ele>
        <time>2013-07-21T09:17:18Z</time>
      </trkpt>
      <trkpt lat="45.27012" lon="6.03268">
        <ele>1846.43</ele>
        <time>2013-07-21T09:17:36Z</time>
      </trkpt>
      <trkpt lat="45.27023" lon="6.0329">
        <ele>1849.8</ele>
        <time>2013-07-21T09:17:53Z</time>
      </trkpt>
      <trkpt lat="45.27036" lon="6.03308">
        <ele>1851.23</ele>
        <time>2013-07-21T09:18:08Z</time>
      </trkpt>
      <trkpt lat="45.2705" lon="6.03325">
        <ele>1853.3</ele>
        <time>2013-07-21T09:18:25Z</time>
      </trkpt>
      <trkpt lat="45.27065" lon="6.03339">
        <ele>1862.58</ele>
        <time>2013-07-21T09:22:22Z</time>
      </trkpt>
      <trkpt lat="45.27082" lon="6.03352">
        <ele>1862.58</ele>
        <time>2013-07-21T09:22:37Z</time>
      </trkpt>
      <trkpt lat="45.271" lon="6.03355">
        <ele>1864.34</ele>
        <time>2013-07-21T09:22:51Z</time>
      </trkpt>
      <trkpt lat="45.27118" lon="6.03351">
        <ele>1868.82</ele>
        <time>2013-07-21T09:23:07Z</time>
      </trkpt>
      <trkpt lat="45.27137" lon="6.03349">
        <ele>1872.94</ele>
        <time>2013-07-21T09:23:24Z</time>
      </trkpt>
      <trkpt lat="45.27156" lon="6.03354">
        <ele>1876.49</ele>
        <time>2013-07-21T09:23:42Z</time>
      </trkpt>
      <trkpt lat="45.27174" lon="6.03359">
        <ele>1878.12</ele>
        <time>2013-07-21T09:24:00Z</time>
      </trkpt>
      <trkpt lat="45.27192" lon="6.03366">
        <ele>1881.84</ele>
        <time>2013-07-21T09:24:16Z</time>
      </trkpt>
      <trkpt lat="45.27211" lon="6.03371">
        <ele>1885.95</ele>
        <time>2013-07-21T09:24:34Z</time>
      </trkpt>
      <trkpt lat="45.27229" lon="6.03373">
        <ele>1890.03</ele>
        <time>2013-07-21T09:24:51Z</time>
      </trkpt>
      <trkpt lat="45.27248" lon="6.03374">
        <ele>1893.57</ele>
        <time>2013-07-21T09:25:07Z</time>
      </trkpt>
      <trkpt lat="45.27266" lon="6.03381">
        <ele>1897.52</ele>
        <time>2013-07-21T09:25:22Z</time>
      </trkpt>
      <trkpt lat="45.27281" lon="6.03396">
        <ele>1900.21</ele>
        <time>2013-07-21T09:25:35Z</time>
      </trkpt>
      <trkpt lat="45.27287" lon="6.03421">
        <ele>1898.19</ele>
        <time>2013-07-21T09:25:47Z</time>
      </trkpt>
      <trkpt lat="45.27294" lon="6.03446">
        <ele>1899.61</ele>
        <time>2013-07-21T09:26:01Z</time>
      </trkpt>
      <trkpt lat="45.273" lon="6.03471">
        <ele>1902.06</ele>
        <time>2013-07-21T09:26:15Z</time>
      </trkpt>
      <trkpt lat="45.2731" lon="6.03493">
        <ele>1907.3</ele>
        <time>2013-07-21T09:26:38Z</time>
      </trkpt>
      <trkpt lat="45.27324" lon="6.03511">
        <ele>1906.26</ele>
        <time>2013-07-21T09:26:41Z</time>
      </trkpt>
      <trkpt lat="45.27347" lon="6.03531">
        <ele>1903.51</ele>
        <time>2013-07-21T09:26:44Z</time>
      </trkpt>
      <trkpt lat="45.27368" lon="6.03554">
        <ele>1898.55</ele>
        <time>2013-07-21T09:26:47Z</time>
      </trkpt>
      <trkpt lat="45.27384" lon="6.03576">
        <ele>1894.01</ele>
        <time>2013-07-21T09:26:50Z</time>
      </trkpt>
      <trkpt lat="45.27396" lon="6.03601">
        <ele>1887.16</ele>
        <time>2013-07-21T09:26:57Z</time>
      </trkpt>
      <trkpt lat="45.27407" lon="6.03629">
        <ele>1886.01</ele>
        <time>2013-07-21T09:27:02Z</time>
      </trkpt>
      <trkpt lat="45.27415" lon="6.03652">
        <ele>1885.11</ele>
        <time>2013-07-21T09:27:05Z</time>
      </trkpt>
      <trkpt lat="45.27421" lon="6.03682">
        <ele>1885.2</ele>
        <time>2013-07-21T09:27:09Z</time>
      </trkpt>
      <trkpt lat="45.27424" lon="6.03711">
        <ele>1887.08</ele>
        <time>2013-07-21T09:27:17Z</time>
      </trkpt>
      <trkpt lat="45.27435" lon="6.03742">
        <ele>1885.68</ele>
        <time>2013-07-21T09:27:21Z</time>
      </trkpt>
      <trkpt lat="45.27453" lon="6.03765">
        <ele>1883.37</ele>
        <time>2013-07-21T09:27:24Z</time>
      </trkpt>
      <trkpt lat="45.27471" lon="6.03781">
        <ele>1881.05</ele>
        <time>2013-07-21T09:27:27Z</time>
      </trkpt>
      <trkpt lat="45.27489" lon="6.03797">
        <ele>1881.51</ele>
        <time>2013-07-21T09:27:31Z</time>
      </trkpt>
      <trkpt lat="45.27504" lon="6.03815">
        <ele>1882.23</ele>
        <time>2013-07-21T09:27:36Z</time>
      </trkpt>
      <trkpt lat="45.27513" lon="6.03838">
        <ele>1885.06</ele>
        <time>2013-07-21T09:27:43Z</time>
      </trkpt>
      <trkpt lat="45.27523" lon="6.0386">
        <ele>1886.06</ele>
        <time>2013-07-21T09:27:49Z</time>
      </trkpt>
      <trkpt lat="45.27537" lon="6.03882">
        <ele>1887.57</ele>
        <time>2013-07-21T09:27:57Z</time>
      </trkpt>
      <trkpt lat="45.27553" lon="6.03899">
        <ele>1886.76</ele>
        <time>2013-07-21T09:28:01Z</time>
      </trkpt>
      <trkpt lat="45.2757" lon="6.03915">
        <ele>1885.56</ele>
        <time>2013-07-21T09:28:04Z</time>
      </trkpt>
      <trkpt lat="45.27593" lon="6.03925">
        <ele>1883.76</ele>
        <time>2013-07-21T09:28:07Z</time>
      </trkpt>
      <trkpt lat="45.27618" lon="6.03929">
        <ele>1881.98</ele>
        <time>2013-07-21T09:28:10Z</time>
      </trkpt>
      <trkpt lat="45.27638" lon="6.03932">
        <ele>1881</ele>
        <time>2013-07-21T09:28:12Z</time>
      </trkpt>
      <trkpt lat="45.27657" lon="6.03934">
        <ele>1878.7</ele>
        <time>2013-07-21T09:28:14Z</time>
      </trkpt>
      <trkpt lat="45.27674" lon="6.03945">
        <ele>1876.34</ele>
        <time>2013-07-21T09:28:16Z</time>
      </trkpt>
      <trkpt lat="45.27687" lon="6.03966">
        <ele>1873.89</ele>
        <time>2013-07-21T09:28:18Z</time>
      </trkpt>
      <trkpt lat="45.27699" lon="6.03988">
        <ele>1871.2</ele>
        <time>2013-07-21T09:28:20Z</time>
      </trkpt>
      <trkpt lat="45.27715" lon="6.04009">
        <ele>1865.48</ele>
        <time>2013-07-21T09:28:23Z</time>
      </trkpt>
      <trkpt lat="45.27734" lon="6.04007">
        <ele>1860.54</ele>
        <time>2013-07-21T09:28:26Z</time>
      </trkpt>
      <trkpt lat="45.27744" lon="6.03981">
        <ele>1857.27</ele>
        <time>2013-07-21T09:28:29Z</time>
      </trkpt>
      <trkpt lat="45.27753" lon="6.03952">
        <ele>1855.89</ele>
        <time>2013-07-21T09:28:32Z</time>
      </trkpt>
      <trkpt lat="45.27748" lon="6.03917">
        <ele>1853.4</ele>
        <time>2013-07-21T09:28:35Z</time>
      </trkpt>
      <trkpt lat="45.27734" lon="6.03889">
        <ele>1850.92</ele>
        <time>2013-07-21T09:28:38Z</time>
      </trkpt>
      <trkpt lat="45.27736" lon="6.03855">
        <ele>1846.96</ele>
        <time>2013-07-21T09:28:41Z</time>
      </trkpt>
      <trkpt lat="45.27747" lon="6.03834">
        <ele>1844.55</ele>
        <time>2013-07-21T09:28:43Z</time>
      </trkpt>
      <trkpt lat="45.27761" lon="6.03817">
        <ele>1843.13</ele>
        <time>2013-07-21T09:28:45Z</time>
      </trkpt>
      <trkpt lat="45.27779" lon="6.03807">
        <ele>1842.15</ele>
        <time>2013-07-21T09:28:47Z</time>
      </trkpt>
      <trkpt lat="45.27797" lon="6.03814">
        <ele>1840.97</ele>
        <time>2013-07-21T09:28:49Z</time>
      </trkpt>
      <trkpt lat="45.27814" lon="6.03829">
        <ele>1839.8</ele>
        <time>2013-07-21T09:28:51Z</time>
      </trkpt>
      <trkpt lat="45.27831" lon="6.03847">
        <ele>1838.27</ele>
        <time>2013-07-21T09:28:53Z</time>
      </trkpt>
      <trkpt lat="45.27847" lon="6.03864">
        <ele>1836.29</ele>
        <time>2013-07-21T09:28:55Z</time>
      </trkpt>
      <trkpt lat="45.27867" lon="6.03876">
        <ele>1835.05</ele>
        <time>2013-07-21T09:28:57Z</time>
      </trkpt>
      <trkpt lat="45.27885" lon="6.03887">
        <ele>1833.6</ele>
        <time>2013-07-21T09:28:59Z</time>
      </trkpt>
      <trkpt lat="45.27903" lon="6.03903">
        <ele>1831.97</ele>
        <time>2013-07-21T09:29:01Z</time>
      </trkpt>
      <trkpt lat="45.27919" lon="6.0392">
        <ele>1831.05</ele>
        <time>2013-07-21T09:29:03Z</time>
      </trkpt>
      <trkpt lat="45.27933" lon="6.03935">
        <ele>1830.54</ele>
        <time>2013-07-21T09:29:05Z</time>
      </trkpt>
      <trkpt lat="45.27953" lon="6.03961">
        <ele>1829.03</ele>
        <time>2013-07-21T09:29:08Z</time>
      </trkpt>
      <trkpt lat="45.27969" lon="6.03975">
        <ele>1826.71</ele>
        <time>2013-07-21T09:29:10Z</time>
      </trkpt>
      <trkpt lat="45.27991" lon="6.03994">
        <ele>1822.84</ele>
        <time>2013-07-21T09:29:13Z</time>
      </trkpt>
      <trkpt lat="45.28011" lon="6.03988">
        <ele>1819.61</ele>
        <time>2013-07-21T09:29:16Z</time>
      </trkpt>
      <trkpt lat="45.28029" lon="6.03982">
        <ele>1816.79</ele>
        <time>2013-07-21T09:29:18Z</time>
      </trkpt>
      <trkpt lat="45.28048" lon="6.03982">
        <ele>1814.64</ele>
        <time>2013-07-21T09:29:20Z</time>
      </trkpt>
      <trkpt lat="45.28065" lon="6.03989">
        <ele>1813.68</ele>
        <time>2013-07-21T09:29:22Z</time>
      </trkpt>
      <trkpt lat="45.28083" lon="6.04">
        <ele>1813.33</ele>
        <time>2013-07-21T09:29:24Z</time>
      </trkpt>
      <trkpt lat="45.28105" lon="6.04015">
        <ele>1812.05</ele>
        <time>2013-07-21T09:29:27Z</time>
      </trkpt>
      <trkpt lat="45.28122" lon="6.04033">
        <ele>1810.32</ele>
        <time>2013-07-21T09:29:31Z</time>
      </trkpt>
      <trkpt lat="45.28133" lon="6.04058">
        <ele>1809.58</ele>
        <time>2013-07-21T09:29:36Z</time>
      </trkpt>
      <trkpt lat="45.2815" lon="6.04076">
        <ele>1808.5</ele>
        <time>2013-07-21T09:29:41Z</time>
      </trkpt>
      <trkpt lat="45.28171" lon="6.04082">
        <ele>1808.14</ele>
        <time>2013-07-21T09:29:46Z</time>
      </trkpt>
      <trkpt lat="45.28193" lon="6.04083">
        <ele>1807.23</ele>
        <time>2013-07-21T09:29:52Z</time>
      </trkpt>
      <trkpt lat="45.28212" lon="6.04084">
        <ele>1806.99</ele>
        <time>2013-07-21T09:29:56Z</time>
      </trkpt>
      <trkpt lat="45.28235" lon="6.04087">
        <ele>1805.31</ele>
        <time>2013-07-21T09:30:01Z</time>
      </trkpt>
      <trkpt lat="45.28255" lon="6.04087">
        <ele>1803.31</ele>
        <time>2013-07-21T09:30:06Z</time>
      </trkpt>
      <trkpt lat="45.28274" lon="6.04088">
        <ele>1801.1</ele>
        <time>2013-07-21T09:30:11Z</time>
      </trkpt>
      <trkpt lat="45.28292" lon="6.04084">
        <ele>1799.88</ele>
        <time>2013-07-21T09:30:43Z</time>
      </trkpt>
      <trkpt lat="45.2831" lon="6.04077">
        <ele>1801.97</ele>
        <time>2013-07-21T09:31:00Z</time>
      </trkpt>
      <trkpt lat="45.28328" lon="6.04074">
        <ele>1801.59</ele>
        <time>2013-07-21T09:31:16Z</time>
      </trkpt>
      <trkpt lat="45.28346" lon="6.04069">
        <ele>1807.83</ele>
        <time>2013-07-21T09:31:36Z</time>
      </trkpt>
      <trkpt lat="45.28362" lon="6.04055">
        <ele>1808.62</ele>
        <time>2013-07-21T09:31:55Z</time>
      </trkpt>
      <trkpt lat="45.28379" lon="6.04046">
        <ele>1810.84</ele>
        <time>2013-07-21T09:32:15Z</time>
      </trkpt>
      <trkpt lat="45.28396" lon="6.04035">
        <ele>1813.83</ele>
        <time>2013-07-21T09:32:36Z</time>
      </trkpt>
      <trkpt lat="45.28405" lon="6.04013">
        <ele>1817.8</ele>
        <time>2013-07-21T09:33:18Z</time>
      </trkpt>
      <trkpt lat="45.28419" lon="6.03992">
        <ele>1821.1</ele>
        <time>2013-07-21T09:33:43Z</time>
      </trkpt>
      <trkpt lat="45.28436" lon="6.03972">
        <ele>1825.71</ele>
        <time>2013-07-21T09:34:12Z</time>
      </trkpt>
      <trkpt lat="45.28453" lon="6.03964">
        <ele>1834.01</ele>
        <time>2013-07-21T09:35:33Z</time>
      </trkpt>
      <trkpt lat="45.28471" lon="6.03962">
        <ele>1830.03</ele>
        <time>2013-07-21T09:35:54Z</time>
      </trkpt>
      <trkpt lat="45.28491" lon="6.03959">
        <ele>1831.46</ele>
        <time>2013-07-21T09:36:03Z</time>
      </trkpt>
      <trkpt lat="45.28509" lon="6.03956">
        <ele>1833.79</ele>
        <time>2013-07-21T09:36:13Z</time>
      </trkpt>
      <trkpt lat="45.28528" lon="6.03951">
        <ele>1835.19</ele>
        <time>2013-07-21T09:36:24Z</time>
      </trkpt>
      <trkpt lat="45.28547" lon="6.03949">
        <ele>1835.77</ele>
        <time>2013-07-21T09:36:35Z</time>
      </trkpt>
      <trkpt lat="45.28565" lon="6.03947">
        <ele>1836.82</ele>
        <time>2013-07-21T09:36:45Z</time>
      </trkpt>
      <trkpt lat="45.28584" lon="6.03941">
        <ele>1836.95</ele>
        <time>2013-07-21T09:36:54Z</time>
      </trkpt>
      <trkpt lat="45.28603" lon="6.03946">
        <ele>1836.82</ele>
        <time>2013-07-21T09:37:03Z</time>
      </trkpt>
      <trkpt lat="45.28623" lon="6.03947">
        <ele>1838.13</ele>
        <time>2013-07-21T09:37:13Z</time>
      </trkpt>
      <trkpt lat="45.28642" lon="6.03954">
        <ele>1840.41</ele>
        <time>2013-07-21T09:37:22Z</time>
      </trkpt>
      <trkpt lat="45.2866" lon="6.03959">
        <ele>1841.21</ele>
        <time>2013-07-21T09:37:31Z</time>
      </trkpt>
      <trkpt lat="45.28679" lon="6.03964">
        <ele>1841.3</ele>
        <time>2013-07-21T09:37:40Z</time>
      </trkpt>
      <trkpt lat="45.28697" lon="6.03971">
        <ele>1842.08</ele>
        <time>2013-07-21T09:37:49Z</time>
      </trkpt>
      <trkpt lat="45.28716" lon="6.03977">
        <ele>1842.11</ele>
        <time>2013-07-21T09:37:57Z</time>
      </trkpt>
      <trkpt lat="45.28734" lon="6.0398">
        <ele>1841.91</ele>
        <time>2013-07-21T09:38:04Z</time>
      </trkpt>
      <trkpt lat="45.28754" lon="6.03983">
        <ele>1842.75</ele>
        <time>2013-07-21T09:38:12Z</time>
      </trkpt>
      <trkpt lat="45.28772" lon="6.03986">
        <ele>1842.86</ele>
        <time>2013-07-21T09:38:20Z</time>
      </trkpt>
      <trkpt lat="45.28791" lon="6.03989">
        <ele>1844.18</ele>
        <time>2013-07-21T09:38:29Z</time>
      </trkpt>
      <trkpt lat="45.2881" lon="6.03993">
        <ele>1845.09</ele>
        <time>2013-07-21T09:38:39Z</time>
      </trkpt>
      <trkpt lat="45.28828" lon="6.03999">
        <ele>1846.27</ele>
        <time>2013-07-21T09:38:49Z</time>
      </trkpt>
      <trkpt lat="45.28849" lon="6.04005">
        <ele>1848.47</ele>
        <time>2013-07-21T09:38:59Z</time>
      </trkpt>
      <trkpt lat="45.28867" lon="6.04008">
        <ele>1848.16</ele>
        <time>2013-07-21T09:39:08Z</time>
      </trkpt>
      <trkpt lat="45.28887" lon="6.0401">
        <ele>1849.52</ele>
        <time>2013-07-21T09:39:16Z</time>
      </trkpt>
      <trkpt lat="45.28905" lon="6.04015">
        <ele>1849.44</ele>
        <time>2013-07-21T09:39:22Z</time>
      </trkpt>
      <trkpt lat="45.28924" lon="6.04025">
        <ele>1847.89</ele>
        <time>2013-07-21T09:39:27Z</time>
      </trkpt>
      <trkpt lat="45.28945" lon="6.04031">
        <ele>1847.12</ele>
        <time>2013-07-21T09:39:32Z</time>
      </trkpt>
      <trkpt lat="45.28962" lon="6.0404">
        <ele>1846.36</ele>
        <time>2013-07-21T09:39:37Z</time>
      </trkpt>
      <trkpt lat="45.28982" lon="6.04045">
        <ele>1845.94</ele>
        <time>2013-07-21T09:39:44Z</time>
      </trkpt>
      <trkpt lat="45.29003" lon="6.04053">
        <ele>1845.21</ele>
        <time>2013-07-21T09:39:50Z</time>
      </trkpt>
      <trkpt lat="45.29021" lon="6.04059">
        <ele>1844.96</ele>
        <time>2013-07-21T09:39:55Z</time>
      </trkpt>
      <trkpt lat="45.29041" lon="6.04065">
        <ele>1844.21</ele>
        <time>2013-07-21T09:40:01Z</time>
      </trkpt>
      <trkpt lat="45.29062" lon="6.04062">
        <ele>1843.92</ele>
        <time>2013-07-21T09:40:08Z</time>
      </trkpt>
      <trkpt lat="45.29081" lon="6.04057">
        <ele>1845.39</ele>
        <time>2013-07-21T09:40:16Z</time>
      </trkpt>
      <trkpt lat="45.29099" lon="6.04045">
        <ele>1845.81</ele>
        <time>2013-07-21T09:40:23Z</time>
      </trkpt>
      <trkpt lat="45.29116" lon="6.04031">
        <ele>1844.46</ele>
        <time>2013-07-21T09:40:29Z</time>
      </trkpt>
      <trkpt lat="45.29135" lon="6.04031">
        <ele>1847.37</ele>
        <time>2013-07-21T09:41:28Z</time>
      </trkpt>
      <trkpt lat="45.29153" lon="6.04033">
        <ele>1849.77</ele>
        <time>2013-07-21T09:42:03Z</time>
      </trkpt>
      <trkpt lat="45.29172" lon="6.04035">
        <ele>1857.7</ele>
        <time>2013-07-21T09:42:45Z</time>
      </trkpt>
      <trkpt lat="45.29189" lon="6.04051">
        <ele>1858.31</ele>
        <time>2013-07-21T09:42:55Z</time>
      </trkpt>
      <trkpt lat="45.29206" lon="6.0406">
        <ele>1859.03</ele>
        <time>2013-07-21T09:43:05Z</time>
      </trkpt>
      <trkpt lat="45.29227" lon="6.04067">
        <ele>1857.41</ele>
        <time>2013-07-21T09:43:09Z</time>
      </trkpt>
      <trkpt lat="45.29251" lon="6.04075">
        <ele>1855.26</ele>
        <time>2013-07-21T09:43:12Z</time>
      </trkpt>
      <trkpt lat="45.29273" lon="6.04084">
        <ele>1852.48</ele>
        <time>2013-07-21T09:43:15Z</time>
      </trkpt>
      <trkpt lat="45.29288" lon="6.04099">
        <ele>1850.95</ele>
        <time>2013-07-21T09:43:19Z</time>
      </trkpt>
      <trkpt lat="45.29306" lon="6.04114">
        <ele>1844.57</ele>
        <time>2013-07-21T09:43:38Z</time>
      </trkpt>
      <trkpt lat="45.29325" lon="6.04119">
        <ele>1845.47</ele>
        <time>2013-07-21T09:43:42Z</time>
      </trkpt>
      <trkpt lat="45.29343" lon="6.04126">
        <ele>1845.21</ele>
        <time>2013-07-21T09:43:54Z</time>
      </trkpt>
      <trkpt lat="45.29361" lon="6.04132">
        <ele>1844.2</ele>
        <time>2013-07-21T09:44:02Z</time>
      </trkpt>
      <trkpt lat="45.29379" lon="6.04143">
        <ele>1846.15</ele>
        <time>2013-07-21T09:44:10Z</time>
      </trkpt>
      <trkpt lat="45.29397" lon="6.04147">
        <ele>1849.46</ele>
        <time>2013-07-21T09:44:36Z</time>
      </trkpt>
      <trkpt lat="45.29412" lon="6.04166">
        <ele>1849.13</ele>
        <time>2013-07-21T09:45:20Z</time>
      </trkpt>
      <trkpt lat="45.29429" lon="6.04179">
        <ele>1848.94</ele>
        <time>2013-07-21T09:45:28Z</time>
      </trkpt>
      <trkpt lat="45.29447" lon="6.04192">
        <ele>1850</ele>
        <time>2013-07-21T09:45:35Z</time>
      </trkpt>
      <trkpt lat="45.29461" lon="6.04213">
        <ele>1851.04</ele>
        <time>2013-07-21T09:45:43Z</time>
      </trkpt>
      <trkpt lat="45.29474" lon="6.04234">
        <ele>1851.44</ele>
        <time>2013-07-21T09:45:50Z</time>
      </trkpt>
      <trkpt lat="45.2949" lon="6.04246">
        <ele>1853.79</ele>
        <time>2013-07-21T09:46:00Z</time>
      </trkpt>
      <trkpt lat="45.29507" lon="6.04256">
        <ele>1856.86</ele>
        <time>2013-07-21T09:46:10Z</time>
      </trkpt>
      <trkpt lat="45.29522" lon="6.04272">
        <ele>1859.56</ele>
        <time>2013-07-21T09:46:22Z</time>
      </trkpt>
      <trkpt lat="45.29537" lon="6.04286">
        <ele>1859.85</ele>
        <time>2013-07-21T09:46:31Z</time>
      </trkpt>
      <trkpt lat="45.29549" lon="6.04306">
        <ele>1859.63</ele>
        <time>2013-07-21T09:46:39Z</time>
      </trkpt>
      <trkpt lat="45.29562" lon="6.04324">
        <ele>1860.03</ele>
        <time>2013-07-21T09:46:49Z</time>
      </trkpt>
      <trkpt lat="45.29577" lon="6.0434">
        <ele>1861.6</ele>
        <time>2013-07-21T09:47:00Z</time>
      </trkpt>
      <trkpt lat="45.29594" lon="6.04351">
        <ele>1863.37</ele>
        <time>2013-07-21T09:47:11Z</time>
      </trkpt>
      <trkpt lat="45.29611" lon="6.04363">
        <ele>1865.48</ele>
        <time>2013-07-21T09:47:24Z</time>
      </trkpt>
      <trkpt lat="45.29628" lon="6.04375">
        <ele>1866.73</ele>
        <time>2013-07-21T09:47:38Z</time>
      </trkpt>
      <trkpt lat="45.29644" lon="6.04388">
        <ele>1869.57</ele>
        <time>2013-07-21T09:47:53Z</time>
      </trkpt>
      <trkpt lat="45.29661" lon="6.04401">
        <ele>1871.82</ele>
        <time>2013-07-21T09:48:07Z</time>
      </trkpt>
      <trkpt lat="45.29678" lon="6.04412">
        <ele>1874.45</ele>
        <time>2013-07-21T09:48:20Z</time>
      </trkpt>
      <trkpt lat="45.29696" lon="6.04418">
        <ele>1877.14</ele>
        <time>2013-07-21T09:48:33Z</time>
      </trkpt>
      <trkpt lat="45.29713" lon="6.04428">
        <ele>1877.75</ele>
        <time>2013-07-21T09:48:43Z</time>
      </trkpt>
      <trkpt lat="45.29731" lon="6.04435">
        <ele>1877.48</ele>
        <time>2013-07-21T09:48:51Z</time>
      </trkpt>
      <trkpt lat="45.29751" lon="6.04436">
        <ele>1878.36</ele>
        <time>2013-07-21T09:49:00Z</time>
      </trkpt>
      <trkpt lat="45.2977" lon="6.04439">
        <ele>1879.2</ele>
        <time>2013-07-21T09:49:09Z</time>
      </trkpt>
      <trkpt lat="45.29788" lon="6.04447">
        <ele>1881.44</ele>
        <time>2013-07-21T09:49:23Z</time>
      </trkpt>
      <trkpt lat="45.29804" lon="6.04462">
        <ele>1878.15</ele>
        <time>2013-07-21T09:49:37Z</time>
      </trkpt>
      <trkpt lat="45.29823" lon="6.04475">
        <ele>1875.96</ele>
        <time>2013-07-21T09:49:43Z</time>
      </trkpt>
      <trkpt lat="45.29841" lon="6.04487">
        <ele>1876.13</ele>
        <time>2013-07-21T09:49:50Z</time>
      </trkpt>
      <trkpt lat="45.2986" lon="6.04499">
        <ele>1876.67</ele>
        <time>2013-07-21T09:49:57Z</time>
      </trkpt>
      <trkpt lat="45.29878" lon="6.0451">
        <ele>1878.11</ele>
        <time>2013-07-21T09:50:04Z</time>
      </trkpt>
      <trkpt lat="45.29895" lon="6.0452">
        <ele>1884.14</ele>
        <time>2013-07-21T09:50:24Z</time>
      </trkpt>
      <trkpt lat="45.29913" lon="6.04526">
        <ele>1884.53</ele>
        <time>2013-07-21T09:50:51Z</time>
      </trkpt>
      <trkpt lat="45.29932" lon="6.04532">
        <ele>1889.26</ele>
        <time>2013-07-21T09:51:07Z</time>
      </trkpt>
      <trkpt lat="45.29948" lon="6.04549">
        <ele>1889.77</ele>
        <time>2013-07-21T09:51:13Z</time>
      </trkpt>
      <trkpt lat="45.29964" lon="6.04566">
        <ele>1889.86</ele>
        <time>2013-07-21T09:51:19Z</time>
      </trkpt>
      <trkpt lat="45.29979" lon="6.04581">
        <ele>1890.59</ele>
        <time>2013-07-21T09:51:24Z</time>
      </trkpt>
      <trkpt lat="45.29994" lon="6.046">
        <ele>1891.48</ele>
        <time>2013-07-21T09:51:33Z</time>
      </trkpt>
      <trkpt lat="45.30008" lon="6.04616">
        <ele>1893.15</ele>
        <time>2013-07-21T09:51:43Z</time>
      </trkpt>
      <trkpt lat="45.30023" lon="6.04632">
        <ele>1896.38</ele>
        <time>2013-07-21T09:51:53Z</time>
      </trkpt>
      <trkpt lat="45.30037" lon="6.04648">
        <ele>1899.84</ele>
        <time>2013-07-21T09:52:03Z</time>
      </trkpt>
      <trkpt lat="45.30054" lon="6.04662">
        <ele>1901.85</ele>
        <time>2013-07-21T09:52:14Z</time>
      </trkpt>
      <trkpt lat="45.30073" lon="6.04671">
        <ele>1902.33</ele>
        <time>2013-07-21T09:52:23Z</time>
      </trkpt>
      <trkpt lat="45.3009" lon="6.04683">
        <ele>1900.04</ele>
        <time>2013-07-21T09:52:29Z</time>
      </trkpt>
      <trkpt lat="45.30107" lon="6.04691">
        <ele>1898.58</ele>
        <time>2013-07-21T09:52:34Z</time>
      </trkpt>
      <trkpt lat="45.30127" lon="6.04696">
        <ele>1897.03</ele>
        <time>2013-07-21T09:52:38Z</time>
      </trkpt>
      <trkpt lat="45.30144" lon="6.04705">
        <ele>1896.65</ele>
        <time>2013-07-21T09:52:43Z</time>
      </trkpt>
      <trkpt lat="45.30159" lon="6.0472">
        <ele>1900.2</ele>
        <time>2013-07-21T09:53:02Z</time>
      </trkpt>
      <trkpt lat="45.30176" lon="6.04729">
        <ele>1906.12</ele>
        <time>2013-07-21T09:53:31Z</time>
      </trkpt>
      <trkpt lat="45.30189" lon="6.04748">
        <ele>1905.86</ele>
        <time>2013-07-21T09:53:50Z</time>
      </trkpt>
      <trkpt lat="45.30205" lon="6.04762">
        <ele>1908.34</ele>
        <time>2013-07-21T09:54:39Z</time>
      </trkpt>
      <trkpt lat="45.30222" lon="6.04776">
        <ele>1909.59</ele>
        <time>2013-07-21T09:54:47Z</time>
      </trkpt>
      <trkpt lat="45.3024" lon="6.04788">
        <ele>1909.26</ele>
        <time>2013-07-21T09:54:54Z</time>
      </trkpt>
      <trkpt lat="45.30259" lon="6.04793">
        <ele>1910.4</ele>
        <time>2013-07-21T09:55:04Z</time>
      </trkpt>
      <trkpt lat="45.30277" lon="6.04807">
        <ele>1912.63</ele>
        <time>2013-07-21T09:55:24Z</time>
      </trkpt>
      <trkpt lat="45.30297" lon="6.04816">
        <ele>1913.66</ele>
        <time>2013-07-21T09:55:34Z</time>
      </trkpt>
      <trkpt lat="45.30316" lon="6.0483">
        <ele>1913.79</ele>
        <time>2013-07-21T09:55:40Z</time>
      </trkpt>
      <trkpt lat="45.30334" lon="6.04844">
        <ele>1912.33</ele>
        <time>2013-07-21T09:55:45Z</time>
      </trkpt>
      <trkpt lat="45.30348" lon="6.04862">
        <ele>1912.92</ele>
        <time>2013-07-21T09:55:52Z</time>
      </trkpt>
      <trkpt lat="45.30359" lon="6.04883">
        <ele>1916.22</ele>
        <time>2013-07-21T09:56:09Z</time>
      </trkpt>
      <trkpt lat="45.30375" lon="6.04896">
        <ele>1914.72</ele>
        <time>2013-07-21T09:56:19Z</time>
      </trkpt>
      <trkpt lat="45.30389" lon="6.04912">
        <ele>1911.59</ele>
        <time>2013-07-21T09:56:28Z</time>
      </trkpt>
      <trkpt lat="45.30399" lon="6.04933">
        <ele>1914.54</ele>
        <time>2013-07-21T09:56:38Z</time>
      </trkpt>
      <trkpt lat="45.30395" lon="6.04958">
        <ele>1912.2</ele>
        <time>2013-07-21T09:56:58Z</time>
      </trkpt>
      <trkpt lat="45.30393" lon="6.04984">
        <ele>1915.67</ele>
        <time>2013-07-21T09:57:23Z</time>
      </trkpt>
      <trkpt lat="45.30377" lon="6.04997">
        <ele>1923.33</ele>
        <time>2013-07-21T09:57:50Z</time>
      </trkpt>
      <trkpt lat="45.30395" lon="6.04985">
        <ele>1925.71</ele>
        <time>2013-07-21T10:26:27Z</time>
      </trkpt>
      <trkpt lat="45.30415" lon="6.04975">
        <ele>1921.49</ele>
        <time>2013-07-21T10:26:31Z</time>
      </trkpt>
      <trkpt lat="45.30436" lon="6.04978">
        <ele>1917.77</ele>
        <time>2013-07-21T10:26:37Z</time>
      </trkpt>
      <trkpt lat="45.30454" lon="6.04986">
        <ele>1914.81</ele>
        <time>2013-07-21T10:26:42Z</time>
      </trkpt>
      <trkpt lat="45.30472" lon="6.04989">
        <ele>1910.61</ele>
        <time>2013-07-21T10:26:46Z</time>
      </trkpt>
      <trkpt lat="45.30491" lon="6.05">
        <ele>1906.79</ele>
        <time>2013-07-21T10:26:50Z</time>
      </trkpt>
      <trkpt lat="45.30509" lon="6.05017">
        <ele>1904.8</ele>
        <time>2013-07-21T10:26:54Z</time>
      </trkpt>
      <trkpt lat="45.30529" lon="6.0503">
        <ele>1904.42</ele>
        <time>2013-07-21T10:26:58Z</time>
      </trkpt>
      <trkpt lat="45.30547" lon="6.05039">
        <ele>1904.87</ele>
        <time>2013-07-21T10:27:02Z</time>
      </trkpt>
      <trkpt lat="45.30566" lon="6.05049">
        <ele>1901.59</ele>
        <time>2013-07-21T10:27:07Z</time>
      </trkpt>
      <trkpt lat="45.30585" lon="6.05057">
        <ele>1901.19</ele>
        <time>2013-07-21T10:27:12Z</time>
      </trkpt>
      <trkpt lat="45.30604" lon="6.05058">
        <ele>1897.02</ele>
        <time>2013-07-21T10:27:20Z</time>
      </trkpt>
      <trkpt lat="45.30624" lon="6.05056">
        <ele>1891.09</ele>
        <time>2013-07-21T10:27:29Z</time>
      </trkpt>
      <trkpt lat="45.30645" lon="6.05054">
        <ele>1885.22</ele>
        <time>2013-07-21T10:27:38Z</time>
      </trkpt>
      <trkpt lat="45.30664" lon="6.05051">
        <ele>1881.8</ele>
        <time>2013-07-21T10:27:43Z</time>
      </trkpt>
      <trkpt lat="45.30684" lon="6.05056">
        <ele>1877.99</ele>
        <time>2013-07-21T10:27:48Z</time>
      </trkpt>
      <trkpt lat="45.30704" lon="6.0506">
        <ele>1872.88</ele>
        <time>2013-07-21T10:27:57Z</time>
      </trkpt>
      <trkpt lat="45.30722" lon="6.05064">
        <ele>1869.16</ele>
        <time>2013-07-21T10:28:04Z</time>
      </trkpt>
      <trkpt lat="45.30741" lon="6.05064">
        <ele>1861.23</ele>
        <time>2013-07-21T10:28:43Z</time>
      </trkpt>
      <trkpt lat="45.3076" lon="6.05074">
        <ele>1861.65</ele>
        <time>2013-07-21T10:28:51Z</time>
      </trkpt>
      <trkpt lat="45.30778" lon="6.05073">
        <ele>1855.27</ele>
        <time>2013-07-21T10:28:59Z</time>
      </trkpt>
      <trkpt lat="45.30798" lon="6.0507">
        <ele>1848.8</ele>
        <time>2013-07-21T10:29:07Z</time>
      </trkpt>
      <trkpt lat="45.30817" lon="6.05073">
        <ele>1845.12</ele>
        <time>2013-07-21T10:29:14Z</time>
      </trkpt>
      <trkpt lat="45.30836" lon="6.05078">
        <ele>1842.45</ele>
        <time>2013-07-21T10:29:20Z</time>
      </trkpt>
      <trkpt lat="45.30855" lon="6.0509">
        <ele>1837.41</ele>
        <time>2013-07-21T10:29:28Z</time>
      </trkpt>
      <trkpt lat="45.3087" lon="6.05103">
        <ele>1835.35</ele>
        <time>2013-07-21T10:29:32Z</time>
      </trkpt>
      <trkpt lat="45.30888" lon="6.05108">
        <ele>1836.73</ele>
        <time>2013-07-21T10:29:36Z</time>
      </trkpt>
      <trkpt lat="45.30907" lon="6.05111">
        <ele>1835.85</ele>
        <time>2013-07-21T10:29:41Z</time>
      </trkpt>
      <trkpt lat="45.30925" lon="6.05106">
        <ele>1830.92</ele>
        <time>2013-07-21T10:29:46Z</time>
      </trkpt>
      <trkpt lat="45.30942" lon="6.0509">
        <ele>1828.56</ele>
        <time>2013-07-21T10:29:52Z</time>
      </trkpt>
      <trkpt lat="45.3096" lon="6.05079">
        <ele>1827.74</ele>
        <time>2013-07-21T10:29:58Z</time>
      </trkpt>
      <trkpt lat="45.30977" lon="6.05063">
        <ele>1829.68</ele>
        <time>2013-07-21T10:30:04Z</time>
      </trkpt>
      <trkpt lat="45.30992" lon="6.05045">
        <ele>1830.8</ele>
        <time>2013-07-21T10:30:10Z</time>
      </trkpt>
      <trkpt lat="45.31012" lon="6.0504">
        <ele>1830.17</ele>
        <time>2013-07-21T10:30:16Z</time>
      </trkpt>
      <trkpt lat="45.31033" lon="6.05047">
        <ele>1829.11</ele>
        <time>2013-07-21T10:30:21Z</time>
      </trkpt>
      <trkpt lat="45.31052" lon="6.05055">
        <ele>1826.04</ele>
        <time>2013-07-21T10:30:28Z</time>
      </trkpt>
      <trkpt lat="45.31073" lon="6.05065">
        <ele>1823.36</ele>
        <time>2013-07-21T10:30:32Z</time>
      </trkpt>
      <trkpt lat="45.31096" lon="6.05073">
        <ele>1822.97</ele>
        <time>2013-07-21T10:30:35Z</time>
      </trkpt>
      <trkpt lat="45.31115" lon="6.0507">
        <ele>1821.2</ele>
        <time>2013-07-21T10:30:41Z</time>
      </trkpt>
      <trkpt lat="45.31136" lon="6.05075">
        <ele>1819.15</ele>
        <time>2013-07-21T10:30:47Z</time>
      </trkpt>
      <trkpt lat="45.31153" lon="6.05084">
        <ele>1816.13</ele>
        <time>2013-07-21T10:30:50Z</time>
      </trkpt>
      <trkpt lat="45.31171" lon="6.05094">
        <ele>1814.25</ele>
        <time>2013-07-21T10:30:53Z</time>
      </trkpt>
      <trkpt lat="45.31191" lon="6.05102">
        <ele>1813.56</ele>
        <time>2013-07-21T10:30:57Z</time>
      </trkpt>
      <trkpt lat="45.3121" lon="6.05103">
        <ele>1814.05</ele>
        <time>2013-07-21T10:31:02Z</time>
      </trkpt>
      <trkpt lat="45.31232" lon="6.05108">
        <ele>1812.05</ele>
        <time>2013-07-21T10:31:07Z</time>
      </trkpt>
      <trkpt lat="45.31255" lon="6.05118">
        <ele>1809.41</ele>
        <time>2013-07-21T10:31:11Z</time>
      </trkpt>
      <trkpt lat="45.31274" lon="6.05129">
        <ele>1809.92</ele>
        <time>2013-07-21T10:31:15Z</time>
      </trkpt>
      <trkpt lat="45.31291" lon="6.05145">
        <ele>1809.2</ele>
        <time>2013-07-21T10:31:19Z</time>
      </trkpt>
      <trkpt lat="45.31309" lon="6.05158">
        <ele>1806.73</ele>
        <time>2013-07-21T10:31:23Z</time>
      </trkpt>
      <trkpt lat="45.31329" lon="6.05173">
        <ele>1803.37</ele>
        <time>2013-07-21T10:31:27Z</time>
      </trkpt>
      <trkpt lat="45.31349" lon="6.05187">
        <ele>1802.17</ele>
        <time>2013-07-21T10:31:31Z</time>
      </trkpt>
      <trkpt lat="45.31367" lon="6.05196">
        <ele>1803.81</ele>
        <time>2013-07-21T10:31:35Z</time>
      </trkpt>
      <trkpt lat="45.31385" lon="6.05206">
        <ele>1802.96</ele>
        <time>2013-07-21T10:31:40Z</time>
      </trkpt>
      <trkpt lat="45.31399" lon="6.05227">
        <ele>1801.65</ele>
        <time>2013-07-21T10:31:43Z</time>
      </trkpt>
      <trkpt lat="45.31418" lon="6.0525">
        <ele>1800.19</ele>
        <time>2013-07-21T10:31:46Z</time>
      </trkpt>
      <trkpt lat="45.31441" lon="6.0527">
        <ele>1797.34</ele>
        <time>2013-07-21T10:31:49Z</time>
      </trkpt>
      <trkpt lat="45.31462" lon="6.05287">
        <ele>1794.9</ele>
        <time>2013-07-21T10:31:52Z</time>
      </trkpt>
      <trkpt lat="45.3148" lon="6.05297">
        <ele>1793.65</ele>
        <time>2013-07-21T10:31:55Z</time>
      </trkpt>
      <trkpt lat="45.31497" lon="6.05307">
        <ele>1788.6</ele>
        <time>2013-07-21T10:32:00Z</time>
      </trkpt>
      <trkpt lat="45.3152" lon="6.05321">
        <ele>1784.75</ele>
        <time>2013-07-21T10:32:04Z</time>
      </trkpt>
      <trkpt lat="45.3154" lon="6.05333">
        <ele>1780.89</ele>
        <time>2013-07-21T10:32:07Z</time>
      </trkpt>
      <trkpt lat="45.31562" lon="6.05348">
        <ele>1779.44</ele>
        <time>2013-07-21T10:32:10Z</time>
      </trkpt>
      <trkpt lat="45.31578" lon="6.05361">
        <ele>1777.93</ele>
        <time>2013-07-21T10:32:14Z</time>
      </trkpt>
      <trkpt lat="45.31596" lon="6.05367">
        <ele>1776.29</ele>
        <time>2013-07-21T10:32:23Z</time>
      </trkpt>
      <trkpt lat="45.31616" lon="6.05376">
        <ele>1774</ele>
        <time>2013-07-21T10:32:30Z</time>
      </trkpt>
      <trkpt lat="45.31636" lon="6.05387">
        <ele>1773.44</ele>
        <time>2013-07-21T10:32:35Z</time>
      </trkpt>
      <trkpt lat="45.31649" lon="6.05407">
        <ele>1773.6</ele>
        <time>2013-07-21T10:32:41Z</time>
      </trkpt>
      <trkpt lat="45.31664" lon="6.05429">
        <ele>1774.34</ele>
        <time>2013-07-21T10:32:46Z</time>
      </trkpt>
      <trkpt lat="45.3168" lon="6.05451">
        <ele>1773.44</ele>
        <time>2013-07-21T10:32:50Z</time>
      </trkpt>
      <trkpt lat="45.31696" lon="6.05471">
        <ele>1768.68</ele>
        <time>2013-07-21T10:32:56Z</time>
      </trkpt>
      <trkpt lat="45.3171" lon="6.05494">
        <ele>1767.71</ele>
        <time>2013-07-21T10:33:01Z</time>
      </trkpt>
      <trkpt lat="45.31729" lon="6.05502">
        <ele>1765.06</ele>
        <time>2013-07-21T10:33:05Z</time>
      </trkpt>
      <trkpt lat="45.31746" lon="6.05514">
        <ele>1764.17</ele>
        <time>2013-07-21T10:33:10Z</time>
      </trkpt>
      <trkpt lat="45.31761" lon="6.05533">
        <ele>1762.23</ele>
        <time>2013-07-21T10:33:17Z</time>
      </trkpt>
      <trkpt lat="45.31777" lon="6.05547">
        <ele>1767.57</ele>
        <time>2013-07-21T10:33:36Z</time>
      </trkpt>
      <trkpt lat="45.31796" lon="6.05552">
        <ele>1766.88</ele>
        <time>2013-07-21T10:33:43Z</time>
      </trkpt>
      <trkpt lat="45.31813" lon="6.05564">
        <ele>1762.09</ele>
        <time>2013-07-21T10:33:50Z</time>
      </trkpt>
      <trkpt lat="45.31826" lon="6.05583">
        <ele>1760.4</ele>
        <time>2013-07-21T10:33:56Z</time>
      </trkpt>
      <trkpt lat="45.31843" lon="6.05604">
        <ele>1757.86</ele>
        <time>2013-07-21T10:34:01Z</time>
      </trkpt>
      <trkpt lat="45.31862" lon="6.05622">
        <ele>1756.35</ele>
        <time>2013-07-21T10:34:05Z</time>
      </trkpt>
      <trkpt lat="45.31879" lon="6.05632">
        <ele>1757.15</ele>
        <time>2013-07-21T10:34:10Z</time>
      </trkpt>
      <trkpt lat="45.31896" lon="6.0564">
        <ele>1752.38</ele>
        <time>2013-07-21T10:34:14Z</time>
      </trkpt>
      <trkpt lat="45.31918" lon="6.05641">
        <ele>1746.1</ele>
        <time>2013-07-21T10:34:20Z</time>
      </trkpt>
      <trkpt lat="45.31935" lon="6.05637">
        <ele>1741.32</ele>
        <time>2013-07-21T10:34:26Z</time>
      </trkpt>
      <trkpt lat="45.31954" lon="6.05646">
        <ele>1741.46</ele>
        <time>2013-07-21T10:34:33Z</time>
      </trkpt>
      <trkpt lat="45.31973" lon="6.05642">
        <ele>1738.71</ele>
        <time>2013-07-21T10:34:38Z</time>
      </trkpt>
      <trkpt lat="45.31991" lon="6.05641">
        <ele>1740.31</ele>
        <time>2013-07-21T10:34:46Z</time>
      </trkpt>
      <trkpt lat="45.32009" lon="6.05651">
        <ele>1741.48</ele>
        <time>2013-07-21T10:34:51Z</time>
      </trkpt>
      <trkpt lat="45.32025" lon="6.05664">
        <ele>1739.68</ele>
        <time>2013-07-21T10:34:54Z</time>
      </trkpt>
      <trkpt lat="45.32041" lon="6.05676">
        <ele>1737.67</ele>
        <time>2013-07-21T10:34:57Z</time>
      </trkpt>
      <trkpt lat="45.32061" lon="6.0567">
        <ele>1733.16</ele>
        <time>2013-07-21T10:35:18Z</time>
      </trkpt>
      <trkpt lat="45.32081" lon="6.05669">
        <ele>1728.85</ele>
        <time>2013-07-21T10:35:23Z</time>
      </trkpt>
      <trkpt lat="45.321" lon="6.05668">
        <ele>1726.27</ele>
        <time>2013-07-21T10:35:26Z</time>
      </trkpt>
      <trkpt lat="45.32121" lon="6.05665">
        <ele>1724.67</ele>
        <time>2013-07-21T10:35:30Z</time>
      </trkpt>
      <trkpt lat="45.32137" lon="6.0568">
        <ele>1723.49</ele>
        <time>2013-07-21T10:35:34Z</time>
      </trkpt>
      <trkpt lat="45.32156" lon="6.05696">
        <ele>1718.54</ele>
        <time>2013-07-21T10:35:38Z</time>
      </trkpt>
      <trkpt lat="45.32174" lon="6.05708">
        <ele>1721.36</ele>
        <time>2013-07-21T10:35:44Z</time>
      </trkpt>
      <trkpt lat="45.32184" lon="6.05732">
        <ele>1720.49</ele>
        <time>2013-07-21T10:35:49Z</time>
      </trkpt>
      <trkpt lat="45.322" lon="6.05755">
        <ele>1718.99</ele>
        <time>2013-07-21T10:35:53Z</time>
      </trkpt>
      <trkpt lat="45.32221" lon="6.05734">
        <ele>1718.39</ele>
        <time>2013-07-21T10:35:57Z</time>
      </trkpt>
      <trkpt lat="45.32234" lon="6.05709">
        <ele>1718.86</ele>
        <time>2013-07-21T10:36:00Z</time>
      </trkpt>
      <trkpt lat="45.32258" lon="6.05723">
        <ele>1713.75</ele>
        <time>2013-07-21T10:36:04Z</time>
      </trkpt>
      <trkpt lat="45.32273" lon="6.05739">
        <ele>1711.81</ele>
        <time>2013-07-21T10:36:06Z</time>
      </trkpt>
      <trkpt lat="45.32288" lon="6.05756">
        <ele>1709.47</ele>
        <time>2013-07-21T10:36:09Z</time>
      </trkpt>
      <trkpt lat="45.32299" lon="6.05781">
        <ele>1706.63</ele>
        <time>2013-07-21T10:36:14Z</time>
      </trkpt>
      <trkpt lat="45.3231" lon="6.05802">
        <ele>1702.5</ele>
        <time>2013-07-21T10:36:20Z</time>
      </trkpt>
      <trkpt lat="45.32325" lon="6.05817">
        <ele>1703.15</ele>
        <time>2013-07-21T10:36:27Z</time>
      </trkpt>
      <trkpt lat="45.32341" lon="6.05829">
        <ele>1703.22</ele>
        <time>2013-07-21T10:36:35Z</time>
      </trkpt>
      <trkpt lat="45.32359" lon="6.05833">
        <ele>1709.49</ele>
        <time>2013-07-21T10:36:45Z</time>
      </trkpt>
      <trkpt lat="45.32377" lon="6.05842">
        <ele>1710.26</ele>
        <time>2013-07-21T10:36:54Z</time>
      </trkpt>
      <trkpt lat="45.32393" lon="6.05853">
        <ele>1713.03</ele>
        <time>2013-07-21T10:37:04Z</time>
      </trkpt>
      <trkpt lat="45.32412" lon="6.05856">
        <ele>1715.13</ele>
        <time>2013-07-21T10:37:09Z</time>
      </trkpt>
      <trkpt lat="45.32431" lon="6.05856">
        <ele>1715.93</ele>
        <time>2013-07-21T10:37:15Z</time>
      </trkpt>
      <trkpt lat="45.32449" lon="6.05848">
        <ele>1715.57</ele>
        <time>2013-07-21T10:37:21Z</time>
      </trkpt>
      <trkpt lat="45.32467" lon="6.05841">
        <ele>1712.31</ele>
        <time>2013-07-21T10:37:24Z</time>
      </trkpt>
      <trkpt lat="45.32487" lon="6.0585">
        <ele>1710.33</ele>
        <time>2013-07-21T10:37:27Z</time>
      </trkpt>
      <trkpt lat="45.32501" lon="6.05868">
        <ele>1708</ele>
        <time>2013-07-21T10:37:32Z</time>
      </trkpt>
      <trkpt lat="45.32517" lon="6.05887">
        <ele>1706.88</ele>
        <time>2013-07-21T10:37:50Z</time>
      </trkpt>
      <trkpt lat="45.32534" lon="6.05903">
        <ele>1706.59</ele>
        <time>2013-07-21T10:37:55Z</time>
      </trkpt>
      <trkpt lat="45.32551" lon="6.05916">
        <ele>1709.83</ele>
        <time>2013-07-21T10:38:00Z</time>
      </trkpt>
      <trkpt lat="45.32569" lon="6.05926">
        <ele>1708.28</ele>
        <time>2013-07-21T10:38:05Z</time>
      </trkpt>
      <trkpt lat="45.32588" lon="6.05934">
        <ele>1710.08</ele>
        <time>2013-07-21T10:38:14Z</time>
      </trkpt>
      <trkpt lat="45.32607" lon="6.05943">
        <ele>1716.15</ele>
        <time>2013-07-21T10:38:22Z</time>
      </trkpt>
      <trkpt lat="45.32625" lon="6.05952">
        <ele>1716.25</ele>
        <time>2013-07-21T10:38:32Z</time>
      </trkpt>
      <trkpt lat="45.32642" lon="6.05967">
        <ele>1711.49</ele>
        <time>2013-07-21T10:38:40Z</time>
      </trkpt>
      <trkpt lat="45.32658" lon="6.05982">
        <ele>1709.15</ele>
        <time>2013-07-21T10:38:43Z</time>
      </trkpt>
      <trkpt lat="45.32675" lon="6.05997">
        <ele>1707.38</ele>
        <time>2013-07-21T10:38:46Z</time>
      </trkpt>
      <trkpt lat="45.32688" lon="6.06015">
        <ele>1705.17</ele>
        <time>2013-07-21T10:38:50Z</time>
      </trkpt>
      <trkpt lat="45.32705" lon="6.06037">
        <ele>1706.92</ele>
        <time>2013-07-21T10:38:53Z</time>
      </trkpt>
      <trkpt lat="45.32721" lon="6.06054">
        <ele>1707.15</ele>
        <time>2013-07-21T10:38:56Z</time>
      </trkpt>
      <trkpt lat="45.32742" lon="6.06058">
        <ele>1699.91</ele>
        <time>2013-07-21T10:39:05Z</time>
      </trkpt>
      <trkpt lat="45.32762" lon="6.0606">
        <ele>1697.76</ele>
        <time>2013-07-21T10:39:09Z</time>
      </trkpt>
      <trkpt lat="45.32781" lon="6.06056">
        <ele>1697.4</ele>
        <time>2013-07-21T10:39:14Z</time>
      </trkpt>
      <trkpt lat="45.32802" lon="6.06049">
        <ele>1695.93</ele>
        <time>2013-07-21T10:39:21Z</time>
      </trkpt>
      <trkpt lat="45.32821" lon="6.06044">
        <ele>1694.77</ele>
        <time>2013-07-21T10:39:25Z</time>
      </trkpt>
      <trkpt lat="45.3284" lon="6.06033">
        <ele>1693.66</ele>
        <time>2013-07-21T10:39:30Z</time>
      </trkpt>
      <trkpt lat="45.32854" lon="6.06013">
        <ele>1695.35</ele>
        <time>2013-07-21T10:39:37Z</time>
      </trkpt>
      <trkpt lat="45.3286" lon="6.05986">
        <ele>1697.41</ele>
        <time>2013-07-21T10:39:45Z</time>
      </trkpt>
      <trkpt lat="45.32857" lon="6.05959">
        <ele>1700.28</ele>
        <time>2013-07-21T10:39:55Z</time>
      </trkpt>
      <trkpt lat="45.32841" lon="6.05937">
        <ele>1698.33</ele>
        <time>2013-07-21T10:40:02Z</time>
      </trkpt>
      <trkpt lat="45.32825" lon="6.05922">
        <ele>1697.38</ele>
        <time>2013-07-21T10:40:05Z</time>
      </trkpt>
      <trkpt lat="45.32809" lon="6.05905">
        <ele>1694.5</ele>
        <time>2013-07-21T10:40:08Z</time>
      </trkpt>
      <trkpt lat="45.32794" lon="6.05886">
        <ele>1692.12</ele>
        <time>2013-07-21T10:40:11Z</time>
      </trkpt>
      <trkpt lat="45.3278" lon="6.05866">
        <ele>1690.58</ele>
        <time>2013-07-21T10:40:14Z</time>
      </trkpt>
      <trkpt lat="45.32764" lon="6.05843">
        <ele>1690.1</ele>
        <time>2013-07-21T10:40:18Z</time>
      </trkpt>
      <trkpt lat="45.32742" lon="6.0584">
        <ele>1690.96</ele>
        <time>2013-07-21T10:40:22Z</time>
      </trkpt>
      <trkpt lat="45.32721" lon="6.05844">
        <ele>1691.08</ele>
        <time>2013-07-21T10:40:27Z</time>
      </trkpt>
      <trkpt lat="45.32701" lon="6.05843">
        <ele>1691.61</ele>
        <time>2013-07-21T10:40:32Z</time>
      </trkpt>
      <trkpt lat="45.32683" lon="6.0584">
        <ele>1692.27</ele>
        <time>2013-07-21T10:40:38Z</time>
      </trkpt>
      <trkpt lat="45.32664" lon="6.05839">
        <ele>1690.85</ele>
        <time>2013-07-21T10:40:43Z</time>
      </trkpt>
      <trkpt lat="45.32641" lon="6.05837">
        <ele>1688.59</ele>
        <time>2013-07-21T10:40:48Z</time>
      </trkpt>
      <trkpt lat="45.32623" lon="6.05828">
        <ele>1689.26</ele>
        <time>2013-07-21T10:40:52Z</time>
      </trkpt>
      <trkpt lat="45.3261" lon="6.05806">
        <ele>1690.03</ele>
        <time>2013-07-21T10:40:56Z</time>
      </trkpt>
      <trkpt lat="45.326" lon="6.05779">
        <ele>1691.88</ele>
        <time>2013-07-21T10:41:00Z</time>
      </trkpt>
      <trkpt lat="45.32585" lon="6.05762">
        <ele>1691.05</ele>
        <time>2013-07-21T10:41:04Z</time>
      </trkpt>
      <trkpt lat="45.32566" lon="6.05753">
        <ele>1687.73</ele>
        <time>2013-07-21T10:41:08Z</time>
      </trkpt>
      <trkpt lat="45.32549" lon="6.05735">
        <ele>1685.92</ele>
        <time>2013-07-21T10:41:12Z</time>
      </trkpt>
      <trkpt lat="45.32535" lon="6.05717">
        <ele>1685.35</ele>
        <time>2013-07-21T10:41:16Z</time>
      </trkpt>
      <trkpt lat="45.32538" lon="6.0569">
        <ele>1687.57</ele>
        <time>2013-07-21T10:41:57Z</time>
      </trkpt>
      <trkpt lat="45.32531" lon="6.0566">
        <ele>1683.37</ele>
        <time>2013-07-21T10:42:02Z</time>
      </trkpt>
      <trkpt lat="45.32517" lon="6.05639">
        <ele>1678.01</ele>
        <time>2013-07-21T10:42:06Z</time>
      </trkpt>
      <trkpt lat="45.32508" lon="6.05617">
        <ele>1672.51</ele>
        <time>2013-07-21T10:42:12Z</time>
      </trkpt>
      <trkpt lat="45.32493" lon="6.05602">
        <ele>1669.62</ele>
        <time>2013-07-21T10:42:18Z</time>
      </trkpt>
      <trkpt lat="45.32475" lon="6.05587">
        <ele>1666.79</ele>
        <time>2013-07-21T10:42:24Z</time>
      </trkpt>
      <trkpt lat="45.32456" lon="6.05566">
        <ele>1664.55</ele>
        <time>2013-07-21T10:42:28Z</time>
      </trkpt>
      <trkpt lat="45.32436" lon="6.05552">
        <ele>1662.88</ele>
        <time>2013-07-21T10:42:31Z</time>
      </trkpt>
      <trkpt lat="45.32417" lon="6.05543">
        <ele>1663.47</ele>
        <time>2013-07-21T10:42:34Z</time>
      </trkpt>
      <trkpt lat="45.32397" lon="6.05531">
        <ele>1661.17</ele>
        <time>2013-07-21T10:42:39Z</time>
      </trkpt>
      <trkpt lat="45.32377" lon="6.05522">
        <ele>1661.06</ele>
        <time>2013-07-21T10:42:43Z</time>
      </trkpt>
      <trkpt lat="45.32357" lon="6.05506">
        <ele>1659.89</ele>
        <time>2013-07-21T10:42:47Z</time>
      </trkpt>
      <trkpt lat="45.32337" lon="6.05491">
        <ele>1656.56</ele>
        <time>2013-07-21T10:42:51Z</time>
      </trkpt>
      <trkpt lat="45.32318" lon="6.05483">
        <ele>1652.6</ele>
        <time>2013-07-21T10:42:55Z</time>
      </trkpt>
      <trkpt lat="45.32299" lon="6.05482">
        <ele>1647.61</ele>
        <time>2013-07-21T10:43:04Z</time>
      </trkpt>
      <trkpt lat="45.32281" lon="6.05475">
        <ele>1646.33</ele>
        <time>2013-07-21T10:43:09Z</time>
      </trkpt>
      <trkpt lat="45.32264" lon="6.05464">
        <ele>1641.56</ele>
        <time>2013-07-21T10:43:14Z</time>
      </trkpt>
      <trkpt lat="45.32246" lon="6.05455">
        <ele>1632.57</ele>
        <time>2013-07-21T10:43:21Z</time>
      </trkpt>
      <trkpt lat="45.32236" lon="6.0543">
        <ele>1632.31</ele>
        <time>2013-07-21T10:43:26Z</time>
      </trkpt>
      <trkpt lat="45.32222" lon="6.05411">
        <ele>1623.31</ele>
        <time>2013-07-21T10:43:32Z</time>
      </trkpt>
      <trkpt lat="45.32214" lon="6.05383">
        <ele>1624.68</ele>
        <time>2013-07-21T10:43:37Z</time>
      </trkpt>
      <trkpt lat="45.32221" lon="6.05359">
        <ele>1621.79</ele>
        <time>2013-07-21T10:44:01Z</time>
      </trkpt>
      <trkpt lat="45.32216" lon="6.05327">
        <ele>1619.91</ele>
        <time>2013-07-21T10:44:06Z</time>
      </trkpt>
      <trkpt lat="45.32209" lon="6.05299">
        <ele>1619.64</ele>
        <time>2013-07-21T10:44:09Z</time>
      </trkpt>
      <trkpt lat="45.32194" lon="6.05282">
        <ele>1618.2</ele>
        <time>2013-07-21T10:44:14Z</time>
      </trkpt>
      <trkpt lat="45.32179" lon="6.05264">
        <ele>1613.35</ele>
        <time>2013-07-21T10:44:22Z</time>
      </trkpt>
      <trkpt lat="45.32174" lon="6.05236">
        <ele>1610.95</ele>
        <time>2013-07-21T10:44:28Z</time>
      </trkpt>
      <trkpt lat="45.32158" lon="6.05212">
        <ele>1609.34</ele>
        <time>2013-07-21T10:44:32Z</time>
      </trkpt>
      <trkpt lat="45.32144" lon="6.05194">
        <ele>1608.31</ele>
        <time>2013-07-21T10:44:35Z</time>
      </trkpt>
      <trkpt lat="45.3213" lon="6.05175">
        <ele>1603.9</ele>
        <time>2013-07-21T10:44:41Z</time>
      </trkpt>
      <trkpt lat="45.32121" lon="6.05152">
        <ele>1599.12</ele>
        <time>2013-07-21T10:44:48Z</time>
      </trkpt>
      <trkpt lat="45.32108" lon="6.05124">
        <ele>1605.01</ele>
        <time>2013-07-21T10:45:13Z</time>
      </trkpt>
      <trkpt lat="45.32099" lon="6.051">
        <ele>1599.63</ele>
        <time>2013-07-21T10:45:22Z</time>
      </trkpt>
      <trkpt lat="45.32087" lon="6.05076">
        <ele>1596.83</ele>
        <time>2013-07-21T10:45:28Z</time>
      </trkpt>
      <trkpt lat="45.32076" lon="6.05056">
        <ele>1596.41</ele>
        <time>2013-07-21T10:45:35Z</time>
      </trkpt>
      <trkpt lat="45.3206" lon="6.05033">
        <ele>1594.13</ele>
        <time>2013-07-21T10:46:48Z</time>
      </trkpt>
      <trkpt lat="45.3205" lon="6.05007">
        <ele>1595.4</ele>
        <time>2013-07-21T10:46:55Z</time>
      </trkpt>
      <trkpt lat="45.3204" lon="6.04985">
        <ele>1592.56</ele>
        <time>2013-07-21T10:46:59Z</time>
      </trkpt>
      <trkpt lat="45.32029" lon="6.04961">
        <ele>1587.66</ele>
        <time>2013-07-21T10:47:05Z</time>
      </trkpt>
      <trkpt lat="45.32018" lon="6.0494">
        <ele>1585.43</ele>
        <time>2013-07-21T10:47:17Z</time>
      </trkpt>
      <trkpt lat="45.32007" lon="6.04919">
        <ele>1579.7</ele>
        <time>2013-07-21T10:47:29Z</time>
      </trkpt>
      <trkpt lat="45.31998" lon="6.04891">
        <ele>1575.08</ele>
        <time>2013-07-21T10:47:36Z</time>
      </trkpt>
      <trkpt lat="45.31995" lon="6.04864">
        <ele>1576.8</ele>
        <time>2013-07-21T10:47:47Z</time>
      </trkpt>
      <trkpt lat="45.32001" lon="6.04837">
        <ele>1571.52</ele>
        <time>2013-07-21T10:47:55Z</time>
      </trkpt>
      <trkpt lat="45.31995" lon="6.04809">
        <ele>1571.12</ele>
        <time>2013-07-21T10:48:00Z</time>
      </trkpt>
      <trkpt lat="45.31986" lon="6.04784">
        <ele>1574.26</ele>
        <time>2013-07-21T10:48:05Z</time>
      </trkpt>
      <trkpt lat="45.31978" lon="6.04761">
        <ele>1575.14</ele>
        <time>2013-07-21T10:48:09Z</time>
      </trkpt>
      <trkpt lat="45.31966" lon="6.04741">
        <ele>1577.9</ele>
        <time>2013-07-21T10:48:13Z</time>
      </trkpt>
      <trkpt lat="45.31951" lon="6.0472">
        <ele>1576.32</ele>
        <time>2013-07-21T10:48:17Z</time>
      </trkpt>
      <trkpt lat="45.3194" lon="6.04698">
        <ele>1569.69</ele>
        <time>2013-07-21T10:48:28Z</time>
      </trkpt>
      <trkpt lat="45.31927" lon="6.04678">
        <ele>1569.68</ele>
        <time>2013-07-21T10:48:33Z</time>
      </trkpt>
      <trkpt lat="45.31912" lon="6.04657">
        <ele>1566.97</ele>
        <time>2013-07-21T10:48:38Z</time>
      </trkpt>
      <trkpt lat="45.319" lon="6.04637">
        <ele>1562.47</ele>
        <time>2013-07-21T10:48:42Z</time>
      </trkpt>
      <trkpt lat="45.31885" lon="6.04616">
        <ele>1556.98</ele>
        <time>2013-07-21T10:48:48Z</time>
      </trkpt>
      <trkpt lat="45.31872" lon="6.04595">
        <ele>1549.15</ele>
        <time>2013-07-21T10:48:55Z</time>
      </trkpt>
      <trkpt lat="45.31864" lon="6.0457">
        <ele>1548.57</ele>
        <time>2013-07-21T10:48:59Z</time>
      </trkpt>
      <trkpt lat="45.31855" lon="6.04546">
        <ele>1544.34</ele>
        <time>2013-07-21T10:49:05Z</time>
      </trkpt>
      <trkpt lat="45.31842" lon="6.04524">
        <ele>1540.8</ele>
        <time>2013-07-21T10:49:12Z</time>
      </trkpt>
      <trkpt lat="45.3183" lon="6.04499">
        <ele>1539.25</ele>
        <time>2013-07-21T10:49:15Z</time>
      </trkpt>
      <trkpt lat="45.31829" lon="6.04467">
        <ele>1537.38</ele>
        <time>2013-07-21T10:49:18Z</time>
      </trkpt>
      <trkpt lat="45.31836" lon="6.04442">
        <ele>1535.34</ele>
        <time>2013-07-21T10:49:22Z</time>
      </trkpt>
      <trkpt lat="45.31854" lon="6.04439">
        <ele>1528.08</ele>
        <time>2013-07-21T10:49:37Z</time>
      </trkpt>
      <trkpt lat="45.31876" lon="6.04431">
        <ele>1525.51</ele>
        <time>2013-07-21T10:49:41Z</time>
      </trkpt>
      <trkpt lat="45.31899" lon="6.04419">
        <ele>1523.46</ele>
        <time>2013-07-21T10:49:44Z</time>
      </trkpt>
      <trkpt lat="45.31921" lon="6.04405">
        <ele>1520.08</ele>
        <time>2013-07-21T10:49:47Z</time>
      </trkpt>
      <trkpt lat="45.3194" lon="6.04393">
        <ele>1517.34</ele>
        <time>2013-07-21T10:49:50Z</time>
      </trkpt>
      <trkpt lat="45.31959" lon="6.04381">
        <ele>1512.79</ele>
        <time>2013-07-21T10:49:54Z</time>
      </trkpt>
      <trkpt lat="45.31978" lon="6.04385">
        <ele>1510.53</ele>
        <time>2013-07-21T10:49:57Z</time>
      </trkpt>
      <trkpt lat="45.31998" lon="6.04392">
        <ele>1509.71</ele>
        <time>2013-07-21T10:50:00Z</time>
      </trkpt>
      <trkpt lat="45.32016" lon="6.044">
        <ele>1508.22</ele>
        <time>2013-07-21T10:50:03Z</time>
      </trkpt>
      <trkpt lat="45.32037" lon="6.04417">
        <ele>1508.21</ele>
        <time>2013-07-21T10:50:06Z</time>
      </trkpt>
      <trkpt lat="45.32056" lon="6.04421">
        <ele>1504.94</ele>
        <time>2013-07-21T10:50:09Z</time>
      </trkpt>
      <trkpt lat="45.32076" lon="6.04405">
        <ele>1502.7</ele>
        <time>2013-07-21T10:50:12Z</time>
      </trkpt>
      <trkpt lat="45.32097" lon="6.04407">
        <ele>1501.65</ele>
        <time>2013-07-21T10:50:15Z</time>
      </trkpt>
      <trkpt lat="45.32115" lon="6.04428">
        <ele>1501.78</ele>
        <time>2013-07-21T10:50:18Z</time>
      </trkpt>
      <trkpt lat="45.3211" lon="6.04398">
        <ele>1494.47</ele>
        <time>2013-07-21T10:50:26Z</time>
      </trkpt>
      <trkpt lat="45.3211" lon="6.04373">
        <ele>1493.75</ele>
        <time>2013-07-21T10:50:29Z</time>
      </trkpt>
      <trkpt lat="45.32131" lon="6.04373">
        <ele>1493.16</ele>
        <time>2013-07-21T10:50:33Z</time>
      </trkpt>
      <trkpt lat="45.32152" lon="6.04388">
        <ele>1492.2</ele>
        <time>2013-07-21T10:50:37Z</time>
      </trkpt>
      <trkpt lat="45.32172" lon="6.04406">
        <ele>1494.07</ele>
        <time>2013-07-21T10:50:41Z</time>
      </trkpt>
      <trkpt lat="45.32189" lon="6.04417">
        <ele>1496.24</ele>
        <time>2013-07-21T10:50:44Z</time>
      </trkpt>
      <trkpt lat="45.32212" lon="6.04417">
        <ele>1494.77</ele>
        <time>2013-07-21T10:50:48Z</time>
      </trkpt>
      <trkpt lat="45.32235" lon="6.04421">
        <ele>1488.35</ele>
        <time>2013-07-21T10:50:51Z</time>
      </trkpt>
      <trkpt lat="45.32253" lon="6.04432">
        <ele>1486.45</ele>
        <time>2013-07-21T10:50:54Z</time>
      </trkpt>
      <trkpt lat="45.32268" lon="6.04447">
        <ele>1486.7</ele>
        <time>2013-07-21T10:50:57Z</time>
      </trkpt>
      <trkpt lat="45.32278" lon="6.04473">
        <ele>1485.36</ele>
        <time>2013-07-21T10:51:00Z</time>
      </trkpt>
      <trkpt lat="45.32282" lon="6.0451">
        <ele>1479.51</ele>
        <time>2013-07-21T10:51:03Z</time>
      </trkpt>
      <trkpt lat="45.32288" lon="6.04547">
        <ele>1472.88</ele>
        <time>2013-07-21T10:51:06Z</time>
      </trkpt>
      <trkpt lat="45.32292" lon="6.04578">
        <ele>1471</ele>
        <time>2013-07-21T10:51:09Z</time>
      </trkpt>
      <trkpt lat="45.32303" lon="6.04599">
        <ele>1469.95</ele>
        <time>2013-07-21T10:51:15Z</time>
      </trkpt>
      <trkpt lat="45.32316" lon="6.04627">
        <ele>1472.18</ele>
        <time>2013-07-21T10:51:20Z</time>
      </trkpt>
      <trkpt lat="45.32322" lon="6.04655">
        <ele>1471.65</ele>
        <time>2013-07-21T10:51:23Z</time>
      </trkpt>
      <trkpt lat="45.32331" lon="6.04678">
        <ele>1467.56</ele>
        <time>2013-07-21T10:51:30Z</time>
      </trkpt>
      <trkpt lat="45.32345" lon="6.04702">
        <ele>1465.42</ele>
        <time>2013-07-21T10:51:36Z</time>
      </trkpt>
      <trkpt lat="45.32342" lon="6.04669">
        <ele>1457.59</ele>
        <time>2013-07-21T10:51:46Z</time>
      </trkpt>
      <trkpt lat="45.32336" lon="6.04645">
        <ele>1456.02</ele>
        <time>2013-07-21T10:51:49Z</time>
      </trkpt>
      <trkpt lat="45.32337" lon="6.04613">
        <ele>1454.02</ele>
        <time>2013-07-21T10:51:53Z</time>
      </trkpt>
      <trkpt lat="45.32343" lon="6.04585">
        <ele>1455.64</ele>
        <time>2013-07-21T10:51:56Z</time>
      </trkpt>
      <trkpt lat="45.32336" lon="6.04555">
        <ele>1453.86</ele>
        <time>2013-07-21T10:51:59Z</time>
      </trkpt>
      <trkpt lat="45.32327" lon="6.0453">
        <ele>1451.1</ele>
        <time>2013-07-21T10:52:02Z</time>
      </trkpt>
      <trkpt lat="45.32319" lon="6.04504">
        <ele>1446.9</ele>
        <time>2013-07-21T10:52:07Z</time>
      </trkpt>
      <trkpt lat="45.32805" lon="6.0328">
        <ele>1145.88</ele>
        <time>2013-07-21T11:10:36Z</time>
      </trkpt>
      <trkpt lat="45.32782" lon="6.03272">
        <ele>1137.49</ele>
        <time>2013-07-21T11:10:44Z</time>
      </trkpt>
      <trkpt lat="45.32763" lon="6.03271">
        <ele>1136.94</ele>
        <time>2013-07-21T11:10:57Z</time>
      </trkpt>
      <trkpt lat="45.32743" lon="6.03273">
        <ele>1140.06</ele>
        <time>2013-07-21T11:11:07Z</time>
      </trkpt>
      <trkpt lat="45.32727" lon="6.03291">
        <ele>1141.63</ele>
        <time>2013-07-21T11:11:22Z</time>
      </trkpt>
      <trkpt lat="45.32713" lon="6.03308">
        <ele>1142.13</ele>
        <time>2013-07-21T11:11:35Z</time>
      </trkpt>
      <trkpt lat="45.32694" lon="6.03314">
        <ele>1137.5</ele>
        <time>2013-07-21T11:11:47Z</time>
      </trkpt>
      <trkpt lat="45.32677" lon="6.03319">
        <ele>1128.06</ele>
        <time>2013-07-21T11:12:03Z</time>
      </trkpt>
      <trkpt lat="45.32658" lon="6.03323">
        <ele>1127.19</ele>
        <time>2013-07-21T11:12:17Z</time>
      </trkpt>
      <trkpt lat="45.3264" lon="6.03337">
        <ele>1127.29</ele>
        <time>2013-07-21T11:12:27Z</time>
      </trkpt>
      <trkpt lat="45.32627" lon="6.03357">
        <ele>1142.14</ele>
        <time>2013-07-21T11:12:37Z</time>
      </trkpt>
      <trkpt lat="45.32608" lon="6.03366">
        <ele>1148.38</ele>
        <time>2013-07-21T11:12:51Z</time>
      </trkpt>
      <trkpt lat="45.32589" lon="6.0336">
        <ele>1146.92</ele>
        <time>2013-07-21T11:13:03Z</time>
      </trkpt>
      <trkpt lat="45.32572" lon="6.03351">
        <ele>1148.91</ele>
        <time>2013-07-21T11:13:14Z</time>
      </trkpt>
      <trkpt lat="45.32553" lon="6.03346">
        <ele>1150.55</ele>
        <time>2013-07-21T11:13:24Z</time>
      </trkpt>
      <trkpt lat="45.32535" lon="6.03344">
        <ele>1158</ele>
        <time>2013-07-21T11:13:35Z</time>
      </trkpt>
      <trkpt lat="45.32516" lon="6.03343">
        <ele>1163.48</ele>
        <time>2013-07-21T11:13:45Z</time>
      </trkpt>
      <trkpt lat="45.32498" lon="6.03341">
        <ele>1161.33</ele>
        <time>2013-07-21T11:13:57Z</time>
      </trkpt>
      <trkpt lat="45.3248" lon="6.03343">
        <ele>1158.82</ele>
        <time>2013-07-21T11:14:07Z</time>
      </trkpt>
      <trkpt lat="45.32462" lon="6.03342">
        <ele>1166.16</ele>
        <time>2013-07-21T11:14:21Z</time>
      </trkpt>
      <trkpt lat="45.32443" lon="6.03344">
        <ele>1163.3</ele>
        <time>2013-07-21T11:14:34Z</time>
      </trkpt>
      <trkpt lat="45.32423" lon="6.03349">
        <ele>1166.59</ele>
        <time>2013-07-21T11:14:42Z</time>
      </trkpt>
      <trkpt lat="45.32405" lon="6.03351">
        <ele>1171.1</ele>
        <time>2013-07-21T11:14:56Z</time>
      </trkpt>
      <trkpt lat="45.32387" lon="6.03355">
        <ele>1159.58</ele>
        <time>2013-07-21T11:15:11Z</time>
      </trkpt>
      <trkpt lat="45.32369" lon="6.03363">
        <ele>1155.71</ele>
        <time>2013-07-21T11:15:21Z</time>
      </trkpt>
      <trkpt lat="45.32349" lon="6.03371">
        <ele>1161.93</ele>
        <time>2013-07-21T11:15:31Z</time>
      </trkpt>
      <trkpt lat="45.32331" lon="6.03378">
        <ele>1154.29</ele>
        <time>2013-07-21T11:15:45Z</time>
      </trkpt>
      <trkpt lat="45.32314" lon="6.03387">
        <ele>1163.06</ele>
        <time>2013-07-21T11:15:55Z</time>
      </trkpt>
      <trkpt lat="45.32297" lon="6.03399">
        <ele>1169.16</ele>
        <time>2013-07-21T11:16:02Z</time>
      </trkpt>
      <trkpt lat="45.3228" lon="6.03409">
        <ele>1179.29</ele>
        <time>2013-07-21T11:16:12Z</time>
      </trkpt>
      <trkpt lat="45.32271" lon="6.03433">
        <ele>1185.13</ele>
        <time>2013-07-21T11:16:23Z</time>
      </trkpt>
      <trkpt lat="45.32275" lon="6.03459">
        <ele>1191.3</ele>
        <time>2013-07-21T11:16:34Z</time>
      </trkpt>
      <trkpt lat="45.32277" lon="6.03484">
        <ele>1196.38</ele>
        <time>2013-07-21T11:16:44Z</time>
      </trkpt>
      <trkpt lat="45.32266" lon="6.03505">
        <ele>1194.69</ele>
        <time>2013-07-21T11:16:56Z</time>
      </trkpt>
      <trkpt lat="45.32247" lon="6.03513">
        <ele>1184.28</ele>
        <time>2013-07-21T11:17:09Z</time>
      </trkpt>
      <trkpt lat="45.32229" lon="6.03527">
        <ele>1183.63</ele>
        <time>2013-07-21T11:17:14Z</time>
      </trkpt>
      <trkpt lat="45.32221" lon="6.03549">
        <ele>1186.12</ele>
        <time>2013-07-21T11:17:22Z</time>
      </trkpt>
      <trkpt lat="45.32203" lon="6.03562">
        <ele>1190.77</ele>
        <time>2013-07-21T11:17:37Z</time>
      </trkpt>
      <trkpt lat="45.32184" lon="6.03575">
        <ele>1183.74</ele>
        <time>2013-07-21T11:17:45Z</time>
      </trkpt>
      <trkpt lat="45.3217" lon="6.03591">
        <ele>1184.57</ele>
        <time>2013-07-21T11:17:52Z</time>
      </trkpt>
      <trkpt lat="45.32153" lon="6.03606">
        <ele>1186.94</ele>
        <time>2013-07-21T11:18:02Z</time>
      </trkpt>
      <trkpt lat="45.32139" lon="6.03622">
        <ele>1190.32</ele>
        <time>2013-07-21T11:18:10Z</time>
      </trkpt>
      <trkpt lat="45.32124" lon="6.03639">
        <ele>1192.19</ele>
        <time>2013-07-21T11:18:19Z</time>
      </trkpt>
      <trkpt lat="45.32109" lon="6.03657">
        <ele>1193.12</ele>
        <time>2013-07-21T11:18:28Z</time>
      </trkpt>
      <trkpt lat="45.32096" lon="6.03675">
        <ele>1196.22</ele>
        <time>2013-07-21T11:18:38Z</time>
      </trkpt>
      <trkpt lat="45.32083" lon="6.03694">
        <ele>1201.45</ele>
        <time>2013-07-21T11:18:47Z</time>
      </trkpt>
      <trkpt lat="45.32071" lon="6.03715">
        <ele>1207.13</ele>
        <time>2013-07-21T11:18:56Z</time>
      </trkpt>
      <trkpt lat="45.32056" lon="6.0373">
        <ele>1210.8</ele>
        <time>2013-07-21T11:19:07Z</time>
      </trkpt>
      <trkpt lat="45.32037" lon="6.03733">
        <ele>1209.33</ele>
        <time>2013-07-21T11:19:34Z</time>
      </trkpt>
      <trkpt lat="45.32035" lon="6.0376">
        <ele>1205.17</ele>
        <time>2013-07-21T11:22:00Z</time>
      </trkpt>
      <trkpt lat="45.32025" lon="6.03781">
        <ele>1206.04</ele>
        <time>2013-07-21T11:22:09Z</time>
      </trkpt>
      <trkpt lat="45.32015" lon="6.03805">
        <ele>1209.81</ele>
        <time>2013-07-21T11:22:18Z</time>
      </trkpt>
      <trkpt lat="45.31998" lon="6.03819">
        <ele>1211.63</ele>
        <time>2013-07-21T11:22:31Z</time>
      </trkpt>
      <trkpt lat="45.31979" lon="6.03815">
        <ele>1214.33</ele>
        <time>2013-07-21T11:22:40Z</time>
      </trkpt>
      <trkpt lat="45.31961" lon="6.03805">
        <ele>1222.84</ele>
        <time>2013-07-21T11:22:50Z</time>
      </trkpt>
      <trkpt lat="45.31944" lon="6.03789">
        <ele>1227.86</ele>
        <time>2013-07-21T11:22:57Z</time>
      </trkpt>
      <trkpt lat="45.31929" lon="6.03773">
        <ele>1227.32</ele>
        <time>2013-07-21T11:23:04Z</time>
      </trkpt>
      <trkpt lat="45.31914" lon="6.03756">
        <ele>1227.79</ele>
        <time>2013-07-21T11:23:14Z</time>
      </trkpt>
      <trkpt lat="45.319" lon="6.03737">
        <ele>1227.84</ele>
        <time>2013-07-21T11:23:23Z</time>
      </trkpt>
      <trkpt lat="45.31886" lon="6.0372">
        <ele>1229</ele>
        <time>2013-07-21T11:23:31Z</time>
      </trkpt>
      <trkpt lat="45.31874" lon="6.03699">
        <ele>1227.7</ele>
        <time>2013-07-21T11:23:38Z</time>
      </trkpt>
      <trkpt lat="45.3186" lon="6.03682">
        <ele>1226.83</ele>
        <time>2013-07-21T11:23:46Z</time>
      </trkpt>
      <trkpt lat="45.31848" lon="6.03661">
        <ele>1226.73</ele>
        <time>2013-07-21T11:23:56Z</time>
      </trkpt>
      <trkpt lat="45.31837" lon="6.03641">
        <ele>1229.29</ele>
        <time>2013-07-21T11:24:03Z</time>
      </trkpt>
      <trkpt lat="45.31824" lon="6.03622">
        <ele>1230.9</ele>
        <time>2013-07-21T11:24:10Z</time>
      </trkpt>
      <trkpt lat="45.31811" lon="6.03603">
        <ele>1230.51</ele>
        <time>2013-07-21T11:24:18Z</time>
      </trkpt>
      <trkpt lat="45.31797" lon="6.03587">
        <ele>1225.49</ele>
        <time>2013-07-21T11:24:28Z</time>
      </trkpt>
      <trkpt lat="45.31778" lon="6.03583">
        <ele>1235.9</ele>
        <time>2013-07-21T11:24:39Z</time>
      </trkpt>
      <trkpt lat="45.31758" lon="6.03597">
        <ele>1239.37</ele>
        <time>2013-07-21T11:24:48Z</time>
      </trkpt>
      <trkpt lat="45.31745" lon="6.03614">
        <ele>1235.75</ele>
        <time>2013-07-21T11:24:55Z</time>
      </trkpt>
      <trkpt lat="45.31729" lon="6.03631">
        <ele>1236.05</ele>
        <time>2013-07-21T11:25:04Z</time>
      </trkpt>
      <trkpt lat="45.31713" lon="6.03619">
        <ele>1240</ele>
        <time>2013-07-21T11:25:13Z</time>
      </trkpt>
      <trkpt lat="45.31704" lon="6.03594">
        <ele>1242.88</ele>
        <time>2013-07-21T11:25:20Z</time>
      </trkpt>
      <trkpt lat="45.31697" lon="6.0357">
        <ele>1245.72</ele>
        <time>2013-07-21T11:25:29Z</time>
      </trkpt>
      <trkpt lat="45.31687" lon="6.03548">
        <ele>1248.87</ele>
        <time>2013-07-21T11:25:40Z</time>
      </trkpt>
      <trkpt lat="45.31669" lon="6.03542">
        <ele>1248.16</ele>
        <time>2013-07-21T11:25:49Z</time>
      </trkpt>
      <trkpt lat="45.31651" lon="6.03538">
        <ele>1252.31</ele>
        <time>2013-07-21T11:25:59Z</time>
      </trkpt>
      <trkpt lat="45.31632" lon="6.03536">
        <ele>1250.53</ele>
        <time>2013-07-21T11:26:11Z</time>
      </trkpt>
      <trkpt lat="45.31614" lon="6.03534">
        <ele>1254.7</ele>
        <time>2013-07-21T11:26:22Z</time>
      </trkpt>
      <trkpt lat="45.31595" lon="6.03529">
        <ele>1251.25</ele>
        <time>2013-07-21T11:26:34Z</time>
      </trkpt>
      <trkpt lat="45.31576" lon="6.03525">
        <ele>1251.8</ele>
        <time>2013-07-21T11:26:44Z</time>
      </trkpt>
      <trkpt lat="45.31557" lon="6.03528">
        <ele>1251.9</ele>
        <time>2013-07-21T11:26:55Z</time>
      </trkpt>
      <trkpt lat="45.31539" lon="6.0353">
        <ele>1255.99</ele>
        <time>2013-07-21T11:27:07Z</time>
      </trkpt>
      <trkpt lat="45.3152" lon="6.03526">
        <ele>1261.31</ele>
        <time>2013-07-21T11:27:20Z</time>
      </trkpt>
      <trkpt lat="45.31501" lon="6.03523">
        <ele>1260.22</ele>
        <time>2013-07-21T11:27:30Z</time>
      </trkpt>
      <trkpt lat="45.31485" lon="6.03512">
        <ele>1261.41</ele>
        <time>2013-07-21T11:27:42Z</time>
      </trkpt>
      <trkpt lat="45.31464" lon="6.03509">
        <ele>1267.96</ele>
        <time>2013-07-21T11:28:00Z</time>
      </trkpt>
      <trkpt lat="45.31446" lon="6.03514">
        <ele>1271.19</ele>
        <time>2013-07-21T11:28:08Z</time>
      </trkpt>
      <trkpt lat="45.31428" lon="6.03512">
        <ele>1277.33</ele>
        <time>2013-07-21T11:28:15Z</time>
      </trkpt>
      <trkpt lat="45.31409" lon="6.03511">
        <ele>1280.43</ele>
        <time>2013-07-21T11:28:28Z</time>
      </trkpt>
      <trkpt lat="45.3139" lon="6.03503">
        <ele>1278.94</ele>
        <time>2013-07-21T11:28:44Z</time>
      </trkpt>
      <trkpt lat="45.31374" lon="6.03491">
        <ele>1279.93</ele>
        <time>2013-07-21T11:28:59Z</time>
      </trkpt>
      <trkpt lat="45.31358" lon="6.03477">
        <ele>1277.5</ele>
        <time>2013-07-21T11:29:12Z</time>
      </trkpt>
      <trkpt lat="45.31341" lon="6.03463">
        <ele>1278.22</ele>
        <time>2013-07-21T11:29:23Z</time>
      </trkpt>
      <trkpt lat="45.31322" lon="6.03455">
        <ele>1280.16</ele>
        <time>2013-07-21T11:29:35Z</time>
      </trkpt>
      <trkpt lat="45.31303" lon="6.0345">
        <ele>1284.08</ele>
        <time>2013-07-21T11:29:47Z</time>
      </trkpt>
      <trkpt lat="45.31284" lon="6.0345">
        <ele>1284.35</ele>
        <time>2013-07-21T11:30:00Z</time>
      </trkpt>
      <trkpt lat="45.31269" lon="6.03434">
        <ele>1277.56</ele>
        <time>2013-07-21T11:30:12Z</time>
      </trkpt>
      <trkpt lat="45.31251" lon="6.03426">
        <ele>1278.96</ele>
        <time>2013-07-21T11:30:24Z</time>
      </trkpt>
      <trkpt lat="45.31233" lon="6.03413">
        <ele>1284.26</ele>
        <time>2013-07-21T11:30:35Z</time>
      </trkpt>
      <trkpt lat="45.31217" lon="6.03397">
        <ele>1284.07</ele>
        <time>2013-07-21T11:30:46Z</time>
      </trkpt>
      <trkpt lat="45.31203" lon="6.03378">
        <ele>1284.38</ele>
        <time>2013-07-21T11:30:57Z</time>
      </trkpt>
      <trkpt lat="45.31191" lon="6.03358">
        <ele>1289.44</ele>
        <time>2013-07-21T11:31:08Z</time>
      </trkpt>
      <trkpt lat="45.31179" lon="6.03336">
        <ele>1292.66</ele>
        <time>2013-07-21T11:31:25Z</time>
      </trkpt>
      <trkpt lat="45.31164" lon="6.0332">
        <ele>1291.41</ele>
        <time>2013-07-21T11:31:39Z</time>
      </trkpt>
      <trkpt lat="45.31148" lon="6.03303">
        <ele>1304.95</ele>
        <time>2013-07-21T11:33:01Z</time>
      </trkpt>
      <trkpt lat="45.3113" lon="6.03299">
        <ele>1305.23</ele>
        <time>2013-07-21T11:33:13Z</time>
      </trkpt>
      <trkpt lat="45.31115" lon="6.03282">
        <ele>1303.07</ele>
        <time>2013-07-21T11:33:25Z</time>
      </trkpt>
      <trkpt lat="45.31098" lon="6.03274">
        <ele>1314.34</ele>
        <time>2013-07-21T11:33:40Z</time>
      </trkpt>
      <trkpt lat="45.31081" lon="6.03266">
        <ele>1320.71</ele>
        <time>2013-07-21T11:33:52Z</time>
      </trkpt>
      <trkpt lat="45.31066" lon="6.03251">
        <ele>1311.11</ele>
        <time>2013-07-21T11:34:08Z</time>
      </trkpt>
      <trkpt lat="45.31048" lon="6.03242">
        <ele>1319.78</ele>
        <time>2013-07-21T11:34:23Z</time>
      </trkpt>
      <trkpt lat="45.3103" lon="6.03233">
        <ele>1320.36</ele>
        <time>2013-07-21T11:34:39Z</time>
      </trkpt>
      <trkpt lat="45.31013" lon="6.03222">
        <ele>1320.47</ele>
        <time>2013-07-21T11:34:54Z</time>
      </trkpt>
      <trkpt lat="45.31004" lon="6.03197">
        <ele>1332.02</ele>
        <time>2013-07-21T11:35:03Z</time>
      </trkpt>
      <trkpt lat="45.30994" lon="6.03176">
        <ele>1326.5</ele>
        <time>2013-07-21T11:35:15Z</time>
      </trkpt>
      <trkpt lat="45.30981" lon="6.03154">
        <ele>1319.07</ele>
        <time>2013-07-21T11:35:30Z</time>
      </trkpt>
      <trkpt lat="45.30966" lon="6.03135">
        <ele>1320.22</ele>
        <time>2013-07-21T11:35:42Z</time>
      </trkpt>
      <trkpt lat="45.3095" lon="6.03119">
        <ele>1319.12</ele>
        <time>2013-07-21T11:35:54Z</time>
      </trkpt>
      <trkpt lat="45.30936" lon="6.03103">
        <ele>1319.39</ele>
        <time>2013-07-21T11:36:08Z</time>
      </trkpt>
      <trkpt lat="45.30922" lon="6.03086">
        <ele>1321.22</ele>
        <time>2013-07-21T11:36:20Z</time>
      </trkpt>
      <trkpt lat="45.30907" lon="6.03073">
        <ele>1324.08</ele>
        <time>2013-07-21T11:36:31Z</time>
      </trkpt>
      <trkpt lat="45.3089" lon="6.03058">
        <ele>1328.06</ele>
        <time>2013-07-21T11:36:45Z</time>
      </trkpt>
      <trkpt lat="45.30873" lon="6.03048">
        <ele>1329.3</ele>
        <time>2013-07-21T11:36:57Z</time>
      </trkpt>
      <trkpt lat="45.30856" lon="6.03037">
        <ele>1333.48</ele>
        <time>2013-07-21T11:37:10Z</time>
      </trkpt>
      <trkpt lat="45.3084" lon="6.03025">
        <ele>1331.02</ele>
        <time>2013-07-21T11:37:23Z</time>
      </trkpt>
      <trkpt lat="45.30821" lon="6.03015">
        <ele>1329.1</ele>
        <time>2013-07-21T11:37:36Z</time>
      </trkpt>
      <trkpt lat="45.30804" lon="6.03007">
        <ele>1340.72</ele>
        <time>2013-07-21T11:37:48Z</time>
      </trkpt>
      <trkpt lat="45.30785" lon="6.03008">
        <ele>1345.84</ele>
        <time>2013-07-21T11:38:00Z</time>
      </trkpt>
      <trkpt lat="45.30767" lon="6.03012">
        <ele>1341.45</ele>
        <time>2013-07-21T11:38:11Z</time>
      </trkpt>
      <trkpt lat="45.30748" lon="6.03011">
        <ele>1337.45</ele>
        <time>2013-07-21T11:38:24Z</time>
      </trkpt>
      <trkpt lat="45.30729" lon="6.03015">
        <ele>1334.93</ele>
        <time>2013-07-21T11:38:35Z</time>
      </trkpt>
      <trkpt lat="45.3071" lon="6.03022">
        <ele>1347.06</ele>
        <time>2013-07-21T11:39:38Z</time>
      </trkpt>
      <trkpt lat="45.30695" lon="6.03008">
        <ele>1340.21</ele>
        <time>2013-07-21T11:39:50Z</time>
      </trkpt>
      <trkpt lat="45.3068" lon="6.02987">
        <ele>1344.71</ele>
        <time>2013-07-21T11:40:03Z</time>
      </trkpt>
      <trkpt lat="45.30663" lon="6.02979">
        <ele>1345.82</ele>
        <time>2013-07-21T11:40:10Z</time>
      </trkpt>
      <trkpt lat="45.30644" lon="6.02974">
        <ele>1348.94</ele>
        <time>2013-07-21T11:40:19Z</time>
      </trkpt>
      <trkpt lat="45.30626" lon="6.02969">
        <ele>1353.02</ele>
        <time>2013-07-21T11:40:28Z</time>
      </trkpt>
      <trkpt lat="45.30607" lon="6.02966">
        <ele>1354.08</ele>
        <time>2013-07-21T11:40:37Z</time>
      </trkpt>
      <trkpt lat="45.30588" lon="6.02963">
        <ele>1357.9</ele>
        <time>2013-07-21T11:40:48Z</time>
      </trkpt>
      <trkpt lat="45.3057" lon="6.0296">
        <ele>1356.09</ele>
        <time>2013-07-21T11:40:55Z</time>
      </trkpt>
      <trkpt lat="45.30552" lon="6.02955">
        <ele>1356.63</ele>
        <time>2013-07-21T11:41:03Z</time>
      </trkpt>
      <trkpt lat="45.30535" lon="6.02945">
        <ele>1355.67</ele>
        <time>2013-07-21T11:41:13Z</time>
      </trkpt>
      <trkpt lat="45.30517" lon="6.02935">
        <ele>1362.12</ele>
        <time>2013-07-21T11:41:24Z</time>
      </trkpt>
      <trkpt lat="45.305" lon="6.02928">
        <ele>1360.76</ele>
        <time>2013-07-21T11:41:34Z</time>
      </trkpt>
      <trkpt lat="45.30482" lon="6.02924">
        <ele>1362.06</ele>
        <time>2013-07-21T11:41:42Z</time>
      </trkpt>
      <trkpt lat="45.30464" lon="6.02922">
        <ele>1363.88</ele>
        <time>2013-07-21T11:41:51Z</time>
      </trkpt>
      <trkpt lat="45.30443" lon="6.02924">
        <ele>1366.07</ele>
        <time>2013-07-21T11:42:00Z</time>
      </trkpt>
      <trkpt lat="45.30426" lon="6.02934">
        <ele>1364.77</ele>
        <time>2013-07-21T11:42:09Z</time>
      </trkpt>
      <trkpt lat="45.30413" lon="6.02953">
        <ele>1380.04</ele>
        <time>2013-07-21T11:43:35Z</time>
      </trkpt>
      <trkpt lat="45.30398" lon="6.02968">
        <ele>1374.34</ele>
        <time>2013-07-21T11:48:26Z</time>
      </trkpt>
      <trkpt lat="45.30384" lon="6.02986">
        <ele>1370.71</ele>
        <time>2013-07-21T11:48:38Z</time>
      </trkpt>
      <trkpt lat="45.30371" lon="6.03003">
        <ele>1373.17</ele>
        <time>2013-07-21T11:48:48Z</time>
      </trkpt>
      <trkpt lat="45.30355" lon="6.03016">
        <ele>1373.65</ele>
        <time>2013-07-21T11:48:58Z</time>
      </trkpt>
      <trkpt lat="45.30337" lon="6.03023">
        <ele>1372.9</ele>
        <time>2013-07-21T11:49:08Z</time>
      </trkpt>
      <trkpt lat="45.30319" lon="6.03024">
        <ele>1367.91</ele>
        <time>2013-07-21T11:49:22Z</time>
      </trkpt>
      <trkpt lat="45.303" lon="6.03026">
        <ele>1381.05</ele>
        <time>2013-07-21T11:49:33Z</time>
      </trkpt>
      <trkpt lat="45.30283" lon="6.03038">
        <ele>1382.79</ele>
        <time>2013-07-21T11:49:42Z</time>
      </trkpt>
      <trkpt lat="45.30269" lon="6.03057">
        <ele>1384.63</ele>
        <time>2013-07-21T11:49:54Z</time>
      </trkpt>
      <trkpt lat="45.30259" lon="6.03079">
        <ele>1378.41</ele>
        <time>2013-07-21T11:50:06Z</time>
      </trkpt>
      <trkpt lat="45.30245" lon="6.03097">
        <ele>1379.46</ele>
        <time>2013-07-21T11:50:18Z</time>
      </trkpt>
      <trkpt lat="45.30227" lon="6.03105">
        <ele>1380.34</ele>
        <time>2013-07-21T11:50:30Z</time>
      </trkpt>
      <trkpt lat="45.30208" lon="6.03105">
        <ele>1375.49</ele>
        <time>2013-07-21T11:50:40Z</time>
      </trkpt>
      <trkpt lat="45.3019" lon="6.03098">
        <ele>1380.33</ele>
        <time>2013-07-21T11:50:50Z</time>
      </trkpt>
      <trkpt lat="45.30174" lon="6.03087">
        <ele>1386.36</ele>
        <time>2013-07-21T11:51:00Z</time>
      </trkpt>
      <trkpt lat="45.30159" lon="6.03071">
        <ele>1387.88</ele>
        <time>2013-07-21T11:51:12Z</time>
      </trkpt>
      <trkpt lat="45.30145" lon="6.03052">
        <ele>1391.45</ele>
        <time>2013-07-21T11:51:23Z</time>
      </trkpt>
      <trkpt lat="45.30132" lon="6.03034">
        <ele>1390.21</ele>
        <time>2013-07-21T11:51:32Z</time>
      </trkpt>
      <trkpt lat="45.3012" lon="6.03014">
        <ele>1391.13</ele>
        <time>2013-07-21T11:51:41Z</time>
      </trkpt>
      <trkpt lat="45.30113" lon="6.02989">
        <ele>1393.83</ele>
        <time>2013-07-21T11:51:51Z</time>
      </trkpt>
      <trkpt lat="45.30107" lon="6.02963">
        <ele>1394.9</ele>
        <time>2013-07-21T11:52:02Z</time>
      </trkpt>
      <trkpt lat="45.30096" lon="6.02941">
        <ele>1398.64</ele>
        <time>2013-07-21T11:52:11Z</time>
      </trkpt>
      <trkpt lat="45.30086" lon="6.02915">
        <ele>1396.14</ele>
        <time>2013-07-21T11:52:22Z</time>
      </trkpt>
      <trkpt lat="45.30071" lon="6.029">
        <ele>1395.92</ele>
        <time>2013-07-21T11:52:31Z</time>
      </trkpt>
      <trkpt lat="45.30052" lon="6.02898">
        <ele>1395.59</ele>
        <time>2013-07-21T11:52:40Z</time>
      </trkpt>
      <trkpt lat="45.30033" lon="6.02897">
        <ele>1394.1</ele>
        <time>2013-07-21T11:52:51Z</time>
      </trkpt>
      <trkpt lat="45.30014" lon="6.02897">
        <ele>1399.14</ele>
        <time>2013-07-21T11:53:00Z</time>
      </trkpt>
      <trkpt lat="45.29996" lon="6.0289">
        <ele>1403</ele>
        <time>2013-07-21T11:53:09Z</time>
      </trkpt>
      <trkpt lat="45.29979" lon="6.02875">
        <ele>1405.81</ele>
        <time>2013-07-21T11:53:19Z</time>
      </trkpt>
      <trkpt lat="45.29961" lon="6.02871">
        <ele>1407.68</ele>
        <time>2013-07-21T11:53:28Z</time>
      </trkpt>
      <trkpt lat="45.29943" lon="6.02862">
        <ele>1408.36</ele>
        <time>2013-07-21T11:53:37Z</time>
      </trkpt>
      <trkpt lat="45.29926" lon="6.02852">
        <ele>1408.69</ele>
        <time>2013-07-21T11:53:46Z</time>
      </trkpt>
      <trkpt lat="45.29911" lon="6.02836">
        <ele>1412.44</ele>
        <time>2013-07-21T11:53:56Z</time>
      </trkpt>
      <trkpt lat="45.29894" lon="6.02825">
        <ele>1413.76</ele>
        <time>2013-07-21T11:54:06Z</time>
      </trkpt>
      <trkpt lat="45.29876" lon="6.02818">
        <ele>1418.53</ele>
        <time>2013-07-21T11:54:16Z</time>
      </trkpt>
      <trkpt lat="45.29859" lon="6.02808">
        <ele>1418.23</ele>
        <time>2013-07-21T11:54:26Z</time>
      </trkpt>
      <trkpt lat="45.29842" lon="6.02797">
        <ele>1418.41</ele>
        <time>2013-07-21T11:54:37Z</time>
      </trkpt>
      <trkpt lat="45.29823" lon="6.02789">
        <ele>1421</ele>
        <time>2013-07-21T11:54:48Z</time>
      </trkpt>
      <trkpt lat="45.29806" lon="6.0278">
        <ele>1418.71</ele>
        <time>2013-07-21T11:54:59Z</time>
      </trkpt>
      <trkpt lat="45.29787" lon="6.02771">
        <ele>1414.04</ele>
        <time>2013-07-21T11:55:09Z</time>
      </trkpt>
      <trkpt lat="45.29769" lon="6.02762">
        <ele>1418.44</ele>
        <time>2013-07-21T11:55:20Z</time>
      </trkpt>
      <trkpt lat="45.29751" lon="6.02753">
        <ele>1420.2</ele>
        <time>2013-07-21T11:55:30Z</time>
      </trkpt>
      <trkpt lat="45.29732" lon="6.02746">
        <ele>1420.6</ele>
        <time>2013-07-21T11:55:40Z</time>
      </trkpt>
      <trkpt lat="45.29714" lon="6.02738">
        <ele>1421.06</ele>
        <time>2013-07-21T11:55:50Z</time>
      </trkpt>
      <trkpt lat="45.29695" lon="6.02731">
        <ele>1426.56</ele>
        <time>2013-07-21T11:56:00Z</time>
      </trkpt>
      <trkpt lat="45.29676" lon="6.02725">
        <ele>1426.74</ele>
        <time>2013-07-21T11:56:11Z</time>
      </trkpt>
      <trkpt lat="45.29657" lon="6.02722">
        <ele>1428.29</ele>
        <time>2013-07-21T11:56:22Z</time>
      </trkpt>
      <trkpt lat="45.29638" lon="6.02718">
        <ele>1428.61</ele>
        <time>2013-07-21T11:56:33Z</time>
      </trkpt>
      <trkpt lat="45.29621" lon="6.02709">
        <ele>1435.09</ele>
        <time>2013-07-21T11:56:44Z</time>
      </trkpt>
      <trkpt lat="45.29604" lon="6.02695">
        <ele>1430.59</ele>
        <time>2013-07-21T11:56:56Z</time>
      </trkpt>
      <trkpt lat="45.2959" lon="6.02679">
        <ele>1435</ele>
        <time>2013-07-21T11:57:06Z</time>
      </trkpt>
      <trkpt lat="45.29577" lon="6.0266">
        <ele>1438.18</ele>
        <time>2013-07-21T11:57:18Z</time>
      </trkpt>
      <trkpt lat="45.29564" lon="6.02639">
        <ele>1441.11</ele>
        <time>2013-07-21T11:57:30Z</time>
      </trkpt>
      <trkpt lat="45.29551" lon="6.0262">
        <ele>1443.19</ele>
        <time>2013-07-21T11:57:41Z</time>
      </trkpt>
      <trkpt lat="45.29538" lon="6.026">
        <ele>1442.83</ele>
        <time>2013-07-21T11:57:51Z</time>
      </trkpt>
      <trkpt lat="45.29524" lon="6.02582">
        <ele>1447.12</ele>
        <time>2013-07-21T11:58:01Z</time>
      </trkpt>
      <trkpt lat="45.29505" lon="6.02575">
        <ele>1444.96</ele>
        <time>2013-07-21T11:58:11Z</time>
      </trkpt>
      <trkpt lat="45.29488" lon="6.02585">
        <ele>1448.08</ele>
        <time>2013-07-21T11:58:21Z</time>
      </trkpt>
      <trkpt lat="45.29476" lon="6.02604">
        <ele>1448.66</ele>
        <time>2013-07-21T11:58:29Z</time>
      </trkpt>
      <trkpt lat="45.29463" lon="6.02622">
        <ele>1454.76</ele>
        <time>2013-07-21T11:58:40Z</time>
      </trkpt>
      <trkpt lat="45.29444" lon="6.02631">
        <ele>1458.29</ele>
        <time>2013-07-21T11:58:51Z</time>
      </trkpt>
      <trkpt lat="45.29425" lon="6.02638">
        <ele>1456.14</ele>
        <time>2013-07-21T11:59:00Z</time>
      </trkpt>
      <trkpt lat="45.29426" lon="6.02665">
        <ele>1455.26</ele>
        <time>2013-07-21T11:59:11Z</time>
      </trkpt>
      <trkpt lat="45.29445" lon="6.02663">
        <ele>1460.91</ele>
        <time>2013-07-21T11:59:22Z</time>
      </trkpt>
      <trkpt lat="45.29462" lon="6.02655">
        <ele>1465.2</ele>
        <time>2013-07-21T12:03:43Z</time>
      </trkpt>
      <trkpt lat="45.29481" lon="6.02658">
        <ele>1461.82</ele>
        <time>2013-07-21T12:03:54Z</time>
      </trkpt>
      <trkpt lat="45.29498" lon="6.02671">
        <ele>1457.14</ele>
        <time>2013-07-21T12:04:06Z</time>
      </trkpt>
      <trkpt lat="45.29516" lon="6.0268">
        <ele>1463.43</ele>
        <time>2013-07-21T12:04:18Z</time>
      </trkpt>
      <trkpt lat="45.29533" lon="6.02693">
        <ele>1469.87</ele>
        <time>2013-07-21T12:04:30Z</time>
      </trkpt>
      <trkpt lat="45.29534" lon="6.02719">
        <ele>1468.71</ele>
        <time>2013-07-21T12:04:45Z</time>
      </trkpt>
      <trkpt lat="45.29515" lon="6.02723">
        <ele>1468.05</ele>
        <time>2013-07-21T12:04:56Z</time>
      </trkpt>
      <trkpt lat="45.29497" lon="6.02713">
        <ele>1471.77</ele>
        <time>2013-07-21T12:05:06Z</time>
      </trkpt>
      <trkpt lat="45.29479" lon="6.0271">
        <ele>1476.46</ele>
        <time>2013-07-21T12:05:16Z</time>
      </trkpt>
      <trkpt lat="45.2946" lon="6.02712">
        <ele>1475.89</ele>
        <time>2013-07-21T12:05:28Z</time>
      </trkpt>
      <trkpt lat="45.29442" lon="6.02716">
        <ele>1476.44</ele>
        <time>2013-07-21T12:05:38Z</time>
      </trkpt>
      <trkpt lat="45.29425" lon="6.0273">
        <ele>1473.89</ele>
        <time>2013-07-21T12:05:51Z</time>
      </trkpt>
      <trkpt lat="45.29407" lon="6.02733">
        <ele>1478.07</ele>
        <time>2013-07-21T12:06:00Z</time>
      </trkpt>
      <trkpt lat="45.29389" lon="6.02736">
        <ele>1478.32</ele>
        <time>2013-07-21T12:06:08Z</time>
      </trkpt>
      <trkpt lat="45.29367" lon="6.02742">
        <ele>1477.59</ele>
        <time>2013-07-21T12:06:16Z</time>
      </trkpt>
      <trkpt lat="45.2935" lon="6.02752">
        <ele>1479.4</ele>
        <time>2013-07-21T12:06:21Z</time>
      </trkpt>
      <trkpt lat="45.29334" lon="6.02769">
        <ele>1477.14</ele>
        <time>2013-07-21T12:06:27Z</time>
      </trkpt>
      <trkpt lat="45.29321" lon="6.02788">
        <ele>1477.56</ele>
        <time>2013-07-21T12:06:32Z</time>
      </trkpt>
      <trkpt lat="45.29307" lon="6.02805">
        <ele>1479.25</ele>
        <time>2013-07-21T12:06:37Z</time>
      </trkpt>
      <trkpt lat="45.29291" lon="6.02826">
        <ele>1478.17</ele>
        <time>2013-07-21T12:06:43Z</time>
      </trkpt>
      <trkpt lat="45.29274" lon="6.02838">
        <ele>1476.62</ele>
        <time>2013-07-21T12:06:49Z</time>
      </trkpt>
      <trkpt lat="45.29253" lon="6.02844">
        <ele>1477.6</ele>
        <time>2013-07-21T12:06:55Z</time>
      </trkpt>
      <trkpt lat="45.29233" lon="6.02853">
        <ele>1478.15</ele>
        <time>2013-07-21T12:07:01Z</time>
      </trkpt>
      <trkpt lat="45.29214" lon="6.02864">
        <ele>1477.72</ele>
        <time>2013-07-21T12:07:06Z</time>
      </trkpt>
      <trkpt lat="45.29194" lon="6.02876">
        <ele>1478.46</ele>
        <time>2013-07-21T12:07:11Z</time>
      </trkpt>
      <trkpt lat="45.29177" lon="6.02891">
        <ele>1477.44</ele>
        <time>2013-07-21T12:07:16Z</time>
      </trkpt>
      <trkpt lat="45.29161" lon="6.02905">
        <ele>1477.51</ele>
        <time>2013-07-21T12:07:21Z</time>
      </trkpt>
      <trkpt lat="45.29144" lon="6.02919">
        <ele>1477.09</ele>
        <time>2013-07-21T12:07:26Z</time>
      </trkpt>
      <trkpt lat="45.29126" lon="6.02932">
        <ele>1476.35</ele>
        <time>2013-07-21T12:07:31Z</time>
      </trkpt>
      <trkpt lat="45.29109" lon="6.02945">
        <ele>1477.88</ele>
        <time>2013-07-21T12:07:38Z</time>
      </trkpt>
      <trkpt lat="45.29098" lon="6.02965">
        <ele>1479.18</ele>
        <time>2013-07-21T12:07:45Z</time>
      </trkpt>
      <trkpt lat="45.29084" lon="6.02987">
        <ele>1480.62</ele>
        <time>2013-07-21T12:07:52Z</time>
      </trkpt>
      <trkpt lat="45.29068" lon="6.03003">
        <ele>1478.62</ele>
        <time>2013-07-21T12:08:02Z</time>
      </trkpt>
      <trkpt lat="45.29061" lon="6.03028">
        <ele>1482.66</ele>
        <time>2013-07-21T12:08:13Z</time>
      </trkpt>
      <trkpt lat="45.29049" lon="6.03048">
        <ele>1483.49</ele>
        <time>2013-07-21T12:08:24Z</time>
      </trkpt>
      <trkpt lat="45.29031" lon="6.0306">
        <ele>1486.52</ele>
        <time>2013-07-21T12:08:38Z</time>
      </trkpt>
      <trkpt lat="45.29012" lon="6.03063">
        <ele>1483.14</ele>
        <time>2013-07-21T12:08:46Z</time>
      </trkpt>
      <trkpt lat="45.28993" lon="6.03067">
        <ele>1489.98</ele>
        <time>2013-07-21T12:08:55Z</time>
      </trkpt>
      <trkpt lat="45.28974" lon="6.0307">
        <ele>1488.71</ele>
        <time>2013-07-21T12:09:00Z</time>
      </trkpt>
      <trkpt lat="45.28955" lon="6.03073">
        <ele>1487.1</ele>
        <time>2013-07-21T12:09:04Z</time>
      </trkpt>
      <trkpt lat="45.28937" lon="6.0308">
        <ele>1490.09</ele>
        <time>2013-07-21T12:09:10Z</time>
      </trkpt>
      <trkpt lat="45.28922" lon="6.03103">
        <ele>1488.96</ele>
        <time>2013-07-21T12:09:16Z</time>
      </trkpt>
      <trkpt lat="45.28907" lon="6.0312">
        <ele>1487.76</ele>
        <time>2013-07-21T12:09:20Z</time>
      </trkpt>
      <trkpt lat="45.28891" lon="6.03133">
        <ele>1490.41</ele>
        <time>2013-07-21T12:09:24Z</time>
      </trkpt>
      <trkpt lat="45.28873" lon="6.0314">
        <ele>1491.53</ele>
        <time>2013-07-21T12:09:28Z</time>
      </trkpt>
      <trkpt lat="45.28851" lon="6.03145">
        <ele>1494.04</ele>
        <time>2013-07-21T12:09:32Z</time>
      </trkpt>
      <trkpt lat="45.28832" lon="6.03153">
        <ele>1490.13</ele>
        <time>2013-07-21T12:09:36Z</time>
      </trkpt>
      <trkpt lat="45.28815" lon="6.03162">
        <ele>1482.4</ele>
        <time>2013-07-21T12:09:41Z</time>
      </trkpt>
      <trkpt lat="45.28797" lon="6.0316">
        <ele>1477.65</ele>
        <time>2013-07-21T12:09:48Z</time>
      </trkpt>
      <trkpt lat="45.28779" lon="6.03153">
        <ele>1480.48</ele>
        <time>2013-07-21T12:09:55Z</time>
      </trkpt>
      <trkpt lat="45.28761" lon="6.03142">
        <ele>1482.33</ele>
        <time>2013-07-21T12:10:04Z</time>
      </trkpt>
      <trkpt lat="45.28743" lon="6.03133">
        <ele>1481.1</ele>
        <time>2013-07-21T12:10:12Z</time>
      </trkpt>
      <trkpt lat="45.28723" lon="6.0313">
        <ele>1480.93</ele>
        <time>2013-07-21T12:10:17Z</time>
      </trkpt>
      <trkpt lat="45.287" lon="6.03129">
        <ele>1480.02</ele>
        <time>2013-07-21T12:10:21Z</time>
      </trkpt>
      <trkpt lat="45.28678" lon="6.0312">
        <ele>1479.11</ele>
        <time>2013-07-21T12:10:24Z</time>
      </trkpt>
      <trkpt lat="45.28666" lon="6.03095">
        <ele>1476.62</ele>
        <time>2013-07-21T12:10:27Z</time>
      </trkpt>
      <trkpt lat="45.2866" lon="6.0307">
        <ele>1473.61</ele>
        <time>2013-07-21T12:10:30Z</time>
      </trkpt>
      <trkpt lat="45.28658" lon="6.03044">
        <ele>1469.73</ele>
        <time>2013-07-21T12:10:33Z</time>
      </trkpt>
      <trkpt lat="45.28672" lon="6.03014">
        <ele>1467.55</ele>
        <time>2013-07-21T12:10:36Z</time>
      </trkpt>
      <trkpt lat="45.28689" lon="6.02989">
        <ele>1469.83</ele>
        <time>2013-07-21T12:10:39Z</time>
      </trkpt>
      <trkpt lat="45.28698" lon="6.02957">
        <ele>1473.81</ele>
        <time>2013-07-21T12:10:42Z</time>
      </trkpt>
      <trkpt lat="45.28702" lon="6.02921">
        <ele>1473.05</ele>
        <time>2013-07-21T12:10:45Z</time>
      </trkpt>
      <trkpt lat="45.28698" lon="6.02885">
        <ele>1468.53</ele>
        <time>2013-07-21T12:10:48Z</time>
      </trkpt>
      <trkpt lat="45.28693" lon="6.02854">
        <ele>1464.89</ele>
        <time>2013-07-21T12:10:51Z</time>
      </trkpt>
      <trkpt lat="45.28693" lon="6.02827">
        <ele>1471.66</ele>
        <time>2013-07-21T12:10:55Z</time>
      </trkpt>
      <trkpt lat="45.28698" lon="6.02801">
        <ele>1481.56</ele>
        <time>2013-07-21T12:11:00Z</time>
      </trkpt>
      <trkpt lat="45.28705" lon="6.02774">
        <ele>1480.89</ele>
        <time>2013-07-21T12:11:05Z</time>
      </trkpt>
      <trkpt lat="45.28712" lon="6.02745">
        <ele>1472.44</ele>
        <time>2013-07-21T12:11:10Z</time>
      </trkpt>
      <trkpt lat="45.28716" lon="6.02719">
        <ele>1469.32</ele>
        <time>2013-07-21T12:11:14Z</time>
      </trkpt>
      <trkpt lat="45.28721" lon="6.02684">
        <ele>1468.85</ele>
        <time>2013-07-21T12:11:18Z</time>
      </trkpt>
      <trkpt lat="45.28725" lon="6.02658">
        <ele>1465.3</ele>
        <time>2013-07-21T12:11:20Z</time>
      </trkpt>
      <trkpt lat="45.28715" lon="6.02629">
        <ele>1460.71</ele>
        <time>2013-07-21T12:11:23Z</time>
      </trkpt>
      <trkpt lat="45.287" lon="6.02602">
        <ele>1456.65</ele>
        <time>2013-07-21T12:11:26Z</time>
      </trkpt>
      <trkpt lat="45.28686" lon="6.02572">
        <ele>1453.39</ele>
        <time>2013-07-21T12:11:29Z</time>
      </trkpt>
      <trkpt lat="45.28675" lon="6.02545">
        <ele>1450.78</ele>
        <time>2013-07-21T12:11:32Z</time>
      </trkpt>
      <trkpt lat="45.28664" lon="6.02523">
        <ele>1449.59</ele>
        <time>2013-07-21T12:11:36Z</time>
      </trkpt>
      <trkpt lat="45.28647" lon="6.02506">
        <ele>1452.22</ele>
        <time>2013-07-21T12:11:43Z</time>
      </trkpt>
      <trkpt lat="45.28632" lon="6.02491">
        <ele>1452.99</ele>
        <time>2013-07-21T12:11:50Z</time>
      </trkpt>
      <trkpt lat="45.2862" lon="6.02471">
        <ele>1454.64</ele>
        <time>2013-07-21T12:11:58Z</time>
      </trkpt>
      <trkpt lat="45.28612" lon="6.02446">
        <ele>1455.89</ele>
        <time>2013-07-21T12:12:07Z</time>
      </trkpt>
      <trkpt lat="45.28602" lon="6.0242">
        <ele>1454.4</ele>
        <time>2013-07-21T12:12:15Z</time>
      </trkpt>
      <trkpt lat="45.28585" lon="6.02405">
        <ele>1455.66</ele>
        <time>2013-07-21T12:12:24Z</time>
      </trkpt>
      <trkpt lat="45.28566" lon="6.024">
        <ele>1459.7</ele>
        <time>2013-07-21T12:12:33Z</time>
      </trkpt>
      <trkpt lat="45.28548" lon="6.02396">
        <ele>1465.36</ele>
        <time>2013-07-21T12:12:42Z</time>
      </trkpt>
      <trkpt lat="45.28529" lon="6.02397">
        <ele>1468.59</ele>
        <time>2013-07-21T12:12:52Z</time>
      </trkpt>
      <trkpt lat="45.28502" lon="6.02398">
        <ele>1484.88</ele>
        <time>2013-07-21T12:13:06Z</time>
      </trkpt>
      <trkpt lat="45.28483" lon="6.02393">
        <ele>1486.1</ele>
        <time>2013-07-21T12:13:18Z</time>
      </trkpt>
      <trkpt lat="45.2846" lon="6.02393">
        <ele>1491.9</ele>
        <time>2013-07-21T12:13:31Z</time>
      </trkpt>
      <trkpt lat="45.28435" lon="6.02398">
        <ele>1489.61</ele>
        <time>2013-07-21T12:13:47Z</time>
      </trkpt>
      <trkpt lat="45.28453" lon="6.02393">
        <ele>1510.02</ele>
        <time>2013-07-21T12:17:06Z</time>
      </trkpt>
      <trkpt lat="45.28434" lon="6.02401">
        <ele>1500.06</ele>
        <time>2013-07-21T12:18:50Z</time>
      </trkpt>
      <trkpt lat="45.28415" lon="6.02409">
        <ele>1498.88</ele>
        <time>2013-07-21T12:18:56Z</time>
      </trkpt>
      <trkpt lat="45.28397" lon="6.02418">
        <ele>1493.28</ele>
        <time>2013-07-21T12:19:05Z</time>
      </trkpt>
      <trkpt lat="45.2838" lon="6.02428">
        <ele>1492.26</ele>
        <time>2013-07-21T12:19:15Z</time>
      </trkpt>
      <trkpt lat="45.28362" lon="6.02437">
        <ele>1491.51</ele>
        <time>2013-07-21T12:19:26Z</time>
      </trkpt>
      <trkpt lat="45.28343" lon="6.02439">
        <ele>1491.55</ele>
        <time>2013-07-21T12:19:37Z</time>
      </trkpt>
      <trkpt lat="45.28325" lon="6.0245">
        <ele>1489.28</ele>
        <time>2013-07-21T12:19:48Z</time>
      </trkpt>
      <trkpt lat="45.28307" lon="6.02461">
        <ele>1489.31</ele>
        <time>2013-07-21T12:20:00Z</time>
      </trkpt>
      <trkpt lat="45.2829" lon="6.02469">
        <ele>1489.7</ele>
        <time>2013-07-21T12:20:10Z</time>
      </trkpt>
      <trkpt lat="45.28272" lon="6.0247">
        <ele>1490.76</ele>
        <time>2013-07-21T12:20:23Z</time>
      </trkpt>
      <trkpt lat="45.28253" lon="6.02474">
        <ele>1490.45</ele>
        <time>2013-07-21T12:20:36Z</time>
      </trkpt>
      <trkpt lat="45.28234" lon="6.02484">
        <ele>1492.49</ele>
        <time>2013-07-21T12:20:46Z</time>
      </trkpt>
      <trkpt lat="45.28215" lon="6.02491">
        <ele>1496.82</ele>
        <time>2013-07-21T12:20:58Z</time>
      </trkpt>
      <trkpt lat="45.28197" lon="6.02494">
        <ele>1504.91</ele>
        <time>2013-07-21T12:21:08Z</time>
      </trkpt>
      <trkpt lat="45.28179" lon="6.0249">
        <ele>1506.74</ele>
        <time>2013-07-21T12:21:17Z</time>
      </trkpt>
      <trkpt lat="45.28161" lon="6.02485">
        <ele>1499.45</ele>
        <time>2013-07-21T12:21:26Z</time>
      </trkpt>
      <trkpt lat="45.28141" lon="6.02489">
        <ele>1496.98</ele>
        <time>2013-07-21T12:21:34Z</time>
      </trkpt>
      <trkpt lat="45.28123" lon="6.02496">
        <ele>1496.28</ele>
        <time>2013-07-21T12:21:42Z</time>
      </trkpt>
      <trkpt lat="45.28106" lon="6.02501">
        <ele>1502.67</ele>
        <time>2013-07-21T12:21:50Z</time>
      </trkpt>
      <trkpt lat="45.28087" lon="6.02495">
        <ele>1501.83</ele>
        <time>2013-07-21T12:22:00Z</time>
      </trkpt>
      <trkpt lat="45.28068" lon="6.02488">
        <ele>1505.34</ele>
        <time>2013-07-21T12:22:10Z</time>
      </trkpt>
      <trkpt lat="45.28049" lon="6.02481">
        <ele>1501.24</ele>
        <time>2013-07-21T12:22:19Z</time>
      </trkpt>
      <trkpt lat="45.28032" lon="6.02469">
        <ele>1499.24</ele>
        <time>2013-07-21T12:22:28Z</time>
      </trkpt>
      <trkpt lat="45.28015" lon="6.02456">
        <ele>1502.39</ele>
        <time>2013-07-21T12:22:37Z</time>
      </trkpt>
      <trkpt lat="45.27999" lon="6.02443">
        <ele>1503.31</ele>
        <time>2013-07-21T12:22:46Z</time>
      </trkpt>
      <trkpt lat="45.27982" lon="6.02429">
        <ele>1504.02</ele>
        <time>2013-07-21T12:22:56Z</time>
      </trkpt>
      <trkpt lat="45.27961" lon="6.02426">
        <ele>1509.81</ele>
        <time>2013-07-21T12:23:06Z</time>
      </trkpt>
      <trkpt lat="45.27941" lon="6.02429">
        <ele>1518.77</ele>
        <time>2013-07-21T12:23:15Z</time>
      </trkpt>
      <trkpt lat="45.27923" lon="6.02434">
        <ele>1522.32</ele>
        <time>2013-07-21T12:23:23Z</time>
      </trkpt>
      <trkpt lat="45.27903" lon="6.02432">
        <ele>1521.36</ele>
        <time>2013-07-21T12:23:34Z</time>
      </trkpt>
      <trkpt lat="45.27885" lon="6.02419">
        <ele>1513.53</ele>
        <time>2013-07-21T12:23:43Z</time>
      </trkpt>
      <trkpt lat="45.27862" lon="6.02416">
        <ele>1514.22</ele>
        <time>2013-07-21T12:23:49Z</time>
      </trkpt>
      <trkpt lat="45.27842" lon="6.02424">
        <ele>1513.26</ele>
        <time>2013-07-21T12:23:53Z</time>
      </trkpt>
      <trkpt lat="45.27823" lon="6.0243">
        <ele>1508.71</ele>
        <time>2013-07-21T12:23:58Z</time>
      </trkpt>
      <trkpt lat="45.27819" lon="6.024">
        <ele>1503.5</ele>
        <time>2013-07-21T12:24:03Z</time>
      </trkpt>
      <trkpt lat="45.2782" lon="6.02373">
        <ele>1505.7</ele>
        <time>2013-07-21T12:24:09Z</time>
      </trkpt>
      <trkpt lat="45.27822" lon="6.02348">
        <ele>1506.68</ele>
        <time>2013-07-21T12:24:17Z</time>
      </trkpt>
      <trkpt lat="45.27817" lon="6.02315">
        <ele>1508.32</ele>
        <time>2013-07-21T12:24:22Z</time>
      </trkpt>
      <trkpt lat="45.27811" lon="6.02285">
        <ele>1504.63</ele>
        <time>2013-07-21T12:24:25Z</time>
      </trkpt>
      <trkpt lat="45.27803" lon="6.02256">
        <ele>1500.62</ele>
        <time>2013-07-21T12:24:28Z</time>
      </trkpt>
      <trkpt lat="45.27796" lon="6.02225">
        <ele>1497.19</ele>
        <time>2013-07-21T12:24:31Z</time>
      </trkpt>
      <trkpt lat="45.27796" lon="6.02195">
        <ele>1494.77</ele>
        <time>2013-07-21T12:24:34Z</time>
      </trkpt>
      <trkpt lat="45.27796" lon="6.02163">
        <ele>1492.08</ele>
        <time>2013-07-21T12:24:37Z</time>
      </trkpt>
      <trkpt lat="45.27791" lon="6.02132">
        <ele>1490.81</ele>
        <time>2013-07-21T12:24:40Z</time>
      </trkpt>
      <trkpt lat="45.27781" lon="6.02107">
        <ele>1492.05</ele>
        <time>2013-07-21T12:24:43Z</time>
      </trkpt>
      <trkpt lat="45.27769" lon="6.02083">
        <ele>1491.35</ele>
        <time>2013-07-21T12:24:47Z</time>
      </trkpt>
      <trkpt lat="45.27755" lon="6.02061">
        <ele>1493.55</ele>
        <time>2013-07-21T12:24:53Z</time>
      </trkpt>
      <trkpt lat="45.27742" lon="6.02038">
        <ele>1493.44</ele>
        <time>2013-07-21T12:25:00Z</time>
      </trkpt>
      <trkpt lat="45.27732" lon="6.02016">
        <ele>1493.24</ele>
        <time>2013-07-21T12:25:07Z</time>
      </trkpt>
      <trkpt lat="45.27723" lon="6.01991">
        <ele>1492.34</ele>
        <time>2013-07-21T12:25:15Z</time>
      </trkpt>
      <trkpt lat="45.27715" lon="6.01967">
        <ele>1495.42</ele>
        <time>2013-07-21T12:25:23Z</time>
      </trkpt>
      <trkpt lat="45.27706" lon="6.01944">
        <ele>1496.87</ele>
        <time>2013-07-21T12:25:31Z</time>
      </trkpt>
      <trkpt lat="45.27694" lon="6.01921">
        <ele>1498.57</ele>
        <time>2013-07-21T12:25:39Z</time>
      </trkpt>
      <trkpt lat="45.27683" lon="6.01897">
        <ele>1501.02</ele>
        <time>2013-07-21T12:25:48Z</time>
      </trkpt>
      <trkpt lat="45.27672" lon="6.01873">
        <ele>1498.95</ele>
        <time>2013-07-21T12:25:58Z</time>
      </trkpt>
      <trkpt lat="45.27664" lon="6.0185">
        <ele>1498.67</ele>
        <time>2013-07-21T12:26:09Z</time>
      </trkpt>
      <trkpt lat="45.27655" lon="6.01827">
        <ele>1509.6</ele>
        <time>2013-07-21T12:26:41Z</time>
      </trkpt>
      <trkpt lat="45.2765" lon="6.01797">
        <ele>1513.87</ele>
        <time>2013-07-21T12:27:03Z</time>
      </trkpt>
      <trkpt lat="45.2765" lon="6.0177">
        <ele>1513.21</ele>
        <time>2013-07-21T12:27:20Z</time>
      </trkpt>
      <trkpt lat="45.27647" lon="6.01745">
        <ele>1517.31</ele>
        <time>2013-07-21T12:27:41Z</time>
      </trkpt>
      <trkpt lat="45.2764" lon="6.0172">
        <ele>1520.88</ele>
        <time>2013-07-21T12:28:09Z</time>
      </trkpt>
      <trkpt lat="45.27634" lon="6.01695">
        <ele>1515.56</ele>
        <time>2013-07-21T12:28:18Z</time>
      </trkpt>
      <trkpt lat="45.27626" lon="6.01669">
        <ele>1516.52</ele>
        <time>2013-07-21T12:28:28Z</time>
      </trkpt>
      <trkpt lat="45.27612" lon="6.01653">
        <ele>1521.18</ele>
        <time>2013-07-21T12:28:38Z</time>
      </trkpt>
      <trkpt lat="45.27597" lon="6.01669">
        <ele>1525.4</ele>
        <time>2013-07-21T12:28:49Z</time>
      </trkpt>
      <trkpt lat="45.27601" lon="6.01695">
        <ele>1527.69</ele>
        <time>2013-07-21T12:30:19Z</time>
      </trkpt>
      <trkpt lat="45.27582" lon="6.01701">
        <ele>1539.01</ele>
        <time>2013-07-21T12:33:25Z</time>
      </trkpt>
      <trkpt lat="45.27567" lon="6.01715">
        <ele>1541.04</ele>
        <time>2013-07-21T12:33:37Z</time>
      </trkpt>
      <trkpt lat="45.27556" lon="6.01735">
        <ele>1544.89</ele>
        <time>2013-07-21T12:33:50Z</time>
      </trkpt>
      <trkpt lat="45.27545" lon="6.01759">
        <ele>1547.29</ele>
        <time>2013-07-21T12:34:01Z</time>
      </trkpt>
      <trkpt lat="45.27536" lon="6.01782">
        <ele>1544.89</ele>
        <time>2013-07-21T12:34:10Z</time>
      </trkpt>
      <trkpt lat="45.27524" lon="6.01804">
        <ele>1545.5</ele>
        <time>2013-07-21T12:34:22Z</time>
      </trkpt>
      <trkpt lat="45.27509" lon="6.01821">
        <ele>1544.65</ele>
        <time>2013-07-21T12:34:33Z</time>
      </trkpt>
      <trkpt lat="45.27495" lon="6.0184">
        <ele>1545.8</ele>
        <time>2013-07-21T12:34:44Z</time>
      </trkpt>
      <trkpt lat="45.27482" lon="6.0186">
        <ele>1545.86</ele>
        <time>2013-07-21T12:34:55Z</time>
      </trkpt>
      <trkpt lat="45.27469" lon="6.0188">
        <ele>1547.7</ele>
        <time>2013-07-21T12:35:05Z</time>
      </trkpt>
      <trkpt lat="45.27457" lon="6.01901">
        <ele>1551.61</ele>
        <time>2013-07-21T12:35:15Z</time>
      </trkpt>
      <trkpt lat="45.27447" lon="6.01923">
        <ele>1553.51</ele>
        <time>2013-07-21T12:35:25Z</time>
      </trkpt>
      <trkpt lat="45.27436" lon="6.01945">
        <ele>1560.8</ele>
        <time>2013-07-21T12:35:36Z</time>
      </trkpt>
      <trkpt lat="45.27424" lon="6.01965">
        <ele>1562.53</ele>
        <time>2013-07-21T12:35:47Z</time>
      </trkpt>
      <trkpt lat="45.27414" lon="6.01989">
        <ele>1564.67</ele>
        <time>2013-07-21T12:35:59Z</time>
      </trkpt>
      <trkpt lat="45.27405" lon="6.02013">
        <ele>1563.85</ele>
        <time>2013-07-21T12:36:09Z</time>
      </trkpt>
      <trkpt lat="45.27395" lon="6.02037">
        <ele>1564.16</ele>
        <time>2013-07-21T12:36:20Z</time>
      </trkpt>
      <trkpt lat="45.27385" lon="6.02059">
        <ele>1559.59</ele>
        <time>2013-07-21T12:36:29Z</time>
      </trkpt>
      <trkpt lat="45.27373" lon="6.02078">
        <ele>1559</ele>
        <time>2013-07-21T12:36:39Z</time>
      </trkpt>
      <trkpt lat="45.27358" lon="6.02096">
        <ele>1562.61</ele>
        <time>2013-07-21T12:36:49Z</time>
      </trkpt>
      <trkpt lat="45.27343" lon="6.02111">
        <ele>1567.64</ele>
        <time>2013-07-21T12:36:58Z</time>
      </trkpt>
      <trkpt lat="45.27327" lon="6.02128">
        <ele>1571.76</ele>
        <time>2013-07-21T12:37:08Z</time>
      </trkpt>
      <trkpt lat="45.27311" lon="6.02142">
        <ele>1571.55</ele>
        <time>2013-07-21T12:37:15Z</time>
      </trkpt>
      <trkpt lat="45.27292" lon="6.02156">
        <ele>1569.5</ele>
        <time>2013-07-21T12:37:20Z</time>
      </trkpt>
      <trkpt lat="45.27274" lon="6.02161">
        <ele>1571.25</ele>
        <time>2013-07-21T12:37:23Z</time>
      </trkpt>
      <trkpt lat="45.27255" lon="6.02164">
        <ele>1575.39</ele>
        <time>2013-07-21T12:37:28Z</time>
      </trkpt>
      <trkpt lat="45.27237" lon="6.02157">
        <ele>1576.38</ele>
        <time>2013-07-21T12:37:33Z</time>
      </trkpt>
      <trkpt lat="45.27215" lon="6.02154">
        <ele>1570.64</ele>
        <time>2013-07-21T12:37:37Z</time>
      </trkpt>
      <trkpt lat="45.27195" lon="6.02147">
        <ele>1569.62</ele>
        <time>2013-07-21T12:37:42Z</time>
      </trkpt>
      <trkpt lat="45.27176" lon="6.02142">
        <ele>1572.43</ele>
        <time>2013-07-21T12:37:50Z</time>
      </trkpt>
      <trkpt lat="45.27158" lon="6.02137">
        <ele>1583.35</ele>
        <time>2013-07-21T12:38:00Z</time>
      </trkpt>
      <trkpt lat="45.27141" lon="6.02123">
        <ele>1576.34</ele>
        <time>2013-07-21T12:38:10Z</time>
      </trkpt>
      <trkpt lat="45.27127" lon="6.02107">
        <ele>1559.15</ele>
        <time>2013-07-21T12:38:19Z</time>
      </trkpt>
      <trkpt lat="45.27115" lon="6.02085">
        <ele>1557.07</ele>
        <time>2013-07-21T12:38:29Z</time>
      </trkpt>
      <trkpt lat="45.27105" lon="6.02063">
        <ele>1556.73</ele>
        <time>2013-07-21T12:38:40Z</time>
      </trkpt>
      <trkpt lat="45.27095" lon="6.02041">
        <ele>1560.65</ele>
        <time>2013-07-21T12:38:50Z</time>
      </trkpt>
      <trkpt lat="45.27088" lon="6.02015">
        <ele>1560.55</ele>
        <time>2013-07-21T12:39:00Z</time>
      </trkpt>
      <trkpt lat="45.27079" lon="6.01991">
        <ele>1560.21</ele>
        <time>2013-07-21T12:39:11Z</time>
      </trkpt>
      <trkpt lat="45.27069" lon="6.0197">
        <ele>1565.14</ele>
        <time>2013-07-21T12:39:20Z</time>
      </trkpt>
      <trkpt lat="45.27057" lon="6.01948">
        <ele>1563.94</ele>
        <time>2013-07-21T12:39:31Z</time>
      </trkpt>
      <trkpt lat="45.27049" lon="6.01923">
        <ele>1564.56</ele>
        <time>2013-07-21T12:39:41Z</time>
      </trkpt>
      <trkpt lat="45.27041" lon="6.01899">
        <ele>1563.64</ele>
        <time>2013-07-21T12:39:51Z</time>
      </trkpt>
      <trkpt lat="45.27032" lon="6.01874">
        <ele>1564.96</ele>
        <time>2013-07-21T12:40:01Z</time>
      </trkpt>
      <trkpt lat="45.27023" lon="6.01849">
        <ele>1567.22</ele>
        <time>2013-07-21T12:40:12Z</time>
      </trkpt>
      <trkpt lat="45.27022" lon="6.01823">
        <ele>1574.26</ele>
        <time>2013-07-21T12:41:49Z</time>
      </trkpt>
      <trkpt lat="45.27016" lon="6.01796">
        <ele>1567.41</ele>
        <time>2013-07-21T12:41:59Z</time>
      </trkpt>
      <trkpt lat="45.27013" lon="6.0177">
        <ele>1564.83</ele>
        <time>2013-07-21T12:42:09Z</time>
      </trkpt>
      <trkpt lat="45.27012" lon="6.01742">
        <ele>1568.07</ele>
        <time>2013-07-21T12:42:20Z</time>
      </trkpt>
      <trkpt lat="45.27017" lon="6.01714">
        <ele>1570.62</ele>
        <time>2013-07-21T12:42:31Z</time>
      </trkpt>
      <trkpt lat="45.27024" lon="6.0169">
        <ele>1569.13</ele>
        <time>2013-07-21T12:42:41Z</time>
      </trkpt>
      <trkpt lat="45.27032" lon="6.01665">
        <ele>1573.85</ele>
        <time>2013-07-21T12:42:50Z</time>
      </trkpt>
      <trkpt lat="45.27038" lon="6.01641">
        <ele>1580.03</ele>
        <time>2013-07-21T12:43:01Z</time>
      </trkpt>
      <trkpt lat="45.27042" lon="6.01615">
        <ele>1583.59</ele>
        <time>2013-07-21T12:43:12Z</time>
      </trkpt>
      <trkpt lat="45.27039" lon="6.01588">
        <ele>1587.92</ele>
        <time>2013-07-21T12:43:24Z</time>
      </trkpt>
      <trkpt lat="45.27021" lon="6.0158">
        <ele>1591.17</ele>
        <time>2013-07-21T12:43:34Z</time>
      </trkpt>
      <trkpt lat="45.27002" lon="6.01579">
        <ele>1595.86</ele>
        <time>2013-07-21T12:43:43Z</time>
      </trkpt>
      <trkpt lat="45.26982" lon="6.01575">
        <ele>1602.73</ele>
        <time>2013-07-21T12:43:52Z</time>
      </trkpt>
      <trkpt lat="45.26961" lon="6.01565">
        <ele>1600.74</ele>
        <time>2013-07-21T12:43:56Z</time>
      </trkpt>
      <trkpt lat="45.26939" lon="6.01554">
        <ele>1600.24</ele>
        <time>2013-07-21T12:43:59Z</time>
      </trkpt>
      <trkpt lat="45.26917" lon="6.01541">
        <ele>1600.13</ele>
        <time>2013-07-21T12:44:02Z</time>
      </trkpt>
      <trkpt lat="45.26896" lon="6.01524">
        <ele>1595.03</ele>
        <time>2013-07-21T12:44:05Z</time>
      </trkpt>
      <trkpt lat="45.2688" lon="6.01509">
        <ele>1590.71</ele>
        <time>2013-07-21T12:44:07Z</time>
      </trkpt>
      <trkpt lat="45.26865" lon="6.01492">
        <ele>1586.35</ele>
        <time>2013-07-21T12:44:09Z</time>
      </trkpt>
      <trkpt lat="45.26848" lon="6.01476">
        <ele>1582.39</ele>
        <time>2013-07-21T12:44:11Z</time>
      </trkpt>
      <trkpt lat="45.2683" lon="6.01463">
        <ele>1580.85</ele>
        <time>2013-07-21T12:44:13Z</time>
      </trkpt>
      <trkpt lat="45.26811" lon="6.01454">
        <ele>1579.3</ele>
        <time>2013-07-21T12:44:15Z</time>
      </trkpt>
      <trkpt lat="45.26791" lon="6.01448">
        <ele>1578.93</ele>
        <time>2013-07-21T12:44:17Z</time>
      </trkpt>
      <trkpt lat="45.26771" lon="6.01445">
        <ele>1579.41</ele>
        <time>2013-07-21T12:44:19Z</time>
      </trkpt>
      <trkpt lat="45.26751" lon="6.01445">
        <ele>1580.93</ele>
        <time>2013-07-21T12:44:21Z</time>
      </trkpt>
      <trkpt lat="45.26729" lon="6.01448">
        <ele>1581.97</ele>
        <time>2013-07-21T12:44:23Z</time>
      </trkpt>
      <trkpt lat="45.2671" lon="6.01456">
        <ele>1583.05</ele>
        <time>2013-07-21T12:44:25Z</time>
      </trkpt>
      <trkpt lat="45.26689" lon="6.01466">
        <ele>1582.98</ele>
        <time>2013-07-21T12:44:27Z</time>
      </trkpt>
      <trkpt lat="45.26667" lon="6.01479">
        <ele>1580.56</ele>
        <time>2013-07-21T12:44:29Z</time>
      </trkpt>
      <trkpt lat="45.26645" lon="6.01491">
        <ele>1575.57</ele>
        <time>2013-07-21T12:44:31Z</time>
      </trkpt>
      <trkpt lat="45.26623" lon="6.015">
        <ele>1571.52</ele>
        <time>2013-07-21T12:44:33Z</time>
      </trkpt>
      <trkpt lat="45.26602" lon="6.01508">
        <ele>1568.8</ele>
        <time>2013-07-21T12:44:35Z</time>
      </trkpt>
      <trkpt lat="45.26583" lon="6.01512">
        <ele>1566.4</ele>
        <time>2013-07-21T12:44:37Z</time>
      </trkpt>
      <trkpt lat="45.26559" lon="6.01509">
        <ele>1563.93</ele>
        <time>2013-07-21T12:44:40Z</time>
      </trkpt>
      <trkpt lat="45.26542" lon="6.015">
        <ele>1562.78</ele>
        <time>2013-07-21T12:44:42Z</time>
      </trkpt>
      <trkpt lat="45.26519" lon="6.01486">
        <ele>1561.24</ele>
        <time>2013-07-21T12:44:45Z</time>
      </trkpt>
      <trkpt lat="45.26497" lon="6.01482">
        <ele>1560.45</ele>
        <time>2013-07-21T12:44:48Z</time>
      </trkpt>
      <trkpt lat="45.26478" lon="6.01487">
        <ele>1559.54</ele>
        <time>2013-07-21T12:44:51Z</time>
      </trkpt>
      <trkpt lat="45.26456" lon="6.015">
        <ele>1559.92</ele>
        <time>2013-07-21T12:44:55Z</time>
      </trkpt>
      <trkpt lat="45.2644" lon="6.01518">
        <ele>1559.75</ele>
        <time>2013-07-21T12:44:59Z</time>
      </trkpt>
      <trkpt lat="45.26428" lon="6.01538">
        <ele>1559.15</ele>
        <time>2013-07-21T12:45:03Z</time>
      </trkpt>
      <trkpt lat="45.26412" lon="6.01564">
        <ele>1559.07</ele>
        <time>2013-07-21T12:45:07Z</time>
      </trkpt>
      <trkpt lat="45.26399" lon="6.01586">
        <ele>1558.38</ele>
        <time>2013-07-21T12:45:10Z</time>
      </trkpt>
      <trkpt lat="45.26373" lon="6.01587">
        <ele>1561.19</ele>
        <time>2013-07-21T12:45:14Z</time>
      </trkpt>
      <trkpt lat="45.26353" lon="6.01592">
        <ele>1563.54</ele>
        <time>2013-07-21T12:45:17Z</time>
      </trkpt>
      <trkpt lat="45.2633" lon="6.01608">
        <ele>1563.26</ele>
        <time>2013-07-21T12:45:21Z</time>
      </trkpt>
      <trkpt lat="45.26306" lon="6.01626">
        <ele>1563.1</ele>
        <time>2013-07-21T12:45:24Z</time>
      </trkpt>
      <trkpt lat="45.26289" lon="6.01638">
        <ele>1564.63</ele>
        <time>2013-07-21T12:45:26Z</time>
      </trkpt>
      <trkpt lat="45.2627" lon="6.01643">
        <ele>1567.42</ele>
        <time>2013-07-21T12:45:28Z</time>
      </trkpt>
      <trkpt lat="45.2625" lon="6.01647">
        <ele>1570.75</ele>
        <time>2013-07-21T12:45:30Z</time>
      </trkpt>
      <trkpt lat="45.26229" lon="6.01644">
        <ele>1571.93</ele>
        <time>2013-07-21T12:45:34Z</time>
      </trkpt>
      <trkpt lat="45.26206" lon="6.01629">
        <ele>1569.76</ele>
        <time>2013-07-21T12:45:39Z</time>
      </trkpt>
      <trkpt lat="45.26191" lon="6.01606">
        <ele>1557.24</ele>
        <time>2013-07-21T12:45:42Z</time>
      </trkpt>
      <trkpt lat="45.26182" lon="6.01582">
        <ele>1549.39</ele>
        <time>2013-07-21T12:45:44Z</time>
      </trkpt>
      <trkpt lat="45.26174" lon="6.01555">
        <ele>1543.23</ele>
        <time>2013-07-21T12:45:46Z</time>
      </trkpt>
      <trkpt lat="45.26165" lon="6.01527">
        <ele>1539.14</ele>
        <time>2013-07-21T12:45:48Z</time>
      </trkpt>
      <trkpt lat="45.26158" lon="6.01503">
        <ele>1536.84</ele>
        <time>2013-07-21T12:45:50Z</time>
      </trkpt>
      <trkpt lat="45.26155" lon="6.01467">
        <ele>1533.86</ele>
        <time>2013-07-21T12:45:53Z</time>
      </trkpt>
      <trkpt lat="45.2616" lon="6.01441">
        <ele>1532.93</ele>
        <time>2013-07-21T12:45:55Z</time>
      </trkpt>
      <trkpt lat="45.26167" lon="6.01407">
        <ele>1530.76</ele>
        <time>2013-07-21T12:45:58Z</time>
      </trkpt>
      <trkpt lat="45.26159" lon="6.01378">
        <ele>1528.66</ele>
        <time>2013-07-21T12:46:01Z</time>
      </trkpt>
      <trkpt lat="45.26142" lon="6.01357">
        <ele>1526.22</ele>
        <time>2013-07-21T12:46:04Z</time>
      </trkpt>
      <trkpt lat="45.26122" lon="6.01336">
        <ele>1525.88</ele>
        <time>2013-07-21T12:46:07Z</time>
      </trkpt>
      <trkpt lat="45.26107" lon="6.01321">
        <ele>1525.38</ele>
        <time>2013-07-21T12:46:09Z</time>
      </trkpt>
      <trkpt lat="45.26091" lon="6.01306">
        <ele>1525.41</ele>
        <time>2013-07-21T12:46:11Z</time>
      </trkpt>
      <trkpt lat="45.26068" lon="6.0129">
        <ele>1525.6</ele>
        <time>2013-07-21T12:46:14Z</time>
      </trkpt>
      <trkpt lat="45.26051" lon="6.01281">
        <ele>1525.66</ele>
        <time>2013-07-21T12:46:16Z</time>
      </trkpt>
      <trkpt lat="45.26038" lon="6.01257">
        <ele>1523.68</ele>
        <time>2013-07-21T12:46:19Z</time>
      </trkpt>
      <trkpt lat="45.26031" lon="6.01221">
        <ele>1519.28</ele>
        <time>2013-07-21T12:46:22Z</time>
      </trkpt>
      <trkpt lat="45.26026" lon="6.01194">
        <ele>1515.79</ele>
        <time>2013-07-21T12:46:24Z</time>
      </trkpt>
      <trkpt lat="45.26017" lon="6.01161">
        <ele>1513.12</ele>
        <time>2013-07-21T12:46:27Z</time>
      </trkpt>
      <trkpt lat="45.26007" lon="6.01139">
        <ele>1513.64</ele>
        <time>2013-07-21T12:46:31Z</time>
      </trkpt>
      <trkpt lat="45.2599" lon="6.01123">
        <ele>1515.74</ele>
        <time>2013-07-21T12:46:41Z</time>
      </trkpt>
      <trkpt lat="45.25972" lon="6.01114">
        <ele>1519.48</ele>
        <time>2013-07-21T12:46:54Z</time>
      </trkpt>
      <trkpt lat="45.25953" lon="6.01111">
        <ele>1520.06</ele>
        <time>2013-07-21T12:47:16Z</time>
      </trkpt>
      <trkpt lat="45.25935" lon="6.01109">
        <ele>1523.4</ele>
        <time>2013-07-21T12:47:33Z</time>
      </trkpt>
      <trkpt lat="45.25917" lon="6.01102">
        <ele>1531.94</ele>
        <time>2013-07-21T12:47:53Z</time>
      </trkpt>
      <trkpt lat="45.25899" lon="6.01101">
        <ele>1530.46</ele>
        <time>2013-07-21T12:48:14Z</time>
      </trkpt>
      <trkpt lat="45.25881" lon="6.01105">
        <ele>1544.93</ele>
        <time>2013-07-21T12:48:36Z</time>
      </trkpt>
      <trkpt lat="45.25863" lon="6.01119">
        <ele>1537.89</ele>
        <time>2013-07-21T12:48:58Z</time>
      </trkpt>
      <trkpt lat="45.25847" lon="6.01134">
        <ele>1540.2</ele>
        <time>2013-07-21T12:49:08Z</time>
      </trkpt>
      <trkpt lat="45.25832" lon="6.01149">
        <ele>1541.83</ele>
        <time>2013-07-21T12:49:16Z</time>
      </trkpt>
      <trkpt lat="45.25815" lon="6.01159">
        <ele>1545.29</ele>
        <time>2013-07-21T12:49:22Z</time>
      </trkpt>
      <trkpt lat="45.25796" lon="6.01165">
        <ele>1550.68</ele>
        <time>2013-07-21T12:49:30Z</time>
      </trkpt>
      <trkpt lat="45.25778" lon="6.01168">
        <ele>1560.25</ele>
        <time>2013-07-21T12:49:40Z</time>
      </trkpt>
      <trkpt lat="45.25761" lon="6.0118">
        <ele>1557.4</ele>
        <time>2013-07-21T12:49:49Z</time>
      </trkpt>
      <trkpt lat="45.25745" lon="6.01194">
        <ele>1557.27</ele>
        <time>2013-07-21T12:49:59Z</time>
      </trkpt>
      <trkpt lat="45.25728" lon="6.01209">
        <ele>1555.76</ele>
        <time>2013-07-21T12:50:08Z</time>
      </trkpt>
      <trkpt lat="45.25713" lon="6.01225">
        <ele>1556.49</ele>
        <time>2013-07-21T12:50:18Z</time>
      </trkpt>
      <trkpt lat="45.25707" lon="6.01249">
        <ele>1549.28</ele>
        <time>2013-07-21T12:50:27Z</time>
      </trkpt>
      <trkpt lat="45.2571" lon="6.01276">
        <ele>1549.44</ele>
        <time>2013-07-21T12:50:34Z</time>
      </trkpt>
      <trkpt lat="45.25706" lon="6.01305">
        <ele>1558.71</ele>
        <time>2013-07-21T12:50:46Z</time>
      </trkpt>
      <trkpt lat="45.25705" lon="6.01331">
        <ele>1555.45</ele>
        <time>2013-07-21T12:50:53Z</time>
      </trkpt>
      <trkpt lat="45.25704" lon="6.01357">
        <ele>1554.68</ele>
        <time>2013-07-21T12:51:03Z</time>
      </trkpt>
      <trkpt lat="45.25698" lon="6.01382">
        <ele>1563.3</ele>
        <time>2013-07-21T12:51:16Z</time>
      </trkpt>
      <trkpt lat="45.25687" lon="6.01404">
        <ele>1567.61</ele>
        <time>2013-07-21T12:51:27Z</time>
      </trkpt>
      <trkpt lat="45.25677" lon="6.01426">
        <ele>1574.86</ele>
        <time>2013-07-21T12:51:38Z</time>
      </trkpt>
      <trkpt lat="45.25664" lon="6.01445">
        <ele>1577.23</ele>
        <time>2013-07-21T12:51:48Z</time>
      </trkpt>
      <trkpt lat="45.2565" lon="6.01465">
        <ele>1571.86</ele>
        <time>2013-07-21T12:51:58Z</time>
      </trkpt>
      <trkpt lat="45.25632" lon="6.01477">
        <ele>1569.59</ele>
        <time>2013-07-21T12:52:06Z</time>
      </trkpt>
      <trkpt lat="45.25614" lon="6.01487">
        <ele>1570.02</ele>
        <time>2013-07-21T12:52:16Z</time>
      </trkpt>
      <trkpt lat="45.25595" lon="6.01491">
        <ele>1572.64</ele>
        <time>2013-07-21T12:52:25Z</time>
      </trkpt>
      <trkpt lat="45.25578" lon="6.01502">
        <ele>1568.82</ele>
        <time>2013-07-21T12:52:32Z</time>
      </trkpt>
      <trkpt lat="45.25562" lon="6.01516">
        <ele>1567.92</ele>
        <time>2013-07-21T12:52:40Z</time>
      </trkpt>
      <trkpt lat="45.25547" lon="6.01532">
        <ele>1570.82</ele>
        <time>2013-07-21T12:52:49Z</time>
      </trkpt>
      <trkpt lat="45.25533" lon="6.01552">
        <ele>1573.04</ele>
        <time>2013-07-21T12:52:59Z</time>
      </trkpt>
      <trkpt lat="45.25516" lon="6.01564">
        <ele>1569.86</ele>
        <time>2013-07-21T12:53:08Z</time>
      </trkpt>
      <trkpt lat="45.25498" lon="6.01566">
        <ele>1573.57</ele>
        <time>2013-07-21T12:53:17Z</time>
      </trkpt>
      <trkpt lat="45.2548" lon="6.01554">
        <ele>1571.9</ele>
        <time>2013-07-21T12:53:38Z</time>
      </trkpt>
      <trkpt lat="45.25463" lon="6.01537">
        <ele>1571.71</ele>
        <time>2013-07-21T12:53:44Z</time>
      </trkpt>
      <trkpt lat="45.25443" lon="6.01524">
        <ele>1570.02</ele>
        <time>2013-07-21T12:53:48Z</time>
      </trkpt>
      <trkpt lat="45.25423" lon="6.01508">
        <ele>1567.99</ele>
        <time>2013-07-21T12:53:51Z</time>
      </trkpt>
      <trkpt lat="45.25407" lon="6.01492">
        <ele>1565.5</ele>
        <time>2013-07-21T12:53:53Z</time>
      </trkpt>
      <trkpt lat="45.25391" lon="6.01475">
        <ele>1562.98</ele>
        <time>2013-07-21T12:53:55Z</time>
      </trkpt>
      <trkpt lat="45.25373" lon="6.01448">
        <ele>1558.76</ele>
        <time>2013-07-21T12:53:58Z</time>
      </trkpt>
      <trkpt lat="45.25364" lon="6.01423">
        <ele>1555.94</ele>
        <time>2013-07-21T12:54:00Z</time>
      </trkpt>
      <trkpt lat="45.25355" lon="6.01396">
        <ele>1553.47</ele>
        <time>2013-07-21T12:54:02Z</time>
      </trkpt>
      <trkpt lat="45.25344" lon="6.0137">
        <ele>1551.21</ele>
        <time>2013-07-21T12:54:04Z</time>
      </trkpt>
      <trkpt lat="45.25329" lon="6.01347">
        <ele>1549.07</ele>
        <time>2013-07-21T12:54:06Z</time>
      </trkpt>
      <trkpt lat="45.2531" lon="6.01327">
        <ele>1546.73</ele>
        <time>2013-07-21T12:54:08Z</time>
      </trkpt>
      <trkpt lat="45.25295" lon="6.0131">
        <ele>1545.05</ele>
        <time>2013-07-21T12:54:10Z</time>
      </trkpt>
      <trkpt lat="45.25279" lon="6.01294">
        <ele>1543.66</ele>
        <time>2013-07-21T12:54:12Z</time>
      </trkpt>
      <trkpt lat="45.25259" lon="6.01272">
        <ele>1540.93</ele>
        <time>2013-07-21T12:54:15Z</time>
      </trkpt>
      <trkpt lat="45.25244" lon="6.01255">
        <ele>1538.91</ele>
        <time>2013-07-21T12:54:17Z</time>
      </trkpt>
      <trkpt lat="45.25225" lon="6.01233">
        <ele>1536.33</ele>
        <time>2013-07-21T12:54:20Z</time>
      </trkpt>
      <trkpt lat="45.25209" lon="6.01207">
        <ele>1531.8</ele>
        <time>2013-07-21T12:54:23Z</time>
      </trkpt>
      <trkpt lat="45.25199" lon="6.01184">
        <ele>1528.71</ele>
        <time>2013-07-21T12:54:25Z</time>
      </trkpt>
      <trkpt lat="45.25189" lon="6.01161">
        <ele>1525.66</ele>
        <time>2013-07-21T12:54:27Z</time>
      </trkpt>
      <trkpt lat="45.25178" lon="6.01136">
        <ele>1523.07</ele>
        <time>2013-07-21T12:54:29Z</time>
      </trkpt>
      <trkpt lat="45.25168" lon="6.01108">
        <ele>1520.11</ele>
        <time>2013-07-21T12:54:31Z</time>
      </trkpt>
      <trkpt lat="45.25163" lon="6.01079">
        <ele>1517.57</ele>
        <time>2013-07-21T12:54:33Z</time>
      </trkpt>
      <trkpt lat="45.25161" lon="6.01046">
        <ele>1515.46</ele>
        <time>2013-07-21T12:54:35Z</time>
      </trkpt>
      <trkpt lat="45.25159" lon="6.01011">
        <ele>1512.27</ele>
        <time>2013-07-21T12:54:37Z</time>
      </trkpt>
      <trkpt lat="45.25156" lon="6.00977">
        <ele>1509.03</ele>
        <time>2013-07-21T12:54:39Z</time>
      </trkpt>
      <trkpt lat="45.25155" lon="6.00944">
        <ele>1504.79</ele>
        <time>2013-07-21T12:54:42Z</time>
      </trkpt>
      <trkpt lat="45.2516" lon="6.00919">
        <ele>1501.7</ele>
        <time>2013-07-21T12:54:45Z</time>
      </trkpt>
      <trkpt lat="45.2517" lon="6.00896">
        <ele>1498.8</ele>
        <time>2013-07-21T12:54:48Z</time>
      </trkpt>
      <trkpt lat="45.25183" lon="6.0087">
        <ele>1495.02</ele>
        <time>2013-07-21T12:54:51Z</time>
      </trkpt>
      <trkpt lat="45.252" lon="6.00844">
        <ele>1490.67</ele>
        <time>2013-07-21T12:54:55Z</time>
      </trkpt>
      <trkpt lat="45.25213" lon="6.00823">
        <ele>1486.39</ele>
        <time>2013-07-21T12:54:58Z</time>
      </trkpt>
      <trkpt lat="45.25225" lon="6.00802">
        <ele>1481.58</ele>
        <time>2013-07-21T12:55:01Z</time>
      </trkpt>
      <trkpt lat="45.25237" lon="6.00771">
        <ele>1477.59</ele>
        <time>2013-07-21T12:55:04Z</time>
      </trkpt>
      <trkpt lat="45.25248" lon="6.00741">
        <ele>1475.01</ele>
        <time>2013-07-21T12:55:07Z</time>
      </trkpt>
      <trkpt lat="45.25266" lon="6.00716">
        <ele>1473.2</ele>
        <time>2013-07-21T12:55:10Z</time>
      </trkpt>
      <trkpt lat="45.25285" lon="6.00693">
        <ele>1471.17</ele>
        <time>2013-07-21T12:55:13Z</time>
      </trkpt>
      <trkpt lat="45.253" lon="6.00676">
        <ele>1470.17</ele>
        <time>2013-07-21T12:55:15Z</time>
      </trkpt>
      <trkpt lat="45.25322" lon="6.00655">
        <ele>1468.84</ele>
        <time>2013-07-21T12:55:18Z</time>
      </trkpt>
      <trkpt lat="45.25337" lon="6.00641">
        <ele>1467.73</ele>
        <time>2013-07-21T12:55:20Z</time>
      </trkpt>
      <trkpt lat="45.25353" lon="6.00626">
        <ele>1467.11</ele>
        <time>2013-07-21T12:55:22Z</time>
      </trkpt>
      <trkpt lat="45.25371" lon="6.0061">
        <ele>1466.82</ele>
        <time>2013-07-21T12:55:24Z</time>
      </trkpt>
      <trkpt lat="45.25391" lon="6.0059">
        <ele>1465.59</ele>
        <time>2013-07-21T12:55:27Z</time>
      </trkpt>
      <trkpt lat="45.25413" lon="6.00566">
        <ele>1464.16</ele>
        <time>2013-07-21T12:55:30Z</time>
      </trkpt>
      <trkpt lat="45.25428" lon="6.00548">
        <ele>1462.66</ele>
        <time>2013-07-21T12:55:32Z</time>
      </trkpt>
      <trkpt lat="45.25443" lon="6.00527">
        <ele>1460.76</ele>
        <time>2013-07-21T12:55:34Z</time>
      </trkpt>
      <trkpt lat="45.25459" lon="6.00502">
        <ele>1458.12</ele>
        <time>2013-07-21T12:55:36Z</time>
      </trkpt>
      <trkpt lat="45.25474" lon="6.00476">
        <ele>1455.33</ele>
        <time>2013-07-21T12:55:38Z</time>
      </trkpt>
      <trkpt lat="45.25484" lon="6.00454">
        <ele>1452.51</ele>
        <time>2013-07-21T12:55:40Z</time>
      </trkpt>
      <trkpt lat="45.25493" lon="6.0043">
        <ele>1449.79</ele>
        <time>2013-07-21T12:55:42Z</time>
      </trkpt>
      <trkpt lat="45.25502" lon="6.00403">
        <ele>1446.71</ele>
        <time>2013-07-21T12:55:44Z</time>
      </trkpt>
      <trkpt lat="45.25512" lon="6.00374">
        <ele>1443.22</ele>
        <time>2013-07-21T12:55:46Z</time>
      </trkpt>
      <trkpt lat="45.25517" lon="6.00346">
        <ele>1439.51</ele>
        <time>2013-07-21T12:55:48Z</time>
      </trkpt>
      <trkpt lat="45.25523" lon="6.00318">
        <ele>1435.92</ele>
        <time>2013-07-21T12:55:50Z</time>
      </trkpt>
      <trkpt lat="45.25529" lon="6.00291">
        <ele>1432.59</ele>
        <time>2013-07-21T12:55:52Z</time>
      </trkpt>
      <trkpt lat="45.25537" lon="6.0026">
        <ele>1428.02</ele>
        <time>2013-07-21T12:55:55Z</time>
      </trkpt>
      <trkpt lat="45.25547" lon="6.00232">
        <ele>1424.17</ele>
        <time>2013-07-21T12:55:58Z</time>
      </trkpt>
      <trkpt lat="45.25558" lon="6.00206">
        <ele>1417.44</ele>
        <time>2013-07-21T12:56:03Z</time>
      </trkpt>
      <trkpt lat="45.25569" lon="6.00183">
        <ele>1412.45</ele>
        <time>2013-07-21T12:56:08Z</time>
      </trkpt>
      <trkpt lat="45.25577" lon="6.00154">
        <ele>1409.57</ele>
        <time>2013-07-21T12:56:12Z</time>
      </trkpt>
      <trkpt lat="45.25582" lon="6.00127">
        <ele>1406.71</ele>
        <time>2013-07-21T12:56:16Z</time>
      </trkpt>
      <trkpt lat="45.2559" lon="6.00096">
        <ele>1401.92</ele>
        <time>2013-07-21T12:56:21Z</time>
      </trkpt>
      <trkpt lat="45.25592" lon="6.00065">
        <ele>1397.57</ele>
        <time>2013-07-21T12:56:26Z</time>
      </trkpt>
      <trkpt lat="45.25593" lon="6.00034">
        <ele>1393.93</ele>
        <time>2013-07-21T12:56:31Z</time>
      </trkpt>
      <trkpt lat="45.25594" lon="6.00008">
        <ele>1390.21</ele>
        <time>2013-07-21T12:56:34Z</time>
      </trkpt>
      <trkpt lat="45.25595" lon="5.9998">
        <ele>1386.44</ele>
        <time>2013-07-21T12:56:37Z</time>
      </trkpt>
      <trkpt lat="45.25597" lon="5.99954">
        <ele>1384.19</ele>
        <time>2013-07-21T12:56:39Z</time>
      </trkpt>
      <trkpt lat="45.25599" lon="5.99929">
        <ele>1380.68</ele>
        <time>2013-07-21T12:56:41Z</time>
      </trkpt>
      <trkpt lat="45.25601" lon="5.99899">
        <ele>1374.79</ele>
        <time>2013-07-21T12:56:44Z</time>
      </trkpt>
      <trkpt lat="45.25602" lon="5.99873">
        <ele>1369.19</ele>
        <time>2013-07-21T12:56:48Z</time>
      </trkpt>
      <trkpt lat="45.25605" lon="5.99848">
        <ele>1364.18</ele>
        <time>2013-07-21T12:56:52Z</time>
      </trkpt>
      <trkpt lat="45.25613" lon="5.99824">
        <ele>1358.62</ele>
        <time>2013-07-21T12:56:58Z</time>
      </trkpt>
      <trkpt lat="45.25613" lon="5.99797">
        <ele>1356.06</ele>
        <time>2013-07-21T12:57:04Z</time>
      </trkpt>
      <trkpt lat="45.25622" lon="5.99768">
        <ele>1351.42</ele>
        <time>2013-07-21T12:57:10Z</time>
      </trkpt>
      <trkpt lat="45.25631" lon="5.99746">
        <ele>1348.67</ele>
        <time>2013-07-21T12:57:14Z</time>
      </trkpt>
      <trkpt lat="45.25633" lon="5.9972">
        <ele>1345.62</ele>
        <time>2013-07-21T12:57:21Z</time>
      </trkpt>
      <trkpt lat="45.25638" lon="5.99694">
        <ele>1341.42</ele>
        <time>2013-07-21T12:59:35Z</time>
      </trkpt>
      <trkpt lat="45.25641" lon="5.99668">
        <ele>1339.65</ele>
        <time>2013-07-21T12:59:43Z</time>
      </trkpt>
      <trkpt lat="45.25641" lon="5.99638">
        <ele>1337.27</ele>
        <time>2013-07-21T12:59:49Z</time>
      </trkpt>
      <trkpt lat="45.25642" lon="5.99609">
        <ele>1335.1</ele>
        <time>2013-07-21T12:59:56Z</time>
      </trkpt>
      <trkpt lat="45.25646" lon="5.99583">
        <ele>1333.79</ele>
        <time>2013-07-21T13:00:05Z</time>
      </trkpt>
      <trkpt lat="45.25665" lon="5.99586">
        <ele>1330.7</ele>
        <time>2013-07-21T13:00:15Z</time>
      </trkpt>
      <trkpt lat="45.25678" lon="5.99613">
        <ele>1329.3</ele>
        <time>2013-07-21T13:00:22Z</time>
      </trkpt>
      <trkpt lat="45.25685" lon="5.99642">
        <ele>1327.21</ele>
        <time>2013-07-21T13:00:25Z</time>
      </trkpt>
      <trkpt lat="45.25693" lon="5.99666">
        <ele>1325.62</ele>
        <time>2013-07-21T13:00:29Z</time>
      </trkpt>
      <trkpt lat="45.25701" lon="5.9969">
        <ele>1324.96</ele>
        <time>2013-07-21T13:00:35Z</time>
      </trkpt>
      <trkpt lat="45.25703" lon="5.99717">
        <ele>1322.8</ele>
        <time>2013-07-21T13:00:44Z</time>
      </trkpt>
    </trkseg>
  </trk>
</gpx>